PWSweather.com
Personal Weather Stations
Station Observations
MODESTO21
East Modesto Ca, Modesto, CA 95355

East Modesto CaModesto, CA 95355

Lat: 37.658055, Lon: -120.94719199999997

Elevation: 88

Station Type: AcuRite 01036CADI

High Low Average
Temperature 54.7°F12.6°F 48.0°F8.9°F 51.8°F11.0°F
Dew Point 53.1°F11.7°F 47.7°F8.7°F 50.8°F10.4°F
Winds 7.8 mph NW12.6 mph NW Calm Calm 2.4 mph 3.9 mph
Wind Gusts 7.8 mph12.6 mph -- 4.1 mph6.6 mph
Humidity 99% 93% 97%
Pressure 30.29 in1025.70 in 30.18 in1022.00 in -
Precipitation 0.00 in0.00 in - -
Hour Temp Dew Point Humidity Winds Wind Gusts Pressure Precip Precip Rate Daily Precip Total
12:00 AM 48.7°F9.3°C 48.4°F9.1°C 99% 3.7 mph NW6.0 kmh NW 6.8 mph10.9 kmh 30.18 in1022.0 mb 0.00 in0.0 mm 0.00 in0.0 mm 0.00 in0.0 mm
12:01 AM 48.7°F9.3°C 48.4°F9.1°C 99% 3.7 mph WNW6.0 kmh WNW 6.8 mph10.9 kmh 30.18 in1022.0 mb 0.00 in0.0 mm 0.00 in0.0 mm 0.00 in0.0 mm
12:02 AM 48.7°F9.3°C 48.4°F9.1°C 99% 4.2 mph NW6.8 kmh NW 6.8 mph10.9 kmh 30.18 in1022.0 mb 0.00 in0.0 mm 0.00 in0.0 mm 0.00 in0.0 mm
12:03 AM 48.7°F9.3°C 48.4°F9.1°C 99% 3.7 mph W6.0 kmh W 6.8 mph10.9 kmh 30.19 in1022.4 mb 0.00 in0.0 mm 0.00 in0.0 mm 0.00 in0.0 mm
12:04 AM 48.7°F9.3°C 48.4°F9.1°C 99% 3.7 mph W6.0 kmh W 6.8 mph10.9 kmh 30.19 in1022.4 mb 0.00 in0.0 mm 0.00 in0.0 mm 0.00 in0.0 mm
12:05 AM 48.7°F9.3°C 48.4°F9.1°C 99% 3.2 mph WSW5.1 kmh WSW 4.7 mph7.6 kmh 30.19 in1022.4 mb 0.00 in0.0 mm 0.00 in0.0 mm 0.00 in0.0 mm
12:06 AM 48.7°F9.3°C 48.4°F9.1°C 99% 4.2 mph WSW6.8 kmh WSW 4.7 mph7.6 kmh 30.19 in1022.4 mb 0.00 in0.0 mm 0.00 in0.0 mm 0.00 in0.0 mm
12:07 AM 48.7°F9.3°C 48.4°F9.1°C 99% 4.2 mph W6.8 kmh W 4.7 mph7.6 kmh 30.19 in1022.4 mb 0.00 in0.0 mm 0.00 in0.0 mm 0.00 in0.0 mm
12:08 AM 48.7°F9.3°C 48.4°F9.1°C 99% 4.2 mph WSW6.8 kmh WSW 4.7 mph7.6 kmh 30.19 in1022.4 mb 0.00 in0.0 mm 0.00 in0.0 mm 0.00 in0.0 mm
12:09 AM 48.7°F9.3°C 48.4°F9.1°C 99% 4.7 mph W7.6 kmh W 4.7 mph7.6 kmh 30.19 in1022.4 mb 0.00 in0.0 mm 0.00 in0.0 mm 0.00 in0.0 mm
12:10 AM 48.7°F9.3°C 48.4°F9.1°C 99% 2.7 mph W4.3 kmh W 4.7 mph7.6 kmh 30.19 in1022.4 mb 0.00 in0.0 mm 0.00 in0.0 mm 0.00 in0.0 mm
12:11 AM 48.7°F9.3°C 48.4°F9.1°C 99% 4.7 mph WNW7.6 kmh WNW 4.7 mph7.6 kmh 30.19 in1022.4 mb 0.00 in0.0 mm 0.00 in0.0 mm 0.00 in0.0 mm
12:12 AM 48.7°F9.3°C 48.4°F9.1°C 99% 2.2 mph WSW3.5 kmh WSW 4.7 mph7.6 kmh 30.19 in1022.4 mb 0.00 in0.0 mm 0.00 in0.0 mm 0.00 in0.0 mm
12:13 AM 48.7°F9.3°C 48.4°F9.1°C 99% 2.2 mph W3.5 kmh W 4.7 mph7.6 kmh 30.19 in1022.4 mb 0.00 in0.0 mm 0.00 in0.0 mm 0.00 in0.0 mm
12:14 AM 48.7°F9.3°C 48.4°F9.1°C 99% 2.2 mph WNW3.5 kmh WNW 4.7 mph7.6 kmh 30.19 in1022.4 mb 0.00 in0.0 mm 0.00 in0.0 mm 0.00 in0.0 mm
12:15 AM 48.6°F9.2°C 48.3°F9.1°C 99% 2.7 mph WNW4.3 kmh WNW 4.7 mph7.6 kmh 30.19 in1022.4 mb 0.00 in0.0 mm 0.00 in0.0 mm 0.00 in0.0 mm
12:16 AM 48.6°F9.2°C 48.3°F9.1°C 99% Calm Calm 4.7 mph7.6 kmh 30.19 in1022.4 mb 0.00 in0.0 mm 0.00 in0.0 mm 0.00 in0.0 mm
12:17 AM 48.6°F9.2°C 48.3°F9.1°C 99% Calm Calm 4.7 mph7.6 kmh 30.19 in1022.4 mb 0.00 in0.0 mm 0.00 in0.0 mm 0.00 in0.0 mm
12:18 AM 48.6°F9.2°C 48.3°F9.1°C 99% 3.2 mph NNE5.1 kmh NNE 4.7 mph7.6 kmh 30.19 in1022.4 mb 0.00 in0.0 mm 0.00 in0.0 mm 0.00 in0.0 mm
12:19 AM 48.6°F9.2°C 48.3°F9.1°C 99% 3.2 mph NNW5.1 kmh NNW 4.7 mph7.6 kmh 30.19 in1022.4 mb 0.00 in0.0 mm 0.00 in0.0 mm 0.00 in0.0 mm
12:20 AM 48.6°F9.2°C 48.3°F9.1°C 99% 2.7 mph NW4.3 kmh NW 4.7 mph7.6 kmh 30.19 in1022.4 mb 0.00 in0.0 mm 0.00 in0.0 mm 0.00 in0.0 mm
12:21 AM 48.6°F9.2°C 48.3°F9.1°C 99% 2.7 mph WNW4.3 kmh WNW 4.7 mph7.6 kmh 30.19 in1022.4 mb 0.00 in0.0 mm 0.00 in0.0 mm 0.00 in0.0 mm
12:22 AM 48.6°F9.2°C 48.3°F9.1°C 99% 2.2 mph NW3.5 kmh NW 3.7 mph6.0 kmh 30.19 in1022.4 mb 0.00 in0.0 mm 0.00 in0.0 mm 0.00 in0.0 mm
12:23 AM 48.6°F9.2°C 48.3°F9.1°C 99% 1.7 mph W2.7 kmh W 3.7 mph6.0 kmh 30.19 in1022.4 mb 0.00 in0.0 mm 0.00 in0.0 mm 0.00 in0.0 mm
12:24 AM 48.6°F9.2°C 48.3°F9.1°C 99% 2.2 mph NW3.5 kmh NW 3.7 mph6.0 kmh 30.19 in1022.4 mb 0.00 in0.0 mm 0.00 in0.0 mm 0.00 in0.0 mm
12:25 AM 48.6°F9.2°C 48.3°F9.1°C 99% 2.7 mph WNW4.3 kmh WNW 3.7 mph6.0 kmh 30.19 in1022.4 mb 0.00 in0.0 mm 0.00 in0.0 mm 0.00 in0.0 mm
12:26 AM 48.6°F9.2°C 48.3°F9.1°C 99% 1.1 mph W1.8 kmh W 3.7 mph6.0 kmh 30.19 in1022.4 mb 0.00 in0.0 mm 0.00 in0.0 mm 0.00 in0.0 mm
12:27 AM 48.6°F9.2°C 48.3°F9.1°C 99% 1.7 mph NW2.7 kmh NW 3.7 mph6.0 kmh 30.19 in1022.4 mb 0.00 in0.0 mm 0.00 in0.0 mm 0.00 in0.0 mm
12:28 AM 48.6°F9.2°C 48.3°F9.1°C 99% 2.2 mph NNW3.5 kmh NNW 3.7 mph6.0 kmh 30.19 in1022.4 mb 0.00 in0.0 mm 0.00 in0.0 mm 0.00 in0.0 mm
12:29 AM 48.6°F9.2°C 48.3°F9.1°C 99% Calm Calm 3.2 mph5.1 kmh 30.19 in1022.4 mb 0.00 in0.0 mm 0.00 in0.0 mm 0.00 in0.0 mm
12:30 AM 48.6°F9.2°C 48.3°F9.1°C 99% Calm Calm 2.7 mph4.3 kmh 30.19 in1022.4 mb 0.00 in0.0 mm 0.00 in0.0 mm 0.00 in0.0 mm
12:31 AM 48.6°F9.2°C 48.3°F9.1°C 99% 1.1 mph N1.8 kmh N 2.7 mph4.3 kmh 30.19 in1022.4 mb 0.00 in0.0 mm 0.00 in0.0 mm 0.00 in0.0 mm
12:32 AM 48.6°F9.2°C 48.3°F9.1°C 99% Calm Calm 2.7 mph4.3 kmh 30.19 in1022.4 mb 0.00 in0.0 mm 0.00 in0.0 mm 0.00 in0.0 mm
12:33 AM 48.6°F9.2°C 48.3°F9.1°C 99% Calm Calm 2.7 mph4.3 kmh 30.19 in1022.4 mb 0.00 in0.0 mm 0.00 in0.0 mm 0.00 in0.0 mm
12:34 AM 48.6°F9.2°C 48.3°F9.1°C 99% Calm Calm 2.7 mph4.3 kmh 30.19 in1022.4 mb 0.00 in0.0 mm 0.00 in0.0 mm 0.00 in0.0 mm
12:35 AM 48.6°F9.2°C 48.3°F9.1°C 99% Calm Calm 2.7 mph4.3 kmh 30.19 in1022.4 mb 0.00 in0.0 mm 0.00 in0.0 mm 0.00 in0.0 mm
12:36 AM 48.6°F9.2°C 48.3°F9.1°C 99% 2.2 mph N3.5 kmh N 2.2 mph3.5 kmh 30.19 in1022.4 mb 0.00 in0.0 mm 0.00 in0.0 mm 0.00 in0.0 mm
12:37 AM 48.6°F9.2°C 48.3°F9.1°C 99% 3.7 mph N6.0 kmh N 3.7 mph6.0 kmh 30.19 in1022.4 mb 0.00 in0.0 mm 0.00 in0.0 mm 0.00 in0.0 mm
12:38 AM 48.6°F9.2°C 48.3°F9.1°C 99% 2.7 mph NNW4.3 kmh NNW 3.7 mph6.0 kmh 30.18 in1022.0 mb 0.00 in0.0 mm 0.00 in0.0 mm 0.00 in0.0 mm
12:39 AM 48.6°F9.2°C 48.3°F9.1°C 99% 1.7 mph NW2.7 kmh NW 3.7 mph6.0 kmh 30.18 in1022.0 mb 0.00 in0.0 mm 0.00 in0.0 mm 0.00 in0.0 mm
12:40 AM 48.6°F9.2°C 48.3°F9.1°C 99% 2.2 mph NNE3.5 kmh NNE 3.7 mph6.0 kmh 30.18 in1022.0 mb 0.00 in0.0 mm 0.00 in0.0 mm 0.00 in0.0 mm
12:41 AM 48.6°F9.2°C 48.3°F9.1°C 99% 1.1 mph W1.8 kmh W 3.7 mph6.0 kmh 30.18 in1022.0 mb 0.00 in0.0 mm 0.00 in0.0 mm 0.00 in0.0 mm
12:42 AM 48.6°F9.2°C 48.3°F9.1°C 99% Calm Calm 3.7 mph6.0 kmh 30.18 in1022.0 mb 0.00 in0.0 mm 0.00 in0.0 mm 0.00 in0.0 mm
12:43 AM 48.6°F9.2°C 48.3°F9.1°C 99% Calm Calm 3.7 mph6.0 kmh 30.18 in1022.0 mb 0.00 in0.0 mm 0.00 in0.0 mm 0.00 in0.0 mm
12:44 AM 48.6°F9.2°C 48.3°F9.1°C 99% Calm Calm 3.7 mph6.0 kmh 30.18 in1022.0 mb 0.00 in0.0 mm 0.00 in0.0 mm 0.00 in0.0 mm
12:45 AM 48.6°F9.2°C 48.3°F9.1°C 99% Calm Calm 3.7 mph6.0 kmh 30.18 in1022.0 mb 0.00 in0.0 mm 0.00 in0.0 mm 0.00 in0.0 mm
12:46 AM 48.6°F9.2°C 48.3°F9.1°C 99% Calm Calm 3.7 mph6.0 kmh 30.18 in1022.0 mb 0.00 in0.0 mm 0.00 in0.0 mm 0.00 in0.0 mm
12:47 AM 48.6°F9.2°C 48.3°F9.1°C 99% 2.7 mph N4.3 kmh N 3.7 mph6.0 kmh 30.18 in1022.0 mb 0.00 in0.0 mm 0.00 in0.0 mm 0.00 in0.0 mm
12:48 AM 48.6°F9.2°C 48.3°F9.1°C 99% 3.2 mph N5.1 kmh N 3.2 mph5.1 kmh 30.18 in1022.0 mb 0.00 in0.0 mm 0.00 in0.0 mm 0.00 in0.0 mm
12:49 AM 48.6°F9.2°C 48.3°F9.1°C 99% 3.7 mph NNE6.0 kmh NNE 4.2 mph6.8 kmh 30.18 in1022.0 mb 0.00 in0.0 mm 0.00 in0.0 mm 0.00 in0.0 mm
12:50 AM 48.6°F9.2°C 48.3°F9.1°C 99% 3.2 mph NNW5.1 kmh NNW 4.2 mph6.8 kmh 30.18 in1022.0 mb 0.00 in0.0 mm 0.00 in0.0 mm 0.00 in0.0 mm
12:51 AM 48.6°F9.2°C 48.3°F9.1°C 99% 3.7 mph NNE6.0 kmh NNE 4.2 mph6.8 kmh 30.19 in1022.4 mb 0.00 in0.0 mm 0.00 in0.0 mm 0.00 in0.0 mm
12:52 AM 48.6°F9.2°C 48.3°F9.1°C 99% 3.7 mph N6.0 kmh N 4.2 mph6.8 kmh 30.19 in1022.4 mb 0.00 in0.0 mm 0.00 in0.0 mm 0.00 in0.0 mm
12:53 AM 48.6°F9.2°C 48.3°F9.1°C 99% 3.7 mph N6.0 kmh N 4.2 mph6.8 kmh 30.19 in1022.4 mb 0.00 in0.0 mm 0.00 in0.0 mm 0.00 in0.0 mm
12:54 AM 48.6°F9.2°C 48.3°F9.1°C 99% 3.7 mph NNE6.0 kmh NNE 4.2 mph6.8 kmh 30.19 in1022.4 mb 0.00 in0.0 mm 0.00 in0.0 mm 0.00 in0.0 mm
12:55 AM 48.6°F9.2°C 48.3°F9.1°C 99% 3.2 mph WNW5.1 kmh WNW 4.2 mph6.8 kmh 30.19 in1022.4 mb 0.00 in0.0 mm 0.00 in0.0 mm 0.00 in0.0 mm
12:56 AM 48.6°F9.2°C 48.3°F9.1°C 99% 2.7 mph NNW4.3 kmh NNW 4.2 mph6.8 kmh 30.19 in1022.4 mb 0.00 in0.0 mm 0.00 in0.0 mm 0.00 in0.0 mm
12:57 AM 48.6°F9.2°C 48.3°F9.1°C 99% 3.2 mph NW5.1 kmh NW 4.2 mph6.8 kmh 30.19 in1022.4 mb 0.00 in0.0 mm 0.00 in0.0 mm 0.00 in0.0 mm
12:58 AM 48.6°F9.2°C 48.3°F9.1°C 99% 2.7 mph WNW4.3 kmh WNW 4.2 mph6.8 kmh 30.19 in1022.4 mb 0.00 in0.0 mm 0.00 in0.0 mm 0.00 in0.0 mm
12:59 AM 48.6°F9.2°C 48.3°F9.1°C 99% 1.7 mph NNW2.7 kmh NNW 4.2 mph6.8 kmh 30.19 in1022.4 mb 0.00 in0.0 mm 0.00 in0.0 mm 0.00 in0.0 mm
01:00 AM 48.6°F9.2°C 48.3°F9.1°C 99% 1.1 mph NNE1.8 kmh NNE 4.2 mph6.8 kmh 30.19 in1022.4 mb 0.00 in0.0 mm 0.00 in0.0 mm 0.00 in0.0 mm
01:01 AM 48.6°F9.2°C 48.3°F9.1°C 99% 1.7 mph NW2.7 kmh NW 4.2 mph6.8 kmh 30.19 in1022.4 mb 0.00 in0.0 mm 0.00 in0.0 mm 0.00 in0.0 mm
01:02 AM 48.6°F9.2°C 48.3°F9.1°C 99% 1.1 mph W1.8 kmh W 4.2 mph6.8 kmh 30.20 in1022.7 mb 0.00 in0.0 mm 0.00 in0.0 mm 0.00 in0.0 mm
01:03 AM 48.6°F9.2°C 48.3°F9.1°C 99% Calm Calm 4.2 mph6.8 kmh 30.20 in1022.7 mb 0.00 in0.0 mm 0.00 in0.0 mm 0.00 in0.0 mm
01:04 AM 48.6°F9.2°C 48.3°F9.1°C 99% 1.7 mph W2.7 kmh W 4.2 mph6.8 kmh 30.20 in1022.7 mb 0.00 in0.0 mm 0.00 in0.0 mm 0.00 in0.0 mm
01:05 AM 48.6°F9.2°C 48.3°F9.1°C 99% 1.7 mph W2.7 kmh W 3.7 mph6.0 kmh 30.20 in1022.7 mb 0.00 in0.0 mm 0.00 in0.0 mm 0.00 in0.0 mm
01:06 AM 48.6°F9.2°C 48.3°F9.1°C 99% 1.7 mph NNW2.7 kmh NNW 3.7 mph6.0 kmh 30.20 in1022.7 mb 0.00 in0.0 mm 0.00 in0.0 mm 0.00 in0.0 mm
01:07 AM 48.6°F9.2°C 48.3°F9.1°C 99% 3.2 mph N5.1 kmh N 3.2 mph5.1 kmh 30.20 in1022.7 mb 0.00 in0.0 mm 0.00 in0.0 mm 0.00 in0.0 mm
01:08 AM 48.6°F9.2°C 48.3°F9.1°C 99% 3.2 mph N5.1 kmh N 3.2 mph5.1 kmh 30.20 in1022.7 mb 0.00 in0.0 mm 0.00 in0.0 mm 0.00 in0.0 mm
01:14 AM 48.6°F9.2°C 48.3°F9.1°C 99% 3.7 mph N6.0 kmh N 3.7 mph6.0 kmh 30.21 in1023.0 mb 0.00 in0.0 mm 0.00 in0.0 mm 0.00 in0.0 mm
01:15 AM 48.6°F9.2°C 48.3°F9.1°C 99% 2.7 mph NNW4.3 kmh NNW 3.7 mph6.0 kmh 30.21 in1023.0 mb 0.00 in0.0 mm 0.00 in0.0 mm 0.00 in0.0 mm
01:16 AM 48.6°F9.2°C 48.3°F9.1°C 99% 2.2 mph N3.5 kmh N 3.7 mph6.0 kmh 30.21 in1023.0 mb 0.00 in0.0 mm 0.00 in0.0 mm 0.00 in0.0 mm
01:17 AM 48.6°F9.2°C 48.3°F9.1°C 99% 2.7 mph NW4.3 kmh NW 4.2 mph6.8 kmh 30.21 in1023.0 mb 0.00 in0.0 mm 0.00 in0.0 mm 0.00 in0.0 mm
01:18 AM 48.6°F9.2°C 48.3°F9.1°C 99% 3.2 mph NNW5.1 kmh NNW 4.2 mph6.8 kmh 30.21 in1023.0 mb 0.00 in0.0 mm 0.00 in0.0 mm 0.00 in0.0 mm
01:19 AM 48.6°F9.2°C 48.3°F9.1°C 99% 2.7 mph NW4.3 kmh NW 4.2 mph6.8 kmh 30.21 in1023.0 mb 0.00 in0.0 mm 0.00 in0.0 mm 0.00 in0.0 mm
01:20 AM 48.6°F9.2°C 48.3°F9.1°C 99% 3.7 mph W6.0 kmh W 4.2 mph6.8 kmh 30.21 in1023.0 mb 0.00 in0.0 mm 0.00 in0.0 mm 0.00 in0.0 mm
01:21 AM 48.6°F9.2°C 48.3°F9.1°C 99% 2.7 mph WNW4.3 kmh WNW 4.2 mph6.8 kmh 30.21 in1023.0 mb 0.00 in0.0 mm 0.00 in0.0 mm 0.00 in0.0 mm
01:22 AM 48.6°F9.2°C 48.3°F9.1°C 99% 2.2 mph NW3.5 kmh NW 4.7 mph7.6 kmh 30.21 in1023.0 mb 0.00 in0.0 mm 0.00 in0.0 mm 0.00 in0.0 mm
01:23 AM 48.6°F9.2°C 48.3°F9.1°C 99% 1.7 mph NW2.7 kmh NW 4.7 mph7.6 kmh 30.21 in1023.0 mb 0.00 in0.0 mm 0.00 in0.0 mm 0.00 in0.0 mm
01:24 AM 48.6°F9.2°C 48.3°F9.1°C 99% 2.2 mph NE3.5 kmh NE 4.7 mph7.6 kmh 30.21 in1023.0 mb 0.00 in0.0 mm 0.00 in0.0 mm 0.00 in0.0 mm
01:25 AM 48.6°F9.2°C 48.3°F9.1°C 99% Calm Calm 4.7 mph7.6 kmh 30.21 in1023.0 mb 0.00 in0.0 mm 0.00 in0.0 mm 0.00 in0.0 mm
01:26 AM 48.6°F9.2°C 48.3°F9.1°C 99% Calm Calm 4.7 mph7.6 kmh 30.21 in1023.0 mb 0.00 in0.0 mm 0.00 in0.0 mm 0.00 in0.0 mm
01:27 AM 48.6°F9.2°C 48.3°F9.1°C 99% Calm Calm 4.7 mph7.6 kmh 30.21 in1023.0 mb 0.00 in0.0 mm 0.00 in0.0 mm 0.00 in0.0 mm
01:28 AM 48.6°F9.2°C 48.3°F9.1°C 99% Calm Calm 4.7 mph7.6 kmh 30.21 in1023.0 mb 0.00 in0.0 mm 0.00 in0.0 mm 0.00 in0.0 mm
01:29 AM 48.6°F9.2°C 48.3°F9.1°C 99% Calm Calm 4.7 mph7.6 kmh 30.21 in1023.0 mb 0.00 in0.0 mm 0.00 in0.0 mm 0.00 in0.0 mm
01:30 AM 48.6°F9.2°C 48.3°F9.1°C 99% 3.2 mph NE5.1 kmh NE 4.7 mph7.6 kmh 30.21 in1023.0 mb 0.00 in0.0 mm 0.00 in0.0 mm 0.00 in0.0 mm
01:31 AM 48.6°F9.2°C 48.3°F9.1°C 99% 3.7 mph N6.0 kmh N 4.7 mph7.6 kmh 30.21 in1023.0 mb 0.00 in0.0 mm 0.00 in0.0 mm 0.00 in0.0 mm
01:32 AM 48.6°F9.2°C 48.3°F9.1°C 99% 3.2 mph NNE5.1 kmh NNE 3.7 mph6.0 kmh 30.21 in1023.0 mb 0.00 in0.0 mm 0.00 in0.0 mm 0.00 in0.0 mm
01:33 AM 48.6°F9.2°C 48.3°F9.1°C 99% 2.2 mph NNW3.5 kmh NNW 3.7 mph6.0 kmh 30.21 in1023.0 mb 0.00 in0.0 mm 0.00 in0.0 mm 0.00 in0.0 mm
01:34 AM 48.6°F9.2°C 48.3°F9.1°C 99% 2.2 mph N3.5 kmh N 3.7 mph6.0 kmh 30.21 in1023.0 mb 0.00 in0.0 mm 0.00 in0.0 mm 0.00 in0.0 mm
01:35 AM 48.6°F9.2°C 48.3°F9.1°C 99% 2.2 mph NW3.5 kmh NW 3.7 mph6.0 kmh 30.21 in1023.0 mb 0.00 in0.0 mm 0.00 in0.0 mm 0.00 in0.0 mm
01:36 AM 48.6°F9.2°C 48.3°F9.1°C 99% 2.2 mph NNW3.5 kmh NNW 3.7 mph6.0 kmh 30.21 in1023.0 mb 0.00 in0.0 mm 0.00 in0.0 mm 0.00 in0.0 mm
01:37 AM 48.6°F9.2°C 48.3°F9.1°C 99% 2.2 mph WNW3.5 kmh WNW 3.7 mph6.0 kmh 30.21 in1023.0 mb 0.00 in0.0 mm 0.00 in0.0 mm 0.00 in0.0 mm
01:38 AM 48.6°F9.2°C 48.3°F9.1°C 99% 2.7 mph NNW4.3 kmh NNW 3.7 mph6.0 kmh 30.21 in1023.0 mb 0.00 in0.0 mm 0.00 in0.0 mm 0.00 in0.0 mm
01:39 AM 48.6°F9.2°C 48.3°F9.1°C 99% 2.2 mph NNW3.5 kmh NNW 3.7 mph6.0 kmh 30.21 in1023.0 mb 0.00 in0.0 mm 0.00 in0.0 mm 0.00 in0.0 mm
01:40 AM 48.6°F9.2°C 48.3°F9.1°C 99% 3.7 mph NNW6.0 kmh NNW 3.7 mph6.0 kmh 30.21 in1023.0 mb 0.00 in0.0 mm 0.00 in0.0 mm 0.00 in0.0 mm
01:41 AM 48.6°F9.2°C 48.3°F9.1°C 99% 1.7 mph ESE2.7 kmh ESE 3.7 mph6.0 kmh 30.21 in1023.0 mb 0.00 in0.0 mm 0.00 in0.0 mm 0.00 in0.0 mm
01:42 AM 48.6°F9.2°C 48.3°F9.1°C 99% Calm Calm 3.7 mph6.0 kmh 30.21 in1023.0 mb 0.00 in0.0 mm 0.00 in0.0 mm 0.00 in0.0 mm
01:43 AM 48.6°F9.2°C 48.3°F9.1°C 99% Calm Calm 3.7 mph6.0 kmh 30.21 in1023.0 mb 0.00 in0.0 mm 0.00 in0.0 mm 0.00 in0.0 mm
01:44 AM 48.6°F9.2°C 48.3°F9.1°C 99% Calm Calm 3.7 mph6.0 kmh 30.21 in1023.0 mb 0.00 in0.0 mm 0.00 in0.0 mm 0.00 in0.0 mm
01:45 AM 48.6°F9.2°C 48.3°F9.1°C 99% Calm Calm 3.7 mph6.0 kmh 30.21 in1023.0 mb 0.00 in0.0 mm 0.00 in0.0 mm 0.00 in0.0 mm
01:46 AM 48.6°F9.2°C 48.3°F9.1°C 99% Calm Calm 3.7 mph6.0 kmh 30.21 in1023.0 mb 0.00 in0.0 mm 0.00 in0.0 mm 0.00 in0.0 mm
01:47 AM 48.6°F9.2°C 48.3°F9.1°C 99% Calm Calm 3.7 mph6.0 kmh 30.21 in1023.0 mb 0.00 in0.0 mm 0.00 in0.0 mm 0.00 in0.0 mm
01:48 AM 48.6°F9.2°C 48.3°F9.1°C 99% Calm Calm 3.7 mph6.0 kmh 30.21 in1023.0 mb 0.00 in0.0 mm 0.00 in0.0 mm 0.00 in0.0 mm
01:49 AM 48.6°F9.2°C 48.3°F9.1°C 99% Calm Calm 3.7 mph6.0 kmh 30.21 in1023.0 mb 0.00 in0.0 mm 0.00 in0.0 mm 0.00 in0.0 mm
01:50 AM 48.6°F9.2°C 48.3°F9.1°C 99% Calm Calm 3.7 mph6.0 kmh 30.20 in1022.7 mb 0.00 in0.0 mm 0.00 in0.0 mm 0.00 in0.0 mm
01:51 AM 48.6°F9.2°C 48.3°F9.1°C 99% Calm Calm 1.1 mph1.8 kmh 30.20 in1022.7 mb 0.00 in0.0 mm 0.00 in0.0 mm 0.00 in0.0 mm
01:52 AM 48.6°F9.2°C 48.3°F9.1°C 99% 2.2 mph ESE3.5 kmh ESE 2.2 mph3.5 kmh 30.20 in1022.7 mb 0.00 in0.0 mm 0.00 in0.0 mm 0.00 in0.0 mm
01:53 AM 48.6°F9.2°C 48.3°F9.1°C 99% 2.2 mph ESE3.5 kmh ESE 2.7 mph4.3 kmh 30.20 in1022.7 mb 0.00 in0.0 mm 0.00 in0.0 mm 0.00 in0.0 mm
01:54 AM 48.6°F9.2°C 48.3°F9.1°C 99% 2.7 mph ESE4.3 kmh ESE 2.7 mph4.3 kmh 30.20 in1022.7 mb 0.00 in0.0 mm 0.00 in0.0 mm 0.00 in0.0 mm
01:55 AM 48.6°F9.2°C 48.3°F9.1°C 99% 1.7 mph NE2.7 kmh NE 2.7 mph4.3 kmh 30.20 in1022.7 mb 0.00 in0.0 mm 0.00 in0.0 mm 0.00 in0.0 mm
01:56 AM 48.6°F9.2°C 48.3°F9.1°C 99% 1.1 mph ESE1.8 kmh ESE 2.7 mph4.3 kmh 30.20 in1022.7 mb 0.00 in0.0 mm 0.00 in0.0 mm 0.00 in0.0 mm
01:57 AM 48.6°F9.2°C 48.3°F9.1°C 99% 1.7 mph NE2.7 kmh NE 2.7 mph4.3 kmh 30.20 in1022.7 mb 0.00 in0.0 mm 0.00 in0.0 mm 0.00 in0.0 mm
01:58 AM 48.6°F9.2°C 48.3°F9.1°C 99% 3.7 mph ESE6.0 kmh ESE 3.7 mph6.0 kmh 30.20 in1022.7 mb 0.00 in0.0 mm 0.00 in0.0 mm 0.00 in0.0 mm
01:59 AM 48.6°F9.2°C 48.3°F9.1°C 99% 3.2 mph E5.1 kmh E 3.7 mph6.0 kmh 30.20 in1022.7 mb 0.00 in0.0 mm 0.00 in0.0 mm 0.00 in0.0 mm
02:00 AM 48.6°F9.2°C 48.3°F9.1°C 99% 1.7 mph ESE2.7 kmh ESE 3.7 mph6.0 kmh 30.20 in1022.7 mb 0.00 in0.0 mm 0.00 in0.0 mm 0.00 in0.0 mm
02:01 AM 48.6°F9.2°C 48.3°F9.1°C 99% 1.7 mph E2.7 kmh E 3.7 mph6.0 kmh 30.20 in1022.7 mb 0.00 in0.0 mm 0.00 in0.0 mm 0.00 in0.0 mm
02:02 AM 48.6°F9.2°C 48.3°F9.1°C 99% 2.2 mph ESE3.5 kmh ESE 3.7 mph6.0 kmh 30.18 in1022.0 mb 0.00 in0.0 mm 0.00 in0.0 mm 0.00 in0.0 mm
02:03 AM 48.6°F9.2°C 48.3°F9.1°C 99% 1.7 mph ESE2.7 kmh ESE 3.7 mph6.0 kmh 30.18 in1022.0 mb 0.00 in0.0 mm 0.00 in0.0 mm 0.00 in0.0 mm
02:04 AM 48.6°F9.2°C 48.3°F9.1°C 99% Calm Calm 3.7 mph6.0 kmh 30.18 in1022.0 mb 0.00 in0.0 mm 0.00 in0.0 mm 0.00 in0.0 mm
02:05 AM 48.6°F9.2°C 48.3°F9.1°C 99% 1.7 mph ESE2.7 kmh ESE 3.7 mph6.0 kmh 30.18 in1022.0 mb 0.00 in0.0 mm 0.00 in0.0 mm 0.00 in0.0 mm
02:06 AM 48.6°F9.2°C 48.3°F9.1°C 99% Calm Calm 3.7 mph6.0 kmh 30.18 in1022.0 mb 0.00 in0.0 mm 0.00 in0.0 mm 0.00 in0.0 mm
02:07 AM 48.6°F9.2°C 48.3°F9.1°C 99% 1.7 mph ENE2.7 kmh ENE 3.7 mph6.0 kmh 30.18 in1022.0 mb 0.00 in0.0 mm 0.00 in0.0 mm 0.00 in0.0 mm
02:08 AM 48.6°F9.2°C 48.3°F9.1°C 99% 3.2 mph ENE5.1 kmh ENE 3.7 mph6.0 kmh 30.18 in1022.0 mb 0.00 in0.0 mm 0.00 in0.0 mm 0.00 in0.0 mm
02:09 AM 48.6°F9.2°C 48.3°F9.1°C 99% 5.3 mph ENE8.5 kmh ENE 5.3 mph8.5 kmh 30.18 in1022.0 mb 0.00 in0.0 mm 0.00 in0.0 mm 0.00 in0.0 mm
02:10 AM 48.6°F9.2°C 48.3°F9.1°C 99% 2.7 mph E4.3 kmh E 5.3 mph8.5 kmh 30.18 in1022.0 mb 0.00 in0.0 mm 0.00 in0.0 mm 0.00 in0.0 mm
02:11 AM 48.6°F9.2°C 48.3°F9.1°C 99% 2.7 mph ENE4.3 kmh ENE 5.3 mph8.5 kmh 30.18 in1022.0 mb 0.00 in0.0 mm 0.00 in0.0 mm 0.00 in0.0 mm
02:12 AM 48.6°F9.2°C 48.3°F9.1°C 99% 2.7 mph ESE4.3 kmh ESE 5.3 mph8.5 kmh 30.18 in1022.0 mb 0.00 in0.0 mm 0.00 in0.0 mm 0.00 in0.0 mm
02:13 AM 48.6°F9.2°C 48.3°F9.1°C 99% 2.2 mph ESE3.5 kmh ESE 5.3 mph8.5 kmh 30.18 in1022.0 mb 0.00 in0.0 mm 0.00 in0.0 mm 0.00 in0.0 mm
02:14 AM 48.6°F9.2°C 48.3°F9.1°C 99% 2.2 mph SSW3.5 kmh SSW 5.3 mph8.5 kmh 30.18 in1022.0 mb 0.00 in0.0 mm 0.00 in0.0 mm 0.00 in0.0 mm
02:15 AM 48.6°F9.2°C 48.3°F9.1°C 99% 1.7 mph ESE2.7 kmh ESE 5.3 mph8.5 kmh 30.18 in1022.0 mb 0.00 in0.0 mm 0.00 in0.0 mm 0.00 in0.0 mm
02:16 AM 48.6°F9.2°C 48.3°F9.1°C 99% 1.1 mph ESE1.8 kmh ESE 5.3 mph8.5 kmh 30.18 in1022.0 mb 0.00 in0.0 mm 0.00 in0.0 mm 0.00 in0.0 mm
02:17 AM 48.6°F9.2°C 48.3°F9.1°C 99% 1.1 mph NE1.8 kmh NE 5.3 mph8.5 kmh 30.18 in1022.0 mb 0.00 in0.0 mm 0.00 in0.0 mm 0.00 in0.0 mm
02:18 AM 48.6°F9.2°C 48.3°F9.1°C 99% 1.1 mph SSE1.8 kmh SSE 5.3 mph8.5 kmh 30.18 in1022.0 mb 0.00 in0.0 mm 0.00 in0.0 mm 0.00 in0.0 mm
02:19 AM 48.6°F9.2°C 48.3°F9.1°C 99% 1.7 mph E2.7 kmh E 3.2 mph5.1 kmh 30.18 in1022.0 mb 0.00 in0.0 mm 0.00 in0.0 mm 0.00 in0.0 mm
02:20 AM 48.6°F9.2°C 48.3°F9.1°C 99% Calm Calm 3.2 mph5.1 kmh 30.18 in1022.0 mb 0.00 in0.0 mm 0.00 in0.0 mm 0.00 in0.0 mm
02:21 AM 48.6°F9.2°C 48.3°F9.1°C 99% Calm Calm 3.2 mph5.1 kmh 30.18 in1022.0 mb 0.00 in0.0 mm 0.00 in0.0 mm 0.00 in0.0 mm
02:22 AM 48.6°F9.2°C 48.3°F9.1°C 99% 1.1 mph E1.8 kmh E 2.7 mph4.3 kmh 30.18 in1022.0 mb 0.00 in0.0 mm 0.00 in0.0 mm 0.00 in0.0 mm
02:23 AM 48.6°F9.2°C 48.3°F9.1°C 99% 1.7 mph E2.7 kmh E 2.7 mph4.3 kmh 30.18 in1022.0 mb 0.00 in0.0 mm 0.00 in0.0 mm 0.00 in0.0 mm
02:24 AM 48.6°F9.2°C 48.3°F9.1°C 99% Calm Calm 2.7 mph4.3 kmh 30.18 in1022.0 mb 0.00 in0.0 mm 0.00 in0.0 mm 0.00 in0.0 mm
02:25 AM 48.6°F9.2°C 48.3°F9.1°C 99% 1.1 mph W1.8 kmh W 2.7 mph4.3 kmh 30.18 in1022.0 mb 0.00 in0.0 mm 0.00 in0.0 mm 0.00 in0.0 mm
02:26 AM 48.6°F9.2°C 48.3°F9.1°C 99% 2.2 mph ESE3.5 kmh ESE 2.7 mph4.3 kmh 30.19 in1022.4 mb 0.00 in0.0 mm 0.00 in0.0 mm 0.00 in0.0 mm
02:27 AM 48.6°F9.2°C 48.3°F9.1°C 99% Calm Calm 3.7 mph6.0 kmh 30.19 in1022.4 mb 0.00 in0.0 mm 0.00 in0.0 mm 0.00 in0.0 mm
02:28 AM 48.6°F9.2°C 48.3°F9.1°C 99% 1.1 mph SE1.8 kmh SE 3.7 mph6.0 kmh 30.19 in1022.4 mb 0.00 in0.0 mm 0.00 in0.0 mm 0.00 in0.0 mm
02:29 AM 48.6°F9.2°C 48.3°F9.1°C 99% 2.7 mph ESE4.3 kmh ESE 3.7 mph6.0 kmh 30.19 in1022.4 mb 0.00 in0.0 mm 0.00 in0.0 mm 0.00 in0.0 mm
02:30 AM 48.6°F9.2°C 48.3°F9.1°C 99% Calm Calm 3.7 mph6.0 kmh 30.19 in1022.4 mb 0.00 in0.0 mm 0.00 in0.0 mm 0.00 in0.0 mm
02:31 AM 48.6°F9.2°C 48.3°F9.1°C 99% 2.2 mph ESE3.5 kmh ESE 3.7 mph6.0 kmh 30.19 in1022.4 mb 0.00 in0.0 mm 0.00 in0.0 mm 0.00 in0.0 mm
02:32 AM 48.6°F9.2°C 48.3°F9.1°C 99% 2.7 mph E4.3 kmh E 3.7 mph6.0 kmh 30.19 in1022.4 mb 0.00 in0.0 mm 0.00 in0.0 mm 0.00 in0.0 mm
02:33 AM 48.6°F9.2°C 48.3°F9.1°C 99% 3.2 mph ESE5.1 kmh ESE 3.7 mph6.0 kmh 30.19 in1022.4 mb 0.00 in0.0 mm 0.00 in0.0 mm 0.00 in0.0 mm
02:34 AM 48.6°F9.2°C 48.3°F9.1°C 99% 3.7 mph E6.0 kmh E 4.7 mph7.6 kmh 30.19 in1022.4 mb 0.00 in0.0 mm 0.00 in0.0 mm 0.00 in0.0 mm
02:35 AM 48.6°F9.2°C 48.3°F9.1°C 99% 2.2 mph E3.5 kmh E 4.7 mph7.6 kmh 30.19 in1022.4 mb 0.00 in0.0 mm 0.00 in0.0 mm 0.00 in0.0 mm
02:36 AM 48.6°F9.2°C 48.3°F9.1°C 99% 2.2 mph E3.5 kmh E 4.7 mph7.6 kmh 30.19 in1022.4 mb 0.00 in0.0 mm 0.00 in0.0 mm 0.00 in0.0 mm
02:37 AM 48.6°F9.2°C 48.3°F9.1°C 99% 5.8 mph ESE9.3 kmh ESE 5.8 mph9.3 kmh 30.19 in1022.4 mb 0.00 in0.0 mm 0.00 in0.0 mm 0.00 in0.0 mm
02:38 AM 48.6°F9.2°C 48.3°F9.1°C 99% 2.7 mph E4.3 kmh E 5.8 mph9.3 kmh 30.18 in1022.0 mb 0.00 in0.0 mm 0.00 in0.0 mm 0.00 in0.0 mm
02:39 AM 48.6°F9.2°C 48.3°F9.1°C 99% 1.7 mph E2.7 kmh E 5.8 mph9.3 kmh 30.18 in1022.0 mb 0.00 in0.0 mm 0.00 in0.0 mm 0.00 in0.0 mm
02:40 AM 48.6°F9.2°C 48.3°F9.1°C 99% 1.7 mph ESE2.7 kmh ESE 5.8 mph9.3 kmh 30.18 in1022.0 mb 0.00 in0.0 mm 0.00 in0.0 mm 0.00 in0.0 mm
02:41 AM 48.6°F9.2°C 48.3°F9.1°C 99% 1.7 mph ENE2.7 kmh ENE 5.8 mph9.3 kmh 30.18 in1022.0 mb 0.00 in0.0 mm 0.00 in0.0 mm 0.00 in0.0 mm
02:42 AM 48.6°F9.2°C 48.3°F9.1°C 99% 1.1 mph E1.8 kmh E 5.8 mph9.3 kmh 30.18 in1022.0 mb 0.00 in0.0 mm 0.00 in0.0 mm 0.00 in0.0 mm
02:43 AM 48.6°F9.2°C 48.3°F9.1°C 99% 1.7 mph ESE2.7 kmh ESE 5.8 mph9.3 kmh 30.18 in1022.0 mb 0.00 in0.0 mm 0.00 in0.0 mm 0.00 in0.0 mm
02:44 AM 48.6°F9.2°C 48.3°F9.1°C 99% 1.1 mph ESE1.8 kmh ESE 5.8 mph9.3 kmh 30.18 in1022.0 mb 0.00 in0.0 mm 0.00 in0.0 mm 0.00 in0.0 mm
02:45 AM 48.6°F9.2°C 48.3°F9.1°C 99% 1.7 mph ENE2.7 kmh ENE 5.8 mph9.3 kmh 30.18 in1022.0 mb 0.00 in0.0 mm 0.00 in0.0 mm 0.00 in0.0 mm
02:46 AM 48.6°F9.2°C 48.3°F9.1°C 99% 1.7 mph ESE2.7 kmh ESE 5.8 mph9.3 kmh 30.18 in1022.0 mb 0.00 in0.0 mm 0.00 in0.0 mm 0.00 in0.0 mm
02:47 AM 48.6°F9.2°C 48.3°F9.1°C 99% 2.2 mph N3.5 kmh N 4.2 mph6.8 kmh 30.18 in1022.0 mb 0.00 in0.0 mm 0.00 in0.0 mm 0.00 in0.0 mm
02:48 AM 48.4°F9.1°C 48.1°F8.9°C 99% 2.7 mph ESE4.3 kmh ESE 3.7 mph6.0 kmh 30.18 in1022.0 mb 0.00 in0.0 mm 0.00 in0.0 mm 0.00 in0.0 mm
02:49 AM 48.4°F9.1°C 48.1°F8.9°C 99% 1.7 mph ENE2.7 kmh ENE 3.7 mph6.0 kmh 30.18 in1022.0 mb 0.00 in0.0 mm 0.00 in0.0 mm 0.00 in0.0 mm
02:50 AM 48.4°F9.1°C 48.1°F8.9°C 99% 1.1 mph ESE1.8 kmh ESE 3.7 mph6.0 kmh 30.19 in1022.4 mb 0.00 in0.0 mm 0.00 in0.0 mm 0.00 in0.0 mm
02:51 AM 48.4°F9.1°C 48.1°F8.9°C 99% 1.1 mph ESE1.8 kmh ESE 3.7 mph6.0 kmh 30.19 in1022.4 mb 0.00 in0.0 mm 0.00 in0.0 mm 0.00 in0.0 mm
02:52 AM 48.4°F9.1°C 48.1°F8.9°C 99% 1.1 mph NE1.8 kmh NE 3.7 mph6.0 kmh 30.19 in1022.4 mb 0.00 in0.0 mm 0.00 in0.0 mm 0.00 in0.0 mm
02:53 AM 48.4°F9.1°C 48.1°F8.9°C 99% Calm Calm 3.7 mph6.0 kmh 30.19 in1022.4 mb 0.00 in0.0 mm 0.00 in0.0 mm 0.00 in0.0 mm
02:54 AM 48.4°F9.1°C 48.1°F8.9°C 99% Calm Calm 3.7 mph6.0 kmh 30.19 in1022.4 mb 0.00 in0.0 mm 0.00 in0.0 mm 0.00 in0.0 mm
02:55 AM 48.4°F9.1°C 48.1°F8.9°C 99% Calm Calm 3.7 mph6.0 kmh 30.19 in1022.4 mb 0.00 in0.0 mm 0.00 in0.0 mm 0.00 in0.0 mm
02:56 AM 48.4°F9.1°C 48.1°F8.9°C 99% Calm Calm 3.7 mph6.0 kmh 30.19 in1022.4 mb 0.00 in0.0 mm 0.00 in0.0 mm 0.00 in0.0 mm
02:57 AM 48.4°F9.1°C 48.1°F8.9°C 99% 1.7 mph WSW2.7 kmh WSW 3.7 mph6.0 kmh 30.19 in1022.4 mb 0.00 in0.0 mm 0.00 in0.0 mm 0.00 in0.0 mm
02:58 AM 48.4°F9.1°C 48.1°F8.9°C 99% 1.7 mph W2.7 kmh W 2.7 mph4.3 kmh 30.19 in1022.4 mb 0.00 in0.0 mm 0.00 in0.0 mm 0.00 in0.0 mm
02:59 AM 48.4°F9.1°C 48.1°F8.9°C 99% Calm Calm 2.7 mph4.3 kmh 30.19 in1022.4 mb 0.00 in0.0 mm 0.00 in0.0 mm 0.00 in0.0 mm
03:00 AM 48.4°F9.1°C 48.1°F8.9°C 99% Calm Calm 2.7 mph4.3 kmh 30.19 in1022.4 mb 0.00 in0.0 mm 0.00 in0.0 mm 0.00 in0.0 mm
03:01 AM 48.4°F9.1°C 48.1°F8.9°C 99% Calm Calm 2.7 mph4.3 kmh 30.19 in1022.4 mb 0.00 in0.0 mm 0.00 in0.0 mm 0.00 in0.0 mm
03:02 AM 48.4°F9.1°C 48.1°F8.9°C 99% 1.7 mph WNW2.7 kmh WNW 2.7 mph4.3 kmh 30.19 in1022.4 mb 0.00 in0.0 mm 0.00 in0.0 mm 0.00 in0.0 mm
03:03 AM 48.4°F9.1°C 48.1°F8.9°C 99% Calm Calm 2.7 mph4.3 kmh 30.21 in1023.0 mb 0.00 in0.0 mm 0.00 in0.0 mm 0.00 in0.0 mm
03:04 AM 48.4°F9.1°C 48.1°F8.9°C 99% 2.2 mph W3.5 kmh W 2.7 mph4.3 kmh 30.21 in1023.0 mb 0.00 in0.0 mm 0.00 in0.0 mm 0.00 in0.0 mm
03:05 AM 48.4°F9.1°C 48.1°F8.9°C 99% Calm Calm 2.7 mph4.3 kmh 30.21 in1023.0 mb 0.00 in0.0 mm 0.00 in0.0 mm 0.00 in0.0 mm
03:06 AM 48.4°F9.1°C 48.1°F8.9°C 99% Calm Calm 2.7 mph4.3 kmh 30.21 in1023.0 mb 0.00 in0.0 mm 0.00 in0.0 mm 0.00 in0.0 mm
03:07 AM 48.4°F9.1°C 48.1°F8.9°C 99% Calm Calm 2.7 mph4.3 kmh 30.21 in1023.0 mb 0.00 in0.0 mm 0.00 in0.0 mm 0.00 in0.0 mm
03:08 AM 48.4°F9.1°C 48.1°F8.9°C 99% Calm Calm 2.7 mph4.3 kmh 30.21 in1023.0 mb 0.00 in0.0 mm 0.00 in0.0 mm 0.00 in0.0 mm
03:09 AM 48.4°F9.1°C 48.1°F8.9°C 99% Calm Calm 2.7 mph4.3 kmh 30.21 in1023.0 mb 0.00 in0.0 mm 0.00 in0.0 mm 0.00 in0.0 mm
03:10 AM 48.4°F9.1°C 48.1°F8.9°C 99% Calm Calm 2.7 mph4.3 kmh 30.21 in1023.0 mb 0.00 in0.0 mm 0.00 in0.0 mm 0.00 in0.0 mm
03:11 AM 48.4°F9.1°C 48.1°F8.9°C 99% Calm Calm 2.7 mph4.3 kmh 30.21 in1023.0 mb 0.00 in0.0 mm 0.00 in0.0 mm 0.00 in0.0 mm
03:12 AM 48.4°F9.1°C 48.1°F8.9°C 99% 1.7 mph WSW2.7 kmh WSW 2.7 mph4.3 kmh 30.21 in1023.0 mb 0.00 in0.0 mm 0.00 in0.0 mm 0.00 in0.0 mm
03:13 AM 48.4°F9.1°C 48.1°F8.9°C 99% 1.1 mph WSW1.8 kmh WSW 2.7 mph4.3 kmh 30.21 in1023.0 mb 0.00 in0.0 mm 0.00 in0.0 mm 0.00 in0.0 mm
03:14 AM 48.4°F9.1°C 48.1°F8.9°C 99% Calm Calm 2.2 mph3.5 kmh 30.20 in1022.7 mb 0.00 in0.0 mm 0.00 in0.0 mm 0.00 in0.0 mm
03:15 AM 48.4°F9.1°C 48.1°F8.9°C 99% Calm Calm 1.7 mph2.7 kmh 30.20 in1022.7 mb 0.00 in0.0 mm 0.00 in0.0 mm 0.00 in0.0 mm
03:16 AM 48.4°F9.1°C 48.1°F8.9°C 99% Calm Calm 1.7 mph2.7 kmh 30.20 in1022.7 mb 0.00 in0.0 mm 0.00 in0.0 mm 0.00 in0.0 mm
03:17 AM 48.4°F9.1°C 48.1°F8.9°C 99% 1.7 mph S2.7 kmh S 2.2 mph3.5 kmh 30.20 in1022.7 mb 0.00 in0.0 mm 0.00 in0.0 mm 0.00 in0.0 mm
03:18 AM 48.4°F9.1°C 48.1°F8.9°C 99% Calm Calm 2.2 mph3.5 kmh 30.20 in1022.7 mb 0.00 in0.0 mm 0.00 in0.0 mm 0.00 in0.0 mm
03:19 AM 48.4°F9.1°C 48.1°F8.9°C 99% Calm Calm 2.2 mph3.5 kmh 30.20 in1022.7 mb 0.00 in0.0 mm 0.00 in0.0 mm 0.00 in0.0 mm
03:20 AM 48.4°F9.1°C 48.1°F8.9°C 99% Calm Calm 2.2 mph3.5 kmh 30.20 in1022.7 mb 0.00 in0.0 mm 0.00 in0.0 mm 0.00 in0.0 mm
03:21 AM 48.4°F9.1°C 48.1°F8.9°C 99% 1.1 mph ESE1.8 kmh ESE 2.2 mph3.5 kmh 30.20 in1022.7 mb 0.00 in0.0 mm 0.00 in0.0 mm 0.00 in0.0 mm
03:22 AM 48.4°F9.1°C 48.1°F8.9°C 99% 2.2 mph ESE3.5 kmh ESE 2.2 mph3.5 kmh 30.20 in1022.7 mb 0.00 in0.0 mm 0.00 in0.0 mm 0.00 in0.0 mm
03:23 AM 48.4°F9.1°C 48.1°F8.9°C 99% 1.7 mph ESE2.7 kmh ESE 2.2 mph3.5 kmh 30.20 in1022.7 mb 0.00 in0.0 mm 0.00 in0.0 mm 0.00 in0.0 mm
03:24 AM 48.4°F9.1°C 48.1°F8.9°C 99% 1.7 mph ESE2.7 kmh ESE 2.2 mph3.5 kmh 30.20 in1022.7 mb 0.00 in0.0 mm 0.00 in0.0 mm 0.00 in0.0 mm
03:25 AM 48.4°F9.1°C 48.1°F8.9°C 99% 1.7 mph ESE2.7 kmh ESE 2.2 mph3.5 kmh 30.20 in1022.7 mb 0.00 in0.0 mm 0.00 in0.0 mm 0.00 in0.0 mm
03:26 AM 48.4°F9.1°C 48.1°F8.9°C 99% 1.7 mph E2.7 kmh E 2.2 mph3.5 kmh 30.20 in1022.7 mb 0.00 in0.0 mm 0.00 in0.0 mm 0.00 in0.0 mm
03:27 AM 48.4°F9.1°C 48.1°F8.9°C 99% 1.7 mph ENE2.7 kmh ENE 2.2 mph3.5 kmh 30.18 in1022.0 mb 0.00 in0.0 mm 0.00 in0.0 mm 0.00 in0.0 mm
03:28 AM 48.4°F9.1°C 48.1°F8.9°C 99% Calm Calm 2.2 mph3.5 kmh 30.18 in1022.0 mb 0.00 in0.0 mm 0.00 in0.0 mm 0.00 in0.0 mm
03:29 AM 48.4°F9.1°C 48.1°F8.9°C 99% Calm Calm 2.2 mph3.5 kmh 30.18 in1022.0 mb 0.00 in0.0 mm 0.00 in0.0 mm 0.00 in0.0 mm
03:30 AM 48.4°F9.1°C 48.1°F8.9°C 99% Calm Calm 2.2 mph3.5 kmh 30.18 in1022.0 mb 0.00 in0.0 mm 0.00 in0.0 mm 0.00 in0.0 mm
03:31 AM 48.4°F9.1°C 48.1°F8.9°C 99% Calm Calm 2.2 mph3.5 kmh 30.18 in1022.0 mb 0.00 in0.0 mm 0.00 in0.0 mm 0.00 in0.0 mm
03:32 AM 48.4°F9.1°C 48.1°F8.9°C 99% 2.2 mph SSW3.5 kmh SSW 2.2 mph3.5 kmh 30.18 in1022.0 mb 0.00 in0.0 mm 0.00 in0.0 mm 0.00 in0.0 mm
03:33 AM 48.4°F9.1°C 48.1°F8.9°C 99% 1.7 mph SW2.7 kmh SW 2.2 mph3.5 kmh 30.18 in1022.0 mb 0.00 in0.0 mm 0.00 in0.0 mm 0.00 in0.0 mm
03:34 AM 48.4°F9.1°C 48.1°F8.9°C 99% 1.1 mph W1.8 kmh W 2.2 mph3.5 kmh 30.18 in1022.0 mb 0.00 in0.0 mm 0.00 in0.0 mm 0.00 in0.0 mm
03:35 AM 48.4°F9.1°C 48.1°F8.9°C 99% Calm Calm 2.2 mph3.5 kmh 30.18 in1022.0 mb 0.00 in0.0 mm 0.00 in0.0 mm 0.00 in0.0 mm
03:36 AM 48.4°F9.1°C 48.1°F8.9°C 99% Calm Calm 2.2 mph3.5 kmh 30.18 in1022.0 mb 0.00 in0.0 mm 0.00 in0.0 mm 0.00 in0.0 mm
03:37 AM 48.4°F9.1°C 48.1°F8.9°C 99% Calm Calm 2.2 mph3.5 kmh 30.18 in1022.0 mb 0.00 in0.0 mm 0.00 in0.0 mm 0.00 in0.0 mm
03:38 AM 48.6°F9.2°C 48.3°F9.1°C 99% Calm Calm 2.2 mph3.5 kmh 30.19 in1022.4 mb 0.00 in0.0 mm 0.00 in0.0 mm 0.00 in0.0 mm
03:39 AM 48.6°F9.2°C 48.3°F9.1°C 99% 1.1 mph SW1.8 kmh SW 2.2 mph3.5 kmh 30.19 in1022.4 mb 0.00 in0.0 mm 0.00 in0.0 mm 0.00 in0.0 mm
03:40 AM 48.6°F9.2°C 48.3°F9.1°C 99% 2.7 mph SW4.3 kmh SW 3.2 mph5.1 kmh 30.19 in1022.4 mb 0.00 in0.0 mm 0.00 in0.0 mm 0.00 in0.0 mm
03:41 AM 48.6°F9.2°C 48.3°F9.1°C 99% 2.7 mph SW4.3 kmh SW 3.2 mph5.1 kmh 30.19 in1022.4 mb 0.00 in0.0 mm 0.00 in0.0 mm 0.00 in0.0 mm
03:42 AM 48.6°F9.2°C 48.3°F9.1°C 99% 2.7 mph SW4.3 kmh SW 3.2 mph5.1 kmh 30.19 in1022.4 mb 0.00 in0.0 mm 0.00 in0.0 mm 0.00 in0.0 mm
03:43 AM 48.6°F9.2°C 48.3°F9.1°C 99% 2.7 mph SW4.3 kmh SW 3.2 mph5.1 kmh 30.19 in1022.4 mb 0.00 in0.0 mm 0.00 in0.0 mm 0.00 in0.0 mm
03:44 AM 48.6°F9.2°C 48.3°F9.1°C 99% 3.2 mph W5.1 kmh W 3.2 mph5.1 kmh 30.19 in1022.4 mb 0.00 in0.0 mm 0.00 in0.0 mm 0.00 in0.0 mm
03:45 AM 48.6°F9.2°C 48.3°F9.1°C 99% 2.7 mph WSW4.3 kmh WSW 3.2 mph5.1 kmh 30.19 in1022.4 mb 0.00 in0.0 mm 0.00 in0.0 mm 0.00 in0.0 mm
03:46 AM 48.6°F9.2°C 48.3°F9.1°C 99% 3.7 mph W6.0 kmh W 3.7 mph6.0 kmh 30.19 in1022.4 mb 0.00 in0.0 mm 0.00 in0.0 mm 0.00 in0.0 mm
03:47 AM 48.6°F9.2°C 48.3°F9.1°C 99% 2.7 mph WSW4.3 kmh WSW 3.7 mph6.0 kmh 30.19 in1022.4 mb 0.00 in0.0 mm 0.00 in0.0 mm 0.00 in0.0 mm
03:48 AM 48.6°F9.2°C 48.3°F9.1°C 99% 3.7 mph W6.0 kmh W 4.7 mph7.6 kmh 30.19 in1022.4 mb 0.00 in0.0 mm 0.00 in0.0 mm 0.00 in0.0 mm
03:49 AM 48.6°F9.2°C 48.3°F9.1°C 99% 3.7 mph WSW6.0 kmh WSW 4.7 mph7.6 kmh 30.19 in1022.4 mb 0.00 in0.0 mm 0.00 in0.0 mm 0.00 in0.0 mm
03:50 AM 48.6°F9.2°C 48.3°F9.1°C 99% 2.7 mph W4.3 kmh W 4.7 mph7.6 kmh 30.19 in1022.4 mb 0.00 in0.0 mm 0.00 in0.0 mm 0.00 in0.0 mm
03:51 AM 48.6°F9.2°C 48.3°F9.1°C 99% 1.7 mph SW2.7 kmh SW 4.7 mph7.6 kmh 30.22 in1023.4 mb 0.00 in0.0 mm 0.00 in0.0 mm 0.00 in0.0 mm
03:52 AM 48.6°F9.2°C 48.3°F9.1°C 99% 4.7 mph W7.6 kmh W 4.7 mph7.6 kmh 30.22 in1023.4 mb 0.00 in0.0 mm 0.00 in0.0 mm 0.00 in0.0 mm
03:53 AM 48.6°F9.2°C 48.3°F9.1°C 99% 5.3 mph W8.5 kmh W 7.3 mph11.7 kmh 30.22 in1023.4 mb 0.00 in0.0 mm 0.00 in0.0 mm 0.00 in0.0 mm
03:54 AM 48.6°F9.2°C 48.3°F9.1°C 99% 4.2 mph W6.8 kmh W 7.3 mph11.7 kmh 30.22 in1023.4 mb 0.00 in0.0 mm 0.00 in0.0 mm 0.00 in0.0 mm
03:55 AM 48.6°F9.2°C 48.3°F9.1°C 99% 4.7 mph W7.6 kmh W 7.3 mph11.7 kmh 30.22 in1023.4 mb 0.00 in0.0 mm 0.00 in0.0 mm 0.00 in0.0 mm
03:56 AM 48.6°F9.2°C 48.3°F9.1°C 99% 2.7 mph WSW4.3 kmh WSW 7.3 mph11.7 kmh 30.22 in1023.4 mb 0.00 in0.0 mm 0.00 in0.0 mm 0.00 in0.0 mm
03:57 AM 48.6°F9.2°C 48.3°F9.1°C 99% 2.7 mph W4.3 kmh W 7.3 mph11.7 kmh 30.22 in1023.4 mb 0.00 in0.0 mm 0.00 in0.0 mm 0.00 in0.0 mm
03:58 AM 48.6°F9.2°C 48.3°F9.1°C 99% 3.7 mph W6.0 kmh W 7.3 mph11.7 kmh 30.22 in1023.4 mb 0.00 in0.0 mm 0.00 in0.0 mm 0.00 in0.0 mm
03:59 AM 48.6°F9.2°C 48.3°F9.1°C 99% 6.3 mph W10.1 kmh W 7.3 mph11.7 kmh 30.22 in1023.4 mb 0.00 in0.0 mm 0.00 in0.0 mm 0.00 in0.0 mm
04:00 AM 48.6°F9.2°C 48.3°F9.1°C 99% 3.2 mph W5.1 kmh W 7.3 mph11.7 kmh 30.22 in1023.4 mb 0.00 in0.0 mm 0.00 in0.0 mm 0.00 in0.0 mm
04:01 AM 48.6°F9.2°C 48.3°F9.1°C 99% 5.3 mph W8.5 kmh W 7.3 mph11.7 kmh 30.22 in1023.4 mb 0.00 in0.0 mm 0.00 in0.0 mm 0.00 in0.0 mm
04:02 AM 48.6°F9.2°C 48.3°F9.1°C 99% 3.7 mph W6.0 kmh W 7.3 mph11.7 kmh 30.21 in1023.0 mb 0.00 in0.0 mm 0.00 in0.0 mm 0.00 in0.0 mm
04:03 AM 48.6°F9.2°C 48.3°F9.1°C 99% 3.7 mph W6.0 kmh W 6.3 mph10.1 kmh 30.21 in1023.0 mb 0.00 in0.0 mm 0.00 in0.0 mm 0.00 in0.0 mm
04:04 AM 48.6°F9.2°C 48.3°F9.1°C 99% 5.8 mph WNW9.3 kmh WNW 6.3 mph10.1 kmh 30.21 in1023.0 mb 0.00 in0.0 mm 0.00 in0.0 mm 0.00 in0.0 mm
04:05 AM 48.6°F9.2°C 48.3°F9.1°C 99% 3.2 mph WNW5.1 kmh WNW 6.3 mph10.1 kmh 30.21 in1023.0 mb 0.00 in0.0 mm 0.00 in0.0 mm 0.00 in0.0 mm
04:06 AM 48.6°F9.2°C 48.3°F9.1°C 99% 3.2 mph W5.1 kmh W 6.3 mph10.1 kmh 30.21 in1023.0 mb 0.00 in0.0 mm 0.00 in0.0 mm 0.00 in0.0 mm
04:07 AM 48.6°F9.2°C 48.3°F9.1°C 99% 2.7 mph NW4.3 kmh NW 6.3 mph10.1 kmh 30.21 in1023.0 mb 0.00 in0.0 mm 0.00 in0.0 mm 0.00 in0.0 mm
04:08 AM 48.6°F9.2°C 48.3°F9.1°C 99% 2.7 mph NW4.3 kmh NW 6.3 mph10.1 kmh 30.21 in1023.0 mb 0.00 in0.0 mm 0.00 in0.0 mm 0.00 in0.0 mm
04:09 AM 48.6°F9.2°C 48.3°F9.1°C 99% 3.7 mph W6.0 kmh W 5.8 mph9.3 kmh 30.21 in1023.0 mb 0.00 in0.0 mm 0.00 in0.0 mm 0.00 in0.0 mm
04:10 AM 48.6°F9.2°C 48.3°F9.1°C 99% 4.2 mph WNW6.8 kmh WNW 5.8 mph9.3 kmh 30.21 in1023.0 mb 0.00 in0.0 mm 0.00 in0.0 mm 0.00 in0.0 mm
04:11 AM 48.6°F9.2°C 48.3°F9.1°C 99% 2.2 mph WNW3.5 kmh WNW 5.8 mph9.3 kmh 30.21 in1023.0 mb 0.00 in0.0 mm 0.00 in0.0 mm 0.00 in0.0 mm
04:12 AM 48.6°F9.2°C 48.3°F9.1°C 99% 3.7 mph WNW6.0 kmh WNW 5.8 mph9.3 kmh 30.21 in1023.0 mb 0.00 in0.0 mm 0.00 in0.0 mm 0.00 in0.0 mm
04:13 AM 48.6°F9.2°C 48.3°F9.1°C 99% 2.7 mph NW4.3 kmh NW 5.8 mph9.3 kmh 30.21 in1023.0 mb 0.00 in0.0 mm 0.00 in0.0 mm 0.00 in0.0 mm
04:14 AM 48.6°F9.2°C 48.3°F9.1°C 99% 2.7 mph WNW4.3 kmh WNW 5.8 mph9.3 kmh 30.21 in1023.0 mb 0.00 in0.0 mm 0.00 in0.0 mm 0.00 in0.0 mm
04:15 AM 48.6°F9.2°C 48.3°F9.1°C 99% 3.2 mph WNW5.1 kmh WNW 4.7 mph7.6 kmh 30.21 in1023.0 mb 0.00 in0.0 mm 0.00 in0.0 mm 0.00 in0.0 mm
04:16 AM 48.6°F9.2°C 48.3°F9.1°C 99% 2.7 mph WNW4.3 kmh WNW 4.7 mph7.6 kmh 30.21 in1023.0 mb 0.00 in0.0 mm 0.00 in0.0 mm 0.00 in0.0 mm
04:17 AM 48.6°F9.2°C 48.3°F9.1°C 99% 2.7 mph W4.3 kmh W 4.7 mph7.6 kmh 30.21 in1023.0 mb 0.00 in0.0 mm 0.00 in0.0 mm 0.00 in0.0 mm
04:18 AM 48.6°F9.2°C 48.3°F9.1°C 99% 2.7 mph W4.3 kmh W 4.7 mph7.6 kmh 30.21 in1023.0 mb 0.00 in0.0 mm 0.00 in0.0 mm 0.00 in0.0 mm
04:19 AM 48.6°F9.2°C 48.3°F9.1°C 99% 2.7 mph W4.3 kmh W 4.7 mph7.6 kmh 30.21 in1023.0 mb 0.00 in0.0 mm 0.00 in0.0 mm 0.00 in0.0 mm
04:20 AM 48.6°F9.2°C 48.3°F9.1°C 99% 3.2 mph W5.1 kmh W 4.7 mph7.6 kmh 30.21 in1023.0 mb 0.00 in0.0 mm 0.00 in0.0 mm 0.00 in0.0 mm
04:21 AM 48.6°F9.2°C 48.3°F9.1°C 99% 2.7 mph W4.3 kmh W 4.7 mph7.6 kmh 30.21 in1023.0 mb 0.00 in0.0 mm 0.00 in0.0 mm 0.00 in0.0 mm
04:22 AM 48.6°F9.2°C 48.3°F9.1°C 99% 2.7 mph WSW4.3 kmh WSW 4.7 mph7.6 kmh 30.21 in1023.0 mb 0.00 in0.0 mm 0.00 in0.0 mm 0.00 in0.0 mm
04:23 AM 48.6°F9.2°C 48.3°F9.1°C 99% 2.2 mph WSW3.5 kmh WSW 3.7 mph6.0 kmh 30.21 in1023.0 mb 0.00 in0.0 mm 0.00 in0.0 mm 0.00 in0.0 mm
04:24 AM 48.6°F9.2°C 48.3°F9.1°C 99% 1.7 mph SW2.7 kmh SW 3.7 mph6.0 kmh 30.21 in1023.0 mb 0.00 in0.0 mm 0.00 in0.0 mm 0.00 in0.0 mm
04:25 AM 48.6°F9.2°C 48.3°F9.1°C 99% 3.2 mph SW5.1 kmh SW 3.7 mph6.0 kmh 30.21 in1023.0 mb 0.00 in0.0 mm 0.00 in0.0 mm 0.00 in0.0 mm
04:26 AM 48.6°F9.2°C 48.3°F9.1°C 99% 2.2 mph WSW3.5 kmh WSW 3.2 mph5.1 kmh 30.21 in1023.0 mb 0.00 in0.0 mm 0.00 in0.0 mm 0.00 in0.0 mm
04:27 AM 48.6°F9.2°C 48.3°F9.1°C 99% 3.7 mph SW6.0 kmh SW 3.7 mph6.0 kmh 30.21 in1023.0 mb 0.00 in0.0 mm 0.00 in0.0 mm 0.00 in0.0 mm
04:28 AM 48.6°F9.2°C 48.3°F9.1°C 99% 1.7 mph SW2.7 kmh SW 3.7 mph6.0 kmh 30.21 in1023.0 mb 0.00 in0.0 mm 0.00 in0.0 mm 0.00 in0.0 mm
04:29 AM 48.6°F9.2°C 48.3°F9.1°C 99% 2.7 mph W4.3 kmh W 3.7 mph6.0 kmh 30.21 in1023.0 mb 0.00 in0.0 mm 0.00 in0.0 mm 0.00 in0.0 mm
04:30 AM 48.6°F9.2°C 48.3°F9.1°C 99% 2.2 mph WNW3.5 kmh WNW 3.7 mph6.0 kmh 30.21 in1023.0 mb 0.00 in0.0 mm 0.00 in0.0 mm 0.00 in0.0 mm
04:31 AM 48.6°F9.2°C 48.3°F9.1°C 99% 3.2 mph WNW5.1 kmh WNW 3.7 mph6.0 kmh 30.21 in1023.0 mb 0.00 in0.0 mm 0.00 in0.0 mm 0.00 in0.0 mm
04:32 AM 48.6°F9.2°C 48.3°F9.1°C 99% 3.2 mph WNW5.1 kmh WNW 3.7 mph6.0 kmh 30.21 in1023.0 mb 0.00 in0.0 mm 0.00 in0.0 mm 0.00 in0.0 mm
04:33 AM 48.6°F9.2°C 48.3°F9.1°C 99% 2.7 mph WSW4.3 kmh WSW 3.7 mph6.0 kmh 30.21 in1023.0 mb 0.00 in0.0 mm 0.00 in0.0 mm 0.00 in0.0 mm
04:34 AM 48.6°F9.2°C 48.3°F9.1°C 99% 3.2 mph SW5.1 kmh SW 3.7 mph6.0 kmh 30.21 in1023.0 mb 0.00 in0.0 mm 0.00 in0.0 mm 0.00 in0.0 mm
04:35 AM 48.6°F9.2°C 48.3°F9.1°C 99% 3.7 mph SW6.0 kmh SW 3.7 mph6.0 kmh 30.21 in1023.0 mb 0.00 in0.0 mm 0.00 in0.0 mm 0.00 in0.0 mm
04:36 AM 48.6°F9.2°C 48.3°F9.1°C 99% 3.2 mph W5.1 kmh W 3.7 mph6.0 kmh 30.21 in1023.0 mb 0.00 in0.0 mm 0.00 in0.0 mm 0.00 in0.0 mm
04:37 AM 48.6°F9.2°C 48.3°F9.1°C 99% 1.7 mph W2.7 kmh W 3.7 mph6.0 kmh 30.21 in1023.0 mb 0.00 in0.0 mm 0.00 in0.0 mm 0.00 in0.0 mm
04:38 AM 48.6°F9.2°C 48.3°F9.1°C 99% Calm Calm 3.7 mph6.0 kmh 30.21 in1023.0 mb 0.00 in0.0 mm 0.00 in0.0 mm 0.00 in0.0 mm
04:39 AM 48.6°F9.2°C 48.3°F9.1°C 99% Calm Calm 3.7 mph6.0 kmh 30.21 in1023.0 mb 0.00 in0.0 mm 0.00 in0.0 mm 0.00 in0.0 mm
04:40 AM 48.6°F9.2°C 48.3°F9.1°C 99% 2.2 mph WSW3.5 kmh WSW 3.7 mph6.0 kmh 30.21 in1023.0 mb 0.00 in0.0 mm 0.00 in0.0 mm 0.00 in0.0 mm
04:41 AM 48.6°F9.2°C 48.3°F9.1°C 99% 2.2 mph SW3.5 kmh SW 3.7 mph6.0 kmh 30.21 in1023.0 mb 0.00 in0.0 mm 0.00 in0.0 mm 0.00 in0.0 mm
04:42 AM 48.6°F9.2°C 48.3°F9.1°C 99% 3.7 mph W6.0 kmh W 3.7 mph6.0 kmh 30.21 in1023.0 mb 0.00 in0.0 mm 0.00 in0.0 mm 0.00 in0.0 mm
04:43 AM 48.6°F9.2°C 48.3°F9.1°C 99% 4.2 mph W6.8 kmh W 4.7 mph7.6 kmh 30.21 in1023.0 mb 0.00 in0.0 mm 0.00 in0.0 mm 0.00 in0.0 mm
04:44 AM 48.6°F9.2°C 48.3°F9.1°C 99% 4.7 mph W7.6 kmh W 4.7 mph7.6 kmh 30.21 in1023.0 mb 0.00 in0.0 mm 0.00 in0.0 mm 0.00 in0.0 mm
04:45 AM 48.6°F9.2°C 48.3°F9.1°C 99% 2.2 mph WSW3.5 kmh WSW 4.7 mph7.6 kmh 30.21 in1023.0 mb 0.00 in0.0 mm 0.00 in0.0 mm 0.00 in0.0 mm
04:46 AM 48.6°F9.2°C 48.3°F9.1°C 99% 4.2 mph WNW6.8 kmh WNW 4.7 mph7.6 kmh 30.21 in1023.0 mb 0.00 in0.0 mm 0.00 in0.0 mm 0.00 in0.0 mm
04:47 AM 48.6°F9.2°C 48.3°F9.1°C 99% 2.7 mph W4.3 kmh W 4.7 mph7.6 kmh 30.21 in1023.0 mb 0.00 in0.0 mm 0.00 in0.0 mm 0.00 in0.0 mm
04:48 AM 48.6°F9.2°C 48.3°F9.1°C 99% 1.7 mph W2.7 kmh W 4.7 mph7.6 kmh 30.21 in1023.0 mb 0.00 in0.0 mm 0.00 in0.0 mm 0.00 in0.0 mm
04:49 AM 48.6°F9.2°C 48.3°F9.1°C 99% Calm Calm 4.7 mph7.6 kmh 30.21 in1023.0 mb 0.00 in0.0 mm 0.00 in0.0 mm 0.00 in0.0 mm
04:50 AM 48.6°F9.2°C 48.3°F9.1°C 99% 4.2 mph W6.8 kmh W 4.7 mph7.6 kmh 30.20 in1022.7 mb 0.00 in0.0 mm 0.00 in0.0 mm 0.00 in0.0 mm
04:51 AM 48.6°F9.2°C 48.3°F9.1°C 99% 3.7 mph W6.0 kmh W 4.7 mph7.6 kmh 30.20 in1022.7 mb 0.00 in0.0 mm 0.00 in0.0 mm 0.00 in0.0 mm
04:52 AM 48.6°F9.2°C 48.3°F9.1°C 99% 2.7 mph W4.3 kmh W 4.7 mph7.6 kmh 30.20 in1022.7 mb 0.00 in0.0 mm 0.00 in0.0 mm 0.00 in0.0 mm
04:53 AM 48.6°F9.2°C 48.3°F9.1°C 99% 3.7 mph W6.0 kmh W 4.7 mph7.6 kmh 30.20 in1022.7 mb 0.00 in0.0 mm 0.00 in0.0 mm 0.00 in0.0 mm
04:54 AM 48.6°F9.2°C 48.3°F9.1°C 99% 2.2 mph W3.5 kmh W 4.2 mph6.8 kmh 30.20 in1022.7 mb 0.00 in0.0 mm 0.00 in0.0 mm 0.00 in0.0 mm
04:55 AM 48.6°F9.2°C 48.3°F9.1°C 99% 2.2 mph NW3.5 kmh NW 4.2 mph6.8 kmh 30.20 in1022.7 mb 0.00 in0.0 mm 0.00 in0.0 mm 0.00 in0.0 mm
04:56 AM 48.6°F9.2°C 48.3°F9.1°C 99% 2.2 mph W3.5 kmh W 4.2 mph6.8 kmh 30.20 in1022.7 mb 0.00 in0.0 mm 0.00 in0.0 mm 0.00 in0.0 mm
04:57 AM 48.6°F9.2°C 48.3°F9.1°C 99% 1.7 mph W2.7 kmh W 4.2 mph6.8 kmh 30.20 in1022.7 mb 0.00 in0.0 mm 0.00 in0.0 mm 0.00 in0.0 mm
04:58 AM 48.6°F9.2°C 48.3°F9.1°C 99% 2.7 mph WSW4.3 kmh WSW 4.2 mph6.8 kmh 30.20 in1022.7 mb 0.00 in0.0 mm 0.00 in0.0 mm 0.00 in0.0 mm
04:59 AM 48.6°F9.2°C 48.3°F9.1°C 99% 2.2 mph W3.5 kmh W 4.2 mph6.8 kmh 30.20 in1022.7 mb 0.00 in0.0 mm 0.00 in0.0 mm 0.00 in0.0 mm
05:00 AM 48.6°F9.2°C 48.3°F9.1°C 99% 1.1 mph WNW1.8 kmh WNW 4.2 mph6.8 kmh 30.20 in1022.7 mb 0.00 in0.0 mm 0.00 in0.0 mm 0.00 in0.0 mm
05:01 AM 48.6°F9.2°C 48.3°F9.1°C 99% 1.7 mph W2.7 kmh W 3.7 mph6.0 kmh 30.20 in1022.7 mb 0.00 in0.0 mm 0.00 in0.0 mm 0.00 in0.0 mm
05:02 AM 48.6°F9.2°C 48.3°F9.1°C 99% 2.2 mph WNW3.5 kmh WNW 3.7 mph6.0 kmh 30.21 in1023.0 mb 0.00 in0.0 mm 0.00 in0.0 mm 0.00 in0.0 mm
05:03 AM 48.6°F9.2°C 48.3°F9.1°C 99% 3.2 mph WNW5.1 kmh WNW 3.7 mph6.0 kmh 30.21 in1023.0 mb 0.00 in0.0 mm 0.00 in0.0 mm 0.00 in0.0 mm
05:04 AM 48.6°F9.2°C 48.3°F9.1°C 99% 2.2 mph WNW3.5 kmh WNW 3.7 mph6.0 kmh 30.21 in1023.0 mb 0.00 in0.0 mm 0.00 in0.0 mm 0.00 in0.0 mm
05:05 AM 48.6°F9.2°C 48.3°F9.1°C 99% 2.2 mph NNW3.5 kmh NNW 3.7 mph6.0 kmh 30.21 in1023.0 mb 0.00 in0.0 mm 0.00 in0.0 mm 0.00 in0.0 mm
05:06 AM 48.6°F9.2°C 48.3°F9.1°C 99% 3.7 mph NNE6.0 kmh NNE 3.7 mph6.0 kmh 30.21 in1023.0 mb 0.00 in0.0 mm 0.00 in0.0 mm 0.00 in0.0 mm
05:07 AM 48.6°F9.2°C 48.3°F9.1°C 99% 2.7 mph N4.3 kmh N 3.7 mph6.0 kmh 30.21 in1023.0 mb 0.00 in0.0 mm 0.00 in0.0 mm 0.00 in0.0 mm
05:08 AM 48.6°F9.2°C 48.3°F9.1°C 99% 2.7 mph N4.3 kmh N 3.7 mph6.0 kmh 30.21 in1023.0 mb 0.00 in0.0 mm 0.00 in0.0 mm 0.00 in0.0 mm
05:09 AM 48.6°F9.2°C 48.3°F9.1°C 99% 3.2 mph NNE5.1 kmh NNE 3.7 mph6.0 kmh 30.21 in1023.0 mb 0.00 in0.0 mm 0.00 in0.0 mm 0.00 in0.0 mm
05:10 AM 48.6°F9.2°C 48.3°F9.1°C 99% 2.2 mph NNE3.5 kmh NNE 3.7 mph6.0 kmh 30.21 in1023.0 mb 0.00 in0.0 mm 0.00 in0.0 mm 0.00 in0.0 mm
05:11 AM 48.6°F9.2°C 48.3°F9.1°C 99% 1.1 mph NNE1.8 kmh NNE 3.7 mph6.0 kmh 30.21 in1023.0 mb 0.00 in0.0 mm 0.00 in0.0 mm 0.00 in0.0 mm
05:12 AM 48.6°F9.2°C 48.3°F9.1°C 99% Calm Calm 3.7 mph6.0 kmh 30.21 in1023.0 mb 0.00 in0.0 mm 0.00 in0.0 mm 0.00 in0.0 mm
05:13 AM 48.6°F9.2°C 48.3°F9.1°C 99% Calm Calm 3.7 mph6.0 kmh 30.21 in1023.0 mb 0.00 in0.0 mm 0.00 in0.0 mm 0.00 in0.0 mm
05:14 AM 48.6°F9.2°C 48.3°F9.1°C 99% Calm Calm 3.7 mph6.0 kmh 30.20 in1022.7 mb 0.00 in0.0 mm 0.00 in0.0 mm 0.00 in0.0 mm
05:15 AM 48.6°F9.2°C 48.3°F9.1°C 99% Calm Calm 3.7 mph6.0 kmh 30.20 in1022.7 mb 0.00 in0.0 mm 0.00 in0.0 mm 0.00 in0.0 mm
05:16 AM 48.6°F9.2°C 48.3°F9.1°C 99% Calm Calm 3.7 mph6.0 kmh 30.20 in1022.7 mb 0.00 in0.0 mm 0.00 in0.0 mm 0.00 in0.0 mm
05:17 AM 48.6°F9.2°C 48.3°F9.1°C 99% Calm Calm 3.7 mph6.0 kmh 30.20 in1022.7 mb 0.00 in0.0 mm 0.00 in0.0 mm 0.00 in0.0 mm
05:18 AM 48.6°F9.2°C 48.3°F9.1°C 99% 1.7 mph SSE2.7 kmh SSE 3.7 mph6.0 kmh 30.20 in1022.7 mb 0.00 in0.0 mm 0.00 in0.0 mm 0.00 in0.0 mm
05:19 AM 48.6°F9.2°C 48.3°F9.1°C 99% Calm Calm 3.7 mph6.0 kmh 30.20 in1022.7 mb 0.00 in0.0 mm 0.00 in0.0 mm 0.00 in0.0 mm
05:20 AM 48.6°F9.2°C 48.3°F9.1°C 99% 1.7 mph SW2.7 kmh SW 2.2 mph3.5 kmh 30.20 in1022.7 mb 0.00 in0.0 mm 0.00 in0.0 mm 0.00 in0.0 mm
05:21 AM 48.6°F9.2°C 48.3°F9.1°C 99% 1.7 mph WSW2.7 kmh WSW 2.2 mph3.5 kmh 30.20 in1022.7 mb 0.00 in0.0 mm 0.00 in0.0 mm 0.00 in0.0 mm
05:22 AM 48.6°F9.2°C 48.3°F9.1°C 99% 1.7 mph WSW2.7 kmh WSW 2.2 mph3.5 kmh 30.20 in1022.7 mb 0.00 in0.0 mm 0.00 in0.0 mm 0.00 in0.0 mm
05:23 AM 48.6°F9.2°C 48.3°F9.1°C 99% Calm Calm 2.2 mph3.5 kmh 30.20 in1022.7 mb 0.00 in0.0 mm 0.00 in0.0 mm 0.00 in0.0 mm
05:24 AM 48.6°F9.2°C 48.3°F9.1°C 99% Calm Calm 2.2 mph3.5 kmh 30.20 in1022.7 mb 0.00 in0.0 mm 0.00 in0.0 mm 0.00 in0.0 mm
05:25 AM 48.6°F9.2°C 48.3°F9.1°C 99% Calm Calm 2.2 mph3.5 kmh 30.20 in1022.7 mb 0.00 in0.0 mm 0.00 in0.0 mm 0.00 in0.0 mm
05:26 AM 48.6°F9.2°C 48.3°F9.1°C 99% Calm Calm 2.2 mph3.5 kmh 30.20 in1022.7 mb 0.00 in0.0 mm 0.00 in0.0 mm 0.00 in0.0 mm
05:27 AM 48.6°F9.2°C 48.3°F9.1°C 99% 2.7 mph NNW4.3 kmh NNW 2.7 mph4.3 kmh 30.20 in1022.7 mb 0.00 in0.0 mm 0.00 in0.0 mm 0.00 in0.0 mm
05:28 AM 48.6°F9.2°C 48.3°F9.1°C 99% 2.7 mph NNW4.3 kmh NNW 2.7 mph4.3 kmh 30.20 in1022.7 mb 0.00 in0.0 mm 0.00 in0.0 mm 0.00 in0.0 mm
05:29 AM 48.6°F9.2°C 48.3°F9.1°C 99% 4.2 mph N6.8 kmh N 4.2 mph6.8 kmh 30.20 in1022.7 mb 0.00 in0.0 mm 0.00 in0.0 mm 0.00 in0.0 mm
05:30 AM 48.6°F9.2°C 48.3°F9.1°C 99% 2.7 mph N4.3 kmh N 4.2 mph6.8 kmh 30.20 in1022.7 mb 0.00 in0.0 mm 0.00 in0.0 mm 0.00 in0.0 mm
05:31 AM 48.6°F9.2°C 48.3°F9.1°C 99% 3.2 mph N5.1 kmh N 4.2 mph6.8 kmh 30.20 in1022.7 mb 0.00 in0.0 mm 0.00 in0.0 mm 0.00 in0.0 mm
05:32 AM 48.6°F9.2°C 48.3°F9.1°C 99% 2.7 mph NNW4.3 kmh NNW 4.2 mph6.8 kmh 30.20 in1022.7 mb 0.00 in0.0 mm 0.00 in0.0 mm 0.00 in0.0 mm
05:33 AM 48.6°F9.2°C 48.3°F9.1°C 99% 2.7 mph WNW4.3 kmh WNW 4.2 mph6.8 kmh 30.20 in1022.7 mb 0.00 in0.0 mm 0.00 in0.0 mm 0.00 in0.0 mm
05:34 AM 48.6°F9.2°C 48.3°F9.1°C 99% 3.2 mph W5.1 kmh W 4.2 mph6.8 kmh 30.20 in1022.7 mb 0.00 in0.0 mm 0.00 in0.0 mm 0.00 in0.0 mm
05:35 AM 48.6°F9.2°C 48.3°F9.1°C 99% 1.7 mph W2.7 kmh W 4.2 mph6.8 kmh 30.20 in1022.7 mb 0.00 in0.0 mm 0.00 in0.0 mm 0.00 in0.0 mm
05:36 AM 48.6°F9.2°C 48.3°F9.1°C 99% 2.2 mph W3.5 kmh W 4.2 mph6.8 kmh 30.20 in1022.7 mb 0.00 in0.0 mm 0.00 in0.0 mm 0.00 in0.0 mm
05:37 AM 48.6°F9.2°C 48.3°F9.1°C 99% 2.7 mph W4.3 kmh W 4.2 mph6.8 kmh 30.20 in1022.7 mb 0.00 in0.0 mm 0.00 in0.0 mm 0.00 in0.0 mm
05:38 AM 48.6°F9.2°C 48.3°F9.1°C 99% Calm Calm 4.2 mph6.8 kmh 30.21 in1023.0 mb 0.00 in0.0 mm 0.00 in0.0 mm 0.00 in0.0 mm
05:39 AM 48.6°F9.2°C 48.3°F9.1°C 99% 1.7 mph WNW2.7 kmh WNW 3.7 mph6.0 kmh 30.21 in1023.0 mb 0.00 in0.0 mm 0.00 in0.0 mm 0.00 in0.0 mm
05:40 AM 48.6°F9.2°C 48.3°F9.1°C 99% Calm Calm 3.2 mph5.1 kmh 30.21 in1023.0 mb 0.00 in0.0 mm 0.00 in0.0 mm 0.00 in0.0 mm
05:41 AM 48.6°F9.2°C 48.3°F9.1°C 99% 2.2 mph WNW3.5 kmh WNW 3.2 mph5.1 kmh 30.21 in1023.0 mb 0.00 in0.0 mm 0.00 in0.0 mm 0.00 in0.0 mm
05:42 AM 48.6°F9.2°C 48.3°F9.1°C 99% 2.2 mph NNW3.5 kmh NNW 3.2 mph5.1 kmh 30.21 in1023.0 mb 0.00 in0.0 mm 0.00 in0.0 mm 0.00 in0.0 mm
05:43 AM 48.6°F9.2°C 48.3°F9.1°C 99% 2.2 mph WNW3.5 kmh WNW 3.2 mph5.1 kmh 30.21 in1023.0 mb 0.00 in0.0 mm 0.00 in0.0 mm 0.00 in0.0 mm
05:44 AM 48.6°F9.2°C 48.3°F9.1°C 99% Calm Calm 3.2 mph5.1 kmh 30.21 in1023.0 mb 0.00 in0.0 mm 0.00 in0.0 mm 0.00 in0.0 mm
05:45 AM 48.6°F9.2°C 48.3°F9.1°C 99% 1.7 mph WSW2.7 kmh WSW 2.7 mph4.3 kmh 30.21 in1023.0 mb 0.00 in0.0 mm 0.00 in0.0 mm 0.00 in0.0 mm
05:46 AM 48.6°F9.2°C 48.3°F9.1°C 99% 1.7 mph W2.7 kmh W 2.7 mph4.3 kmh 30.21 in1023.0 mb 0.00 in0.0 mm 0.00 in0.0 mm 0.00 in0.0 mm
05:47 AM 48.6°F9.2°C 48.3°F9.1°C 99% 1.7 mph WNW2.7 kmh WNW 2.7 mph4.3 kmh 30.21 in1023.0 mb 0.00 in0.0 mm 0.00 in0.0 mm 0.00 in0.0 mm
05:48 AM 48.6°F9.2°C 48.3°F9.1°C 99% Calm Calm 2.7 mph4.3 kmh 30.21 in1023.0 mb 0.00 in0.0 mm 0.00 in0.0 mm 0.00 in0.0 mm
05:49 AM 48.6°F9.2°C 48.3°F9.1°C 99% 2.2 mph NW3.5 kmh NW 2.7 mph4.3 kmh 30.21 in1023.0 mb 0.00 in0.0 mm 0.00 in0.0 mm 0.00 in0.0 mm
05:50 AM 48.6°F9.2°C 48.3°F9.1°C 99% 1.7 mph NW2.7 kmh NW 2.7 mph4.3 kmh 30.22 in1023.4 mb 0.00 in0.0 mm 0.00 in0.0 mm 0.00 in0.0 mm
05:51 AM 48.6°F9.2°C 48.3°F9.1°C 99% 2.7 mph NNW4.3 kmh NNW 2.7 mph4.3 kmh 30.22 in1023.4 mb 0.00 in0.0 mm 0.00 in0.0 mm 0.00 in0.0 mm
05:52 AM 48.6°F9.2°C 48.3°F9.1°C 99% 2.2 mph N3.5 kmh N 2.7 mph4.3 kmh 30.22 in1023.4 mb 0.00 in0.0 mm 0.00 in0.0 mm 0.00 in0.0 mm
05:53 AM 48.6°F9.2°C 48.3°F9.1°C 99% 1.7 mph NNW2.7 kmh NNW 2.7 mph4.3 kmh 30.22 in1023.4 mb 0.00 in0.0 mm 0.00 in0.0 mm 0.00 in0.0 mm
05:54 AM 48.6°F9.2°C 48.3°F9.1°C 99% 1.7 mph N2.7 kmh N 2.7 mph4.3 kmh 30.22 in1023.4 mb 0.00 in0.0 mm 0.00 in0.0 mm 0.00 in0.0 mm
05:55 AM 48.6°F9.2°C 48.3°F9.1°C 99% 1.7 mph NNE2.7 kmh NNE 2.7 mph4.3 kmh 30.22 in1023.4 mb 0.00 in0.0 mm 0.00 in0.0 mm 0.00 in0.0 mm
05:56 AM 48.6°F9.2°C 48.3°F9.1°C 99% 1.7 mph NNW2.7 kmh NNW 2.7 mph4.3 kmh 30.22 in1023.4 mb 0.00 in0.0 mm 0.00 in0.0 mm 0.00 in0.0 mm
05:57 AM 48.6°F9.2°C 48.3°F9.1°C 99% Calm Calm 2.7 mph4.3 kmh 30.22 in1023.4 mb 0.00 in0.0 mm 0.00 in0.0 mm 0.00 in0.0 mm
05:58 AM 48.6°F9.2°C 48.3°F9.1°C 99% Calm Calm 2.7 mph4.3 kmh 30.22 in1023.4 mb 0.00 in0.0 mm 0.00 in0.0 mm 0.00 in0.0 mm
05:59 AM 48.6°F9.2°C 48.3°F9.1°C 99% 2.2 mph W3.5 kmh W 2.7 mph4.3 kmh 30.22 in1023.4 mb 0.00 in0.0 mm 0.00 in0.0 mm 0.00 in0.0 mm
06:00 AM 48.6°F9.2°C 48.3°F9.1°C 99% 2.2 mph W3.5 kmh W 2.7 mph4.3 kmh 30.22 in1023.4 mb 0.00 in0.0 mm 0.00 in0.0 mm 0.00 in0.0 mm
06:01 AM 48.6°F9.2°C 48.3°F9.1°C 99% 2.2 mph W3.5 kmh W 2.7 mph4.3 kmh 30.22 in1023.4 mb 0.00 in0.0 mm 0.00 in0.0 mm 0.00 in0.0 mm
06:02 AM 48.6°F9.2°C 48.3°F9.1°C 99% 2.2 mph WNW3.5 kmh WNW 2.7 mph4.3 kmh 30.22 in1023.4 mb 0.00 in0.0 mm 0.00 in0.0 mm 0.00 in0.0 mm
06:03 AM 48.6°F9.2°C 48.3°F9.1°C 99% 2.2 mph NW3.5 kmh NW 2.7 mph4.3 kmh 30.22 in1023.4 mb 0.00 in0.0 mm 0.00 in0.0 mm 0.00 in0.0 mm
06:04 AM 48.6°F9.2°C 48.3°F9.1°C 99% 2.7 mph WNW4.3 kmh WNW 2.7 mph4.3 kmh 30.22 in1023.4 mb 0.00 in0.0 mm 0.00 in0.0 mm 0.00 in0.0 mm
06:05 AM 48.6°F9.2°C 48.3°F9.1°C 99% 2.2 mph WNW3.5 kmh WNW 2.7 mph4.3 kmh 30.22 in1023.4 mb 0.00 in0.0 mm 0.00 in0.0 mm 0.00 in0.0 mm
06:06 AM 48.6°F9.2°C 48.3°F9.1°C 99% 2.7 mph NNW4.3 kmh NNW 2.7 mph4.3 kmh 30.22 in1023.4 mb 0.00 in0.0 mm 0.00 in0.0 mm 0.00 in0.0 mm
06:07 AM 48.6°F9.2°C 48.3°F9.1°C 99% 2.7 mph NW4.3 kmh NW 2.7 mph4.3 kmh 30.22 in1023.4 mb 0.00 in0.0 mm 0.00 in0.0 mm 0.00 in0.0 mm
06:08 AM 48.6°F9.2°C 48.3°F9.1°C 99% 3.7 mph WNW6.0 kmh WNW 3.7 mph6.0 kmh 30.22 in1023.4 mb 0.00 in0.0 mm 0.00 in0.0 mm 0.00 in0.0 mm
06:09 AM 48.6°F9.2°C 48.3°F9.1°C 99% 2.2 mph W3.5 kmh W 3.7 mph6.0 kmh 30.22 in1023.4 mb 0.00 in0.0 mm 0.00 in0.0 mm 0.00 in0.0 mm
06:10 AM 48.6°F9.2°C 48.3°F9.1°C 99% 4.2 mph WNW6.8 kmh WNW 4.2 mph6.8 kmh 30.22 in1023.4 mb 0.00 in0.0 mm 0.00 in0.0 mm 0.00 in0.0 mm
06:11 AM 48.6°F9.2°C 48.3°F9.1°C 99% 4.2 mph WNW6.8 kmh WNW 4.7 mph7.6 kmh 30.22 in1023.4 mb 0.00 in0.0 mm 0.00 in0.0 mm 0.00 in0.0 mm
06:12 AM 48.6°F9.2°C 48.3°F9.1°C 99% 3.7 mph WNW6.0 kmh WNW 4.7 mph7.6 kmh 30.22 in1023.4 mb 0.00 in0.0 mm 0.00 in0.0 mm 0.00 in0.0 mm
06:13 AM 48.6°F9.2°C 48.3°F9.1°C 99% 2.7 mph NW4.3 kmh NW 4.7 mph7.6 kmh 30.22 in1023.4 mb 0.00 in0.0 mm 0.00 in0.0 mm 0.00 in0.0 mm
06:14 AM 48.6°F9.2°C 48.3°F9.1°C 99% 2.2 mph NW3.5 kmh NW 4.7 mph7.6 kmh 30.22 in1023.4 mb 0.00 in0.0 mm 0.00 in0.0 mm 0.00 in0.0 mm
06:15 AM 48.6°F9.2°C 48.3°F9.1°C 99% 2.7 mph WNW4.3 kmh WNW 4.7 mph7.6 kmh 30.22 in1023.4 mb 0.00 in0.0 mm 0.00 in0.0 mm 0.00 in0.0 mm
06:16 AM 48.6°F9.2°C 48.3°F9.1°C 99% 3.7 mph NW6.0 kmh NW 4.7 mph7.6 kmh 30.22 in1023.4 mb 0.00 in0.0 mm 0.00 in0.0 mm 0.00 in0.0 mm
06:17 AM 48.6°F9.2°C 48.3°F9.1°C 99% 5.3 mph W8.5 kmh W 5.3 mph8.5 kmh 30.22 in1023.4 mb 0.00 in0.0 mm 0.00 in0.0 mm 0.00 in0.0 mm
06:18 AM 48.6°F9.2°C 48.3°F9.1°C 99% 4.2 mph WNW6.8 kmh WNW 5.3 mph8.5 kmh 30.22 in1023.4 mb 0.00 in0.0 mm 0.00 in0.0 mm 0.00 in0.0 mm
06:19 AM 48.6°F9.2°C 48.3°F9.1°C 99% 4.7 mph WNW7.6 kmh WNW 5.8 mph9.3 kmh 30.22 in1023.4 mb 0.00 in0.0 mm 0.00 in0.0 mm 0.00 in0.0 mm
06:20 AM 48.6°F9.2°C 48.3°F9.1°C 99% 3.2 mph WNW5.1 kmh WNW 5.8 mph9.3 kmh 30.22 in1023.4 mb 0.00 in0.0 mm 0.00 in0.0 mm 0.00 in0.0 mm
06:21 AM 48.6°F9.2°C 48.3°F9.1°C 99% 2.7 mph WNW4.3 kmh WNW 5.8 mph9.3 kmh 30.22 in1023.4 mb 0.00 in0.0 mm 0.00 in0.0 mm 0.00 in0.0 mm
06:22 AM 48.6°F9.2°C 48.3°F9.1°C 99% 4.2 mph W6.8 kmh W 5.8 mph9.3 kmh 30.22 in1023.4 mb 0.00 in0.0 mm 0.00 in0.0 mm 0.00 in0.0 mm
06:23 AM 48.6°F9.2°C 48.3°F9.1°C 99% 4.7 mph W7.6 kmh W 5.8 mph9.3 kmh 30.22 in1023.4 mb 0.00 in0.0 mm 0.00 in0.0 mm 0.00 in0.0 mm
06:24 AM 48.6°F9.2°C 48.3°F9.1°C 99% 5.3 mph NW8.5 kmh NW 5.8 mph9.3 kmh 30.22 in1023.4 mb 0.00 in0.0 mm 0.00 in0.0 mm 0.00 in0.0 mm
06:25 AM 48.4°F9.1°C 48.1°F8.9°C 99% 5.3 mph NW8.5 kmh NW 5.8 mph9.3 kmh 30.22 in1023.4 mb 0.00 in0.0 mm 0.00 in0.0 mm 0.00 in0.0 mm
06:26 AM 48.4°F9.1°C 48.1°F8.9°C 99% 2.7 mph NNW4.3 kmh NNW 5.8 mph9.3 kmh 30.23 in1023.7 mb 0.00 in0.0 mm 0.00 in0.0 mm 0.00 in0.0 mm
06:27 AM 48.4°F9.1°C 48.1°F8.9°C 99% 4.2 mph N6.8 kmh N 5.8 mph9.3 kmh 30.23 in1023.7 mb 0.00 in0.0 mm 0.00 in0.0 mm 0.00 in0.0 mm
06:28 AM 48.4°F9.1°C 48.1°F8.9°C 99% 3.7 mph NNW6.0 kmh NNW 5.8 mph9.3 kmh 30.23 in1023.7 mb 0.00 in0.0 mm 0.00 in0.0 mm 0.00 in0.0 mm
06:29 AM 48.4°F9.1°C 48.1°F8.9°C 99% 4.2 mph NW6.8 kmh NW 5.8 mph9.3 kmh 30.23 in1023.7 mb 0.00 in0.0 mm 0.00 in0.0 mm 0.00 in0.0 mm
06:30 AM 48.4°F9.1°C 48.1°F8.9°C 99% 2.7 mph WNW4.3 kmh WNW 5.8 mph9.3 kmh 30.23 in1023.7 mb 0.00 in0.0 mm 0.00 in0.0 mm 0.00 in0.0 mm
06:31 AM 48.4°F9.1°C 48.1°F8.9°C 99% 2.2 mph WNW3.5 kmh WNW 5.8 mph9.3 kmh 30.23 in1023.7 mb 0.00 in0.0 mm 0.00 in0.0 mm 0.00 in0.0 mm
06:32 AM 48.4°F9.1°C 48.1°F8.9°C 99% 3.2 mph W5.1 kmh W 5.8 mph9.3 kmh 30.23 in1023.7 mb 0.00 in0.0 mm 0.00 in0.0 mm 0.00 in0.0 mm
06:33 AM 48.4°F9.1°C 48.1°F8.9°C 99% 2.7 mph W4.3 kmh W 5.8 mph9.3 kmh 30.23 in1023.7 mb 0.00 in0.0 mm 0.00 in0.0 mm 0.00 in0.0 mm
06:34 AM 48.4°F9.1°C 48.1°F8.9°C 99% 3.2 mph W5.1 kmh W 5.8 mph9.3 kmh 30.23 in1023.7 mb 0.00 in0.0 mm 0.00 in0.0 mm 0.00 in0.0 mm
06:35 AM 48.4°F9.1°C 48.1°F8.9°C 99% 4.2 mph WNW6.8 kmh WNW 5.3 mph8.5 kmh 30.23 in1023.7 mb 0.00 in0.0 mm 0.00 in0.0 mm 0.00 in0.0 mm
06:36 AM 48.4°F9.1°C 48.1°F8.9°C 99% 3.7 mph NW6.0 kmh NW 4.7 mph7.6 kmh 30.23 in1023.7 mb 0.00 in0.0 mm 0.00 in0.0 mm 0.00 in0.0 mm
06:37 AM 48.4°F9.1°C 48.1°F8.9°C 99% 3.2 mph WNW5.1 kmh WNW 4.7 mph7.6 kmh 30.23 in1023.7 mb 0.00 in0.0 mm 0.00 in0.0 mm 0.00 in0.0 mm
06:38 AM 48.4°F9.1°C 48.1°F8.9°C 99% 3.7 mph WNW6.0 kmh WNW 4.7 mph7.6 kmh 30.22 in1023.4 mb 0.00 in0.0 mm 0.00 in0.0 mm 0.00 in0.0 mm
06:39 AM 48.4°F9.1°C 48.1°F8.9°C 99% 4.2 mph NNW6.8 kmh NNW 4.7 mph7.6 kmh 30.22 in1023.4 mb 0.00 in0.0 mm 0.00 in0.0 mm 0.00 in0.0 mm
06:40 AM 48.4°F9.1°C 48.1°F8.9°C 99% 3.7 mph NW6.0 kmh NW 4.2 mph6.8 kmh 30.22 in1023.4 mb 0.00 in0.0 mm 0.00 in0.0 mm 0.00 in0.0 mm
06:41 AM 48.4°F9.1°C 48.1°F8.9°C 99% 3.7 mph NNW6.0 kmh NNW 4.2 mph6.8 kmh 30.22 in1023.4 mb 0.00 in0.0 mm 0.00 in0.0 mm 0.00 in0.0 mm
06:42 AM 48.2°F9.0°C 47.9°F8.8°C 99% 3.7 mph NW6.0 kmh NW 4.7 mph7.6 kmh 30.22 in1023.4 mb 0.00 in0.0 mm 0.00 in0.0 mm 0.00 in0.0 mm
06:43 AM 48.2°F9.0°C 47.9°F8.8°C 99% 4.2 mph WNW6.8 kmh WNW 4.7 mph7.6 kmh 30.22 in1023.4 mb 0.00 in0.0 mm 0.00 in0.0 mm 0.00 in0.0 mm
06:44 AM 48.2°F9.0°C 47.9°F8.8°C 99% 3.2 mph NNW5.1 kmh NNW 4.7 mph7.6 kmh 30.22 in1023.4 mb 0.00 in0.0 mm 0.00 in0.0 mm 0.00 in0.0 mm
06:45 AM 48.2°F9.0°C 47.9°F8.8°C 99% 3.7 mph NW6.0 kmh NW 4.7 mph7.6 kmh 30.22 in1023.4 mb 0.00 in0.0 mm 0.00 in0.0 mm 0.00 in0.0 mm
06:46 AM 48.2°F9.0°C 47.9°F8.8°C 99% 4.7 mph W7.6 kmh W 4.7 mph7.6 kmh 30.22 in1023.4 mb 0.00 in0.0 mm 0.00 in0.0 mm 0.00 in0.0 mm
06:47 AM 48.2°F9.0°C 47.9°F8.8°C 99% 4.2 mph W6.8 kmh W 4.7 mph7.6 kmh 30.22 in1023.4 mb 0.00 in0.0 mm 0.00 in0.0 mm 0.00 in0.0 mm
06:48 AM 48.2°F9.0°C 47.9°F8.8°C 99% 5.3 mph WNW8.5 kmh WNW 5.3 mph8.5 kmh 30.22 in1023.4 mb 0.00 in0.0 mm 0.00 in0.0 mm 0.00 in0.0 mm
06:49 AM 48.0°F8.9°C 47.7°F8.7°C 99% 3.7 mph NW6.0 kmh NW 6.8 mph10.9 kmh 30.22 in1023.4 mb 0.00 in0.0 mm 0.00 in0.0 mm 0.00 in0.0 mm
06:50 AM 48.0°F8.9°C 47.7°F8.7°C 99% 5.3 mph WNW8.5 kmh WNW 6.8 mph10.9 kmh 30.22 in1023.4 mb 0.00 in0.0 mm 0.00 in0.0 mm 0.00 in0.0 mm
06:51 AM 48.0°F8.9°C 47.7°F8.7°C 99% 4.7 mph W7.6 kmh W 6.8 mph10.9 kmh 30.22 in1023.4 mb 0.00 in0.0 mm 0.00 in0.0 mm 0.00 in0.0 mm
06:52 AM 48.0°F8.9°C 47.7°F8.7°C 99% 3.2 mph W5.1 kmh W 6.8 mph10.9 kmh 30.22 in1023.4 mb 0.00 in0.0 mm 0.00 in0.0 mm 0.00 in0.0 mm
06:53 AM 48.0°F8.9°C 47.7°F8.7°C 99% 3.2 mph NNW5.1 kmh NNW 6.8 mph10.9 kmh 30.22 in1023.4 mb 0.00 in0.0 mm 0.00 in0.0 mm 0.00 in0.0 mm
06:54 AM 48.0°F8.9°C 47.7°F8.7°C 99% 2.7 mph WNW4.3 kmh WNW 6.8 mph10.9 kmh 30.22 in1023.4 mb 0.00 in0.0 mm 0.00 in0.0 mm 0.00 in0.0 mm
06:55 AM 48.0°F8.9°C 47.7°F8.7°C 99% 2.2 mph WNW3.5 kmh WNW 6.8 mph10.9 kmh 30.22 in1023.4 mb 0.00 in0.0 mm 0.00 in0.0 mm 0.00 in0.0 mm
06:56 AM 48.0°F8.9°C 47.7°F8.7°C 99% 2.2 mph W3.5 kmh W 6.8 mph10.9 kmh 30.22 in1023.4 mb 0.00 in0.0 mm 0.00 in0.0 mm 0.00 in0.0 mm
06:57 AM 48.0°F8.9°C 47.7°F8.7°C 99% 2.2 mph NNW3.5 kmh NNW 6.8 mph10.9 kmh 30.22 in1023.4 mb 0.00 in0.0 mm 0.00 in0.0 mm 0.00 in0.0 mm
06:58 AM 48.0°F8.9°C 47.7°F8.7°C 99% 2.2 mph NW3.5 kmh NW 6.8 mph10.9 kmh 30.22 in1023.4 mb 0.00 in0.0 mm 0.00 in0.0 mm 0.00 in0.0 mm
06:59 AM 48.0°F8.9°C 47.7°F8.7°C 99% 2.7 mph NW4.3 kmh NW 5.3 mph8.5 kmh 30.22 in1023.4 mb 0.00 in0.0 mm 0.00 in0.0 mm 0.00 in0.0 mm
07:00 AM 48.0°F8.9°C 47.7°F8.7°C 99% 2.7 mph NW4.3 kmh NW 5.3 mph8.5 kmh 30.22 in1023.4 mb 0.00 in0.0 mm 0.00 in0.0 mm 0.00 in0.0 mm
07:01 AM 48.0°F8.9°C 47.7°F8.7°C 99% 2.7 mph WNW4.3 kmh WNW 4.7 mph7.6 kmh 30.22 in1023.4 mb 0.00 in0.0 mm 0.00 in0.0 mm 0.00 in0.0 mm
07:02 AM 48.0°F8.9°C 47.7°F8.7°C 99% 2.7 mph W4.3 kmh W 4.2 mph6.8 kmh 30.21 in1023.0 mb 0.00 in0.0 mm 0.00 in0.0 mm 0.00 in0.0 mm
07:03 AM 48.0°F8.9°C 47.7°F8.7°C 99% 2.7 mph NW4.3 kmh NW 4.2 mph6.8 kmh 30.21 in1023.0 mb 0.00 in0.0 mm 0.00 in0.0 mm 0.00 in0.0 mm
07:04 AM 48.0°F8.9°C 47.7°F8.7°C 99% 3.2 mph W5.1 kmh W 4.2 mph6.8 kmh 30.21 in1023.0 mb 0.00 in0.0 mm 0.00 in0.0 mm 0.00 in0.0 mm
07:05 AM 48.0°F8.9°C 47.7°F8.7°C 99% 4.2 mph WNW6.8 kmh WNW 4.2 mph6.8 kmh 30.21 in1023.0 mb 0.00 in0.0 mm 0.00 in0.0 mm 0.00 in0.0 mm
07:06 AM 48.0°F8.9°C 47.7°F8.7°C 99% 2.7 mph NNW4.3 kmh NNW 4.2 mph6.8 kmh 30.21 in1023.0 mb 0.00 in0.0 mm 0.00 in0.0 mm 0.00 in0.0 mm
07:07 AM 48.0°F8.9°C 47.7°F8.7°C 99% 3.7 mph WNW6.0 kmh WNW 4.2 mph6.8 kmh 30.21 in1023.0 mb 0.00 in0.0 mm 0.00 in0.0 mm 0.00 in0.0 mm
07:08 AM 48.0°F8.9°C 47.7°F8.7°C 99% 3.2 mph WSW5.1 kmh WSW 4.2 mph6.8 kmh 30.21 in1023.0 mb 0.00 in0.0 mm 0.00 in0.0 mm 0.00 in0.0 mm
07:09 AM 48.0°F8.9°C 47.7°F8.7°C 99% 1.1 mph W1.8 kmh W 4.2 mph6.8 kmh 30.21 in1023.0 mb 0.00 in0.0 mm 0.00 in0.0 mm 0.00 in0.0 mm
07:10 AM 48.0°F8.9°C 47.7°F8.7°C 99% 2.7 mph W4.3 kmh W 4.2 mph6.8 kmh 30.21 in1023.0 mb 0.00 in0.0 mm 0.00 in0.0 mm 0.00 in0.0 mm
07:11 AM 48.0°F8.9°C 47.7°F8.7°C 99% 3.2 mph WSW5.1 kmh WSW 4.2 mph6.8 kmh 30.21 in1023.0 mb 0.00 in0.0 mm 0.00 in0.0 mm 0.00 in0.0 mm
07:12 AM 48.0°F8.9°C 47.7°F8.7°C 99% 3.2 mph W5.1 kmh W 4.2 mph6.8 kmh 30.21 in1023.0 mb 0.00 in0.0 mm 0.00 in0.0 mm 0.00 in0.0 mm
07:13 AM 48.0°F8.9°C 47.7°F8.7°C 99% 1.7 mph WSW2.7 kmh WSW 4.2 mph6.8 kmh 30.21 in1023.0 mb 0.00 in0.0 mm 0.00 in0.0 mm 0.00 in0.0 mm
07:14 AM 48.0°F8.9°C 47.7°F8.7°C 99% Calm Calm 4.2 mph6.8 kmh 30.20 in1022.7 mb 0.00 in0.0 mm 0.00 in0.0 mm 0.00 in0.0 mm
07:15 AM 48.0°F8.9°C 47.7°F8.7°C 99% 2.7 mph NW4.3 kmh NW 3.7 mph6.0 kmh 30.20 in1022.7 mb 0.00 in0.0 mm 0.00 in0.0 mm 0.00 in0.0 mm
07:16 AM 48.0°F8.9°C 47.7°F8.7°C 99% 2.2 mph NW3.5 kmh NW 3.7 mph6.0 kmh 30.20 in1022.7 mb 0.00 in0.0 mm 0.00 in0.0 mm 0.00 in0.0 mm
07:17 AM 48.0°F8.9°C 47.7°F8.7°C 99% 2.2 mph NW3.5 kmh NW 3.7 mph6.0 kmh 30.20 in1022.7 mb 0.00 in0.0 mm 0.00 in0.0 mm 0.00 in0.0 mm
07:18 AM 48.0°F8.9°C 47.7°F8.7°C 99% 1.7 mph NW2.7 kmh NW 3.7 mph6.0 kmh 30.20 in1022.7 mb 0.00 in0.0 mm 0.00 in0.0 mm 0.00 in0.0 mm
07:19 AM 48.0°F8.9°C 47.7°F8.7°C 99% Calm Calm 3.7 mph6.0 kmh 30.20 in1022.7 mb 0.00 in0.0 mm 0.00 in0.0 mm 0.00 in0.0 mm
07:20 AM 48.0°F8.9°C 47.7°F8.7°C 99% 1.7 mph WSW2.7 kmh WSW 3.7 mph6.0 kmh 30.20 in1022.7 mb 0.00 in0.0 mm 0.00 in0.0 mm 0.00 in0.0 mm
07:21 AM 48.0°F8.9°C 47.7°F8.7°C 99% Calm Calm 3.2 mph5.1 kmh 30.20 in1022.7 mb 0.00 in0.0 mm 0.00 in0.0 mm 0.00 in0.0 mm
07:22 AM 48.0°F8.9°C 47.7°F8.7°C 99% 1.7 mph WSW2.7 kmh WSW 3.2 mph5.1 kmh 30.20 in1022.7 mb 0.00 in0.0 mm 0.00 in0.0 mm 0.00 in0.0 mm
07:23 AM 48.0°F8.9°C 47.7°F8.7°C 99% 1.7 mph W2.7 kmh W 2.7 mph4.3 kmh 30.20 in1022.7 mb 0.00 in0.0 mm 0.00 in0.0 mm 0.00 in0.0 mm
07:24 AM 48.0°F8.9°C 47.7°F8.7°C 99% 2.7 mph W4.3 kmh W 2.7 mph4.3 kmh 30.20 in1022.7 mb 0.00 in0.0 mm 0.00 in0.0 mm 0.00 in0.0 mm
07:25 AM 48.0°F8.9°C 47.7°F8.7°C 99% 2.7 mph W4.3 kmh W 2.7 mph4.3 kmh 30.20 in1022.7 mb 0.00 in0.0 mm 0.00 in0.0 mm 0.00 in0.0 mm
07:26 AM 48.0°F8.9°C 47.7°F8.7°C 99% 1.7 mph W2.7 kmh W 2.7 mph4.3 kmh 30.20 in1022.7 mb 0.00 in0.0 mm 0.00 in0.0 mm 0.00 in0.0 mm
07:27 AM 48.0°F8.9°C 47.7°F8.7°C 99% 2.7 mph W4.3 kmh W 2.7 mph4.3 kmh 30.20 in1022.7 mb 0.00 in0.0 mm 0.00 in0.0 mm 0.00 in0.0 mm
07:28 AM 48.0°F8.9°C 47.7°F8.7°C 99% 2.7 mph WSW4.3 kmh WSW 2.7 mph4.3 kmh 30.20 in1022.7 mb 0.00 in0.0 mm 0.00 in0.0 mm 0.00 in0.0 mm
07:29 AM 48.0°F8.9°C 47.7°F8.7°C 99% 2.7 mph W4.3 kmh W 3.2 mph5.1 kmh 30.20 in1022.7 mb 0.00 in0.0 mm 0.00 in0.0 mm 0.00 in0.0 mm
07:30 AM 48.0°F8.9°C 47.7°F8.7°C 99% 1.7 mph W2.7 kmh W 3.2 mph5.1 kmh 30.20 in1022.7 mb 0.00 in0.0 mm 0.00 in0.0 mm 0.00 in0.0 mm
07:31 AM 48.0°F8.9°C 47.7°F8.7°C 99% 3.2 mph SW5.1 kmh SW 3.2 mph5.1 kmh 30.20 in1022.7 mb 0.00 in0.0 mm 0.00 in0.0 mm 0.00 in0.0 mm
07:32 AM 48.0°F8.9°C 47.7°F8.7°C 99% 3.2 mph W5.1 kmh W 5.3 mph8.5 kmh 30.20 in1022.7 mb 0.00 in0.0 mm 0.00 in0.0 mm 0.00 in0.0 mm
07:33 AM 48.0°F8.9°C 47.7°F8.7°C 99% 4.7 mph W7.6 kmh W 5.3 mph8.5 kmh 30.20 in1022.7 mb 0.00 in0.0 mm 0.00 in0.0 mm 0.00 in0.0 mm
07:34 AM 48.0°F8.9°C 47.7°F8.7°C 99% 3.2 mph WSW5.1 kmh WSW 5.3 mph8.5 kmh 30.20 in1022.7 mb 0.00 in0.0 mm 0.00 in0.0 mm 0.00 in0.0 mm
07:35 AM 48.0°F8.9°C 47.7°F8.7°C 99% 2.7 mph W4.3 kmh W 5.3 mph8.5 kmh 30.20 in1022.7 mb 0.00 in0.0 mm 0.00 in0.0 mm 0.00 in0.0 mm
07:36 AM 48.0°F8.9°C 47.7°F8.7°C 99% 2.7 mph W4.3 kmh W 5.3 mph8.5 kmh 30.20 in1022.7 mb 0.00 in0.0 mm 0.00 in0.0 mm 0.00 in0.0 mm
07:37 AM 48.0°F8.9°C 47.7°F8.7°C 99% 2.2 mph W3.5 kmh W 5.3 mph8.5 kmh 30.20 in1022.7 mb 0.00 in0.0 mm 0.00 in0.0 mm 0.00 in0.0 mm
07:38 AM 48.0°F8.9°C 47.7°F8.7°C 99% 3.2 mph W5.1 kmh W 5.3 mph8.5 kmh 30.21 in1023.0 mb 0.00 in0.0 mm 0.00 in0.0 mm 0.00 in0.0 mm
07:39 AM 48.0°F8.9°C 47.7°F8.7°C 99% 4.2 mph W6.8 kmh W 5.3 mph8.5 kmh 30.21 in1023.0 mb 0.00 in0.0 mm 0.00 in0.0 mm 0.00 in0.0 mm
07:40 AM 48.0°F8.9°C 47.7°F8.7°C 99% 3.7 mph WNW6.0 kmh WNW 5.3 mph8.5 kmh 30.21 in1023.0 mb 0.00 in0.0 mm 0.00 in0.0 mm 0.00 in0.0 mm
07:41 AM 48.0°F8.9°C 47.7°F8.7°C 99% 3.2 mph W5.1 kmh W 5.3 mph8.5 kmh 30.21 in1023.0 mb 0.00 in0.0 mm 0.00 in0.0 mm 0.00 in0.0 mm
07:42 AM 48.0°F8.9°C 47.7°F8.7°C 99% 5.8 mph SW9.3 kmh SW 5.8 mph9.3 kmh 30.21 in1023.0 mb 0.00 in0.0 mm 0.00 in0.0 mm 0.00 in0.0 mm
07:43 AM 48.0°F8.9°C 47.7°F8.7°C 99% 5.3 mph WSW8.5 kmh WSW 6.3 mph10.1 kmh 30.21 in1023.0 mb 0.00 in0.0 mm 0.00 in0.0 mm 0.00 in0.0 mm
07:44 AM 48.0°F8.9°C 47.7°F8.7°C 99% 3.7 mph W6.0 kmh W 6.3 mph10.1 kmh 30.21 in1023.0 mb 0.00 in0.0 mm 0.00 in0.0 mm 0.00 in0.0 mm
07:45 AM 48.0°F8.9°C 47.7°F8.7°C 99% 3.7 mph W6.0 kmh W 6.3 mph10.1 kmh 30.21 in1023.0 mb 0.00 in0.0 mm 0.00 in0.0 mm 0.00 in0.0 mm
07:46 AM 48.0°F8.9°C 47.7°F8.7°C 99% 4.7 mph WNW7.6 kmh WNW 6.3 mph10.1 kmh 30.21 in1023.0 mb 0.00 in0.0 mm 0.00 in0.0 mm 0.00 in0.0 mm
07:47 AM 48.0°F8.9°C 47.7°F8.7°C 99% 2.7 mph WNW4.3 kmh WNW 6.3 mph10.1 kmh 30.21 in1023.0 mb 0.00 in0.0 mm 0.00 in0.0 mm 0.00 in0.0 mm
07:48 AM 48.0°F8.9°C 47.7°F8.7°C 99% 2.7 mph W4.3 kmh W 6.3 mph10.1 kmh 30.21 in1023.0 mb 0.00 in0.0 mm 0.00 in0.0 mm 0.00 in0.0 mm
07:49 AM 48.0°F8.9°C 47.7°F8.7°C 99% 2.2 mph W3.5 kmh W 6.3 mph10.1 kmh 30.21 in1023.0 mb 0.00 in0.0 mm 0.00 in0.0 mm 0.00 in0.0 mm
07:50 AM 48.0°F8.9°C 47.7°F8.7°C 99% 3.2 mph WSW5.1 kmh WSW 6.3 mph10.1 kmh 30.23 in1023.7 mb 0.00 in0.0 mm 0.00 in0.0 mm 0.00 in0.0 mm
07:51 AM 48.0°F8.9°C 47.7°F8.7°C 99% 4.2 mph W6.8 kmh W 6.3 mph10.1 kmh 30.23 in1023.7 mb 0.00 in0.0 mm 0.00 in0.0 mm 0.00 in0.0 mm
07:52 AM 48.0°F8.9°C 47.7°F8.7°C 99% 3.2 mph W5.1 kmh W 6.3 mph10.1 kmh 30.23 in1023.7 mb 0.00 in0.0 mm 0.00 in0.0 mm 0.00 in0.0 mm
07:53 AM 48.0°F8.9°C 47.7°F8.7°C 99% 5.3 mph NW8.5 kmh NW 5.3 mph8.5 kmh 30.23 in1023.7 mb 0.00 in0.0 mm 0.00 in0.0 mm 0.00 in0.0 mm
07:54 AM 48.0°F8.9°C 47.7°F8.7°C 99% 5.3 mph W8.5 kmh W 5.3 mph8.5 kmh 30.23 in1023.7 mb 0.00 in0.0 mm 0.00 in0.0 mm 0.00 in0.0 mm
07:55 AM 48.0°F8.9°C 47.7°F8.7°C 99% 4.7 mph WNW7.6 kmh WNW 5.3 mph8.5 kmh 30.23 in1023.7 mb 0.00 in0.0 mm 0.00 in0.0 mm 0.00 in0.0 mm
07:56 AM 48.0°F8.9°C 47.7°F8.7°C 99% 4.2 mph W6.8 kmh W 5.3 mph8.5 kmh 30.23 in1023.7 mb 0.00 in0.0 mm 0.00 in0.0 mm 0.00 in0.0 mm
07:57 AM 48.0°F8.9°C 47.7°F8.7°C 99% 4.2 mph WNW6.8 kmh WNW 5.3 mph8.5 kmh 30.23 in1023.7 mb 0.00 in0.0 mm 0.00 in0.0 mm 0.00 in0.0 mm
07:58 AM 48.0°F8.9°C 47.7°F8.7°C 99% 3.7 mph WSW6.0 kmh WSW 5.3 mph8.5 kmh 30.23 in1023.7 mb 0.00 in0.0 mm 0.00 in0.0 mm 0.00 in0.0 mm
07:59 AM 48.0°F8.9°C 47.7°F8.7°C 99% 2.7 mph WSW4.3 kmh WSW 5.3 mph8.5 kmh 30.23 in1023.7 mb 0.00 in0.0 mm 0.00 in0.0 mm 0.00 in0.0 mm
08:00 AM 48.0°F8.9°C 47.7°F8.7°C 99% 3.2 mph W5.1 kmh W 5.3 mph8.5 kmh 30.23 in1023.7 mb 0.00 in0.0 mm 0.00 in0.0 mm 0.00 in0.0 mm
08:01 AM 48.0°F8.9°C 47.7°F8.7°C 99% 3.7 mph NNW6.0 kmh NNW 5.3 mph8.5 kmh 30.23 in1023.7 mb 0.00 in0.0 mm 0.00 in0.0 mm 0.00 in0.0 mm
08:02 AM 48.0°F8.9°C 47.7°F8.7°C 99% 3.7 mph NW6.0 kmh NW 5.3 mph8.5 kmh 30.23 in1023.7 mb 0.00 in0.0 mm 0.00 in0.0 mm 0.00 in0.0 mm
08:03 AM 48.0°F8.9°C 47.7°F8.7°C 99% 3.7 mph WSW6.0 kmh WSW 5.3 mph8.5 kmh 30.23 in1023.7 mb 0.00 in0.0 mm 0.00 in0.0 mm 0.00 in0.0 mm
08:04 AM 48.0°F8.9°C 47.7°F8.7°C 99% 4.2 mph WNW6.8 kmh WNW 5.3 mph8.5 kmh 30.23 in1023.7 mb 0.00 in0.0 mm 0.00 in0.0 mm 0.00 in0.0 mm
08:05 AM 48.0°F8.9°C 47.7°F8.7°C 99% 6.3 mph W10.1 kmh W 6.3 mph10.1 kmh 30.23 in1023.7 mb 0.00 in0.0 mm 0.00 in0.0 mm 0.00 in0.0 mm
08:06 AM 48.0°F8.9°C 47.7°F8.7°C 99% 4.2 mph W6.8 kmh W 6.3 mph10.1 kmh 30.23 in1023.7 mb 0.00 in0.0 mm 0.00 in0.0 mm 0.00 in0.0 mm
08:07 AM 48.0°F8.9°C 47.7°F8.7°C 99% 3.7 mph W6.0 kmh W 6.3 mph10.1 kmh 30.23 in1023.7 mb 0.00 in0.0 mm 0.00 in0.0 mm 0.00 in0.0 mm
08:08 AM 48.0°F8.9°C 47.7°F8.7°C 99% 4.7 mph WNW7.6 kmh WNW 6.3 mph10.1 kmh 30.23 in1023.7 mb 0.00 in0.0 mm 0.00 in0.0 mm 0.00 in0.0 mm
08:09 AM 48.0°F8.9°C 47.7°F8.7°C 99% 4.7 mph WNW7.6 kmh WNW 6.3 mph10.1 kmh 30.23 in1023.7 mb 0.00 in0.0 mm 0.00 in0.0 mm 0.00 in0.0 mm
08:10 AM 48.0°F8.9°C 47.7°F8.7°C 99% 6.3 mph NW10.1 kmh NW 6.3 mph10.1 kmh 30.23 in1023.7 mb 0.00 in0.0 mm 0.00 in0.0 mm 0.00 in0.0 mm
08:11 AM 48.0°F8.9°C 47.7°F8.7°C 99% 6.8 mph WNW10.9 kmh WNW 6.8 mph10.9 kmh 30.23 in1023.7 mb 0.00 in0.0 mm 0.00 in0.0 mm 0.00 in0.0 mm
08:12 AM 48.0°F8.9°C 47.7°F8.7°C 99% 6.8 mph WNW10.9 kmh WNW 6.8 mph10.9 kmh 30.23 in1023.7 mb 0.00 in0.0 mm 0.00 in0.0 mm 0.00 in0.0 mm
08:13 AM 48.0°F8.9°C 47.7°F8.7°C 99% 4.7 mph W7.6 kmh W 6.8 mph10.9 kmh 30.23 in1023.7 mb 0.00 in0.0 mm 0.00 in0.0 mm 0.00 in0.0 mm
08:14 AM 48.0°F8.9°C 47.7°F8.7°C 99% 4.2 mph WNW6.8 kmh WNW 6.8 mph10.9 kmh 30.24 in1024.0 mb 0.00 in0.0 mm 0.00 in0.0 mm 0.00 in0.0 mm
08:15 AM 48.0°F8.9°C 47.7°F8.7°C 99% 6.8 mph W10.9 kmh W 6.8 mph10.9 kmh 30.24 in1024.0 mb 0.00 in0.0 mm 0.00 in0.0 mm 0.00 in0.0 mm
08:16 AM 48.0°F8.9°C 47.7°F8.7°C 99% 5.3 mph WNW8.5 kmh WNW 6.8 mph10.9 kmh 30.24 in1024.0 mb 0.00 in0.0 mm 0.00 in0.0 mm 0.00 in0.0 mm
08:17 AM 48.0°F8.9°C 47.7°F8.7°C 99% 4.2 mph NW6.8 kmh NW 6.8 mph10.9 kmh 30.24 in1024.0 mb 0.00 in0.0 mm 0.00 in0.0 mm 0.00 in0.0 mm
08:18 AM 48.2°F9.0°C 47.9°F8.8°C 99% 6.3 mph WNW10.1 kmh WNW 6.8 mph10.9 kmh 30.24 in1024.0 mb 0.00 in0.0 mm 0.00 in0.0 mm 0.00 in0.0 mm
08:19 AM 48.2°F9.0°C 47.9°F8.8°C 99% 5.8 mph NW9.3 kmh NW 6.8 mph10.9 kmh 30.24 in1024.0 mb 0.00 in0.0 mm 0.00 in0.0 mm 0.00 in0.0 mm
08:20 AM 48.2°F9.0°C 47.9°F8.8°C 99% 5.8 mph WNW9.3 kmh WNW 6.8 mph10.9 kmh 30.24 in1024.0 mb 0.00 in0.0 mm 0.00 in0.0 mm 0.00 in0.0 mm
08:21 AM 48.2°F9.0°C 47.9°F8.8°C 99% 6.3 mph WNW10.1 kmh WNW 6.8 mph10.9 kmh 30.24 in1024.0 mb 0.00 in0.0 mm 0.00 in0.0 mm 0.00 in0.0 mm
08:22 AM 48.2°F9.0°C 47.9°F8.8°C 99% 4.2 mph NW6.8 kmh NW 6.8 mph10.9 kmh 30.24 in1024.0 mb 0.00 in0.0 mm 0.00 in0.0 mm 0.00 in0.0 mm
08:23 AM 48.2°F9.0°C 47.9°F8.8°C 99% 3.7 mph NW6.0 kmh NW 6.8 mph10.9 kmh 30.24 in1024.0 mb 0.00 in0.0 mm 0.00 in0.0 mm 0.00 in0.0 mm
08:24 AM 48.2°F9.0°C 47.9°F8.8°C 99% 3.7 mph WNW6.0 kmh WNW 6.8 mph10.9 kmh 30.24 in1024.0 mb 0.00 in0.0 mm 0.00 in0.0 mm 0.00 in0.0 mm
08:25 AM 48.4°F9.1°C 48.1°F8.9°C 99% 4.7 mph NW7.6 kmh NW 6.8 mph10.9 kmh 30.24 in1024.0 mb 0.00 in0.0 mm 0.00 in0.0 mm 0.00 in0.0 mm
08:26 AM 48.4°F9.1°C 48.1°F8.9°C 99% 4.7 mph WNW7.6 kmh WNW 6.3 mph10.1 kmh 30.24 in1024.0 mb 0.00 in0.0 mm 0.00 in0.0 mm 0.00 in0.0 mm
08:27 AM 48.4°F9.1°C 48.1°F8.9°C 99% 3.2 mph W5.1 kmh W 6.3 mph10.1 kmh 30.24 in1024.0 mb 0.00 in0.0 mm 0.00 in0.0 mm 0.00 in0.0 mm
08:28 AM 48.6°F9.2°C 48.3°F9.1°C 99% 5.3 mph WNW8.5 kmh WNW 6.3 mph10.1 kmh 30.24 in1024.0 mb 0.00 in0.0 mm 0.00 in0.0 mm 0.00 in0.0 mm
08:29 AM 48.6°F9.2°C 48.3°F9.1°C 99% 4.2 mph NW6.8 kmh NW 6.3 mph10.1 kmh 30.24 in1024.0 mb 0.00 in0.0 mm 0.00 in0.0 mm 0.00 in0.0 mm
08:30 AM 48.7°F9.3°C 48.4°F9.1°C 99% 4.2 mph NW6.8 kmh NW 6.3 mph10.1 kmh 30.24 in1024.0 mb 0.00 in0.0 mm 0.00 in0.0 mm 0.00 in0.0 mm
08:31 AM 48.7°F9.3°C 48.4°F9.1°C 99% 3.7 mph WNW6.0 kmh WNW 6.3 mph10.1 kmh 30.24 in1024.0 mb 0.00 in0.0 mm 0.00 in0.0 mm 0.00 in0.0 mm
08:32 AM 48.7°F9.3°C 48.4°F9.1°C 99% 4.7 mph WNW7.6 kmh WNW 6.3 mph10.1 kmh 30.24 in1024.0 mb 0.00 in0.0 mm 0.00 in0.0 mm 0.00 in0.0 mm
08:33 AM 48.9°F9.4°C 48.6°F9.2°C 99% 3.7 mph N6.0 kmh N 6.3 mph10.1 kmh 30.24 in1024.0 mb 0.00 in0.0 mm 0.00 in0.0 mm 0.00 in0.0 mm
08:34 AM 48.9°F9.4°C 48.6°F9.2°C 99% 4.2 mph NW6.8 kmh NW 6.3 mph10.1 kmh 30.24 in1024.0 mb 0.00 in0.0 mm 0.00 in0.0 mm 0.00 in0.0 mm
08:35 AM 48.9°F9.4°C 48.6°F9.2°C 99% 3.7 mph WNW6.0 kmh WNW 6.3 mph10.1 kmh 30.24 in1024.0 mb 0.00 in0.0 mm 0.00 in0.0 mm 0.00 in0.0 mm
08:36 AM 49.1°F9.5°C 48.8°F9.3°C 99% 2.7 mph NNE4.3 kmh NNE 6.3 mph10.1 kmh 30.24 in1024.0 mb 0.00 in0.0 mm 0.00 in0.0 mm 0.00 in0.0 mm
08:37 AM 49.1°F9.5°C 48.8°F9.3°C 99% 3.2 mph N5.1 kmh N 6.3 mph10.1 kmh 30.24 in1024.0 mb 0.00 in0.0 mm 0.00 in0.0 mm 0.00 in0.0 mm
08:38 AM 49.1°F9.5°C 48.8°F9.3°C 99% 3.7 mph W6.0 kmh W 5.3 mph8.5 kmh 30.25 in1024.4 mb 0.00 in0.0 mm 0.00 in0.0 mm 0.00 in0.0 mm
08:39 AM 49.1°F9.5°C 48.8°F9.3°C 99% 4.2 mph NNW6.8 kmh NNW 5.3 mph8.5 kmh 30.25 in1024.4 mb 0.00 in0.0 mm 0.00 in0.0 mm 0.00 in0.0 mm
08:40 AM 49.1°F9.5°C 48.8°F9.3°C 99% 3.7 mph NW6.0 kmh NW 5.3 mph8.5 kmh 30.25 in1024.4 mb 0.00 in0.0 mm 0.00 in0.0 mm 0.00 in0.0 mm
08:41 AM 49.1°F9.5°C 48.8°F9.3°C 99% 4.7 mph WNW7.6 kmh WNW 5.3 mph8.5 kmh 30.25 in1024.4 mb 0.00 in0.0 mm 0.00 in0.0 mm 0.00 in0.0 mm
08:42 AM 49.3°F9.6°C 49.0°F9.4°C 99% 3.2 mph NW5.1 kmh NW 5.3 mph8.5 kmh 30.25 in1024.4 mb 0.00 in0.0 mm 0.00 in0.0 mm 0.00 in0.0 mm
08:43 AM 49.5°F9.7°C 49.2°F9.6°C 99% 2.7 mph NW4.3 kmh NW 5.3 mph8.5 kmh 30.25 in1024.4 mb 0.00 in0.0 mm 0.00 in0.0 mm 0.00 in0.0 mm
08:44 AM 49.5°F9.7°C 49.0°F9.4°C 98% 5.3 mph WNW8.5 kmh WNW 6.3 mph10.1 kmh 30.25 in1024.4 mb 0.00 in0.0 mm 0.00 in0.0 mm 0.00 in0.0 mm
08:45 AM 49.5°F9.7°C 49.0°F9.4°C 98% 3.2 mph NW5.1 kmh NW 6.3 mph10.1 kmh 30.25 in1024.4 mb 0.00 in0.0 mm 0.00 in0.0 mm 0.00 in0.0 mm
08:46 AM 49.6°F9.8°C 49.1°F9.5°C 98% 3.2 mph NNW5.1 kmh NNW 6.3 mph10.1 kmh 30.25 in1024.4 mb 0.00 in0.0 mm 0.00 in0.0 mm 0.00 in0.0 mm
08:47 AM 49.8°F9.9°C 49.0°F9.4°C 97% 3.7 mph NNW6.0 kmh NNW 6.3 mph10.1 kmh 30.25 in1024.4 mb 0.00 in0.0 mm 0.00 in0.0 mm 0.00 in0.0 mm
08:48 AM 49.8°F9.9°C 49.0°F9.4°C 97% 5.3 mph NNW8.5 kmh NNW 6.3 mph10.1 kmh 30.25 in1024.4 mb 0.00 in0.0 mm 0.00 in0.0 mm 0.00 in0.0 mm
08:49 AM 49.8°F9.9°C 49.0°F9.4°C 97% 3.2 mph WNW5.1 kmh WNW 6.3 mph10.1 kmh 30.25 in1024.4 mb 0.00 in0.0 mm 0.00 in0.0 mm 0.00 in0.0 mm
08:50 AM 50.0°F10.0°C 49.2°F9.6°C 97% 3.7 mph NNW6.0 kmh NNW 6.3 mph10.1 kmh 30.25 in1024.4 mb 0.00 in0.0 mm 0.00 in0.0 mm 0.00 in0.0 mm
08:51 AM 50.0°F10.0°C 49.2°F9.6°C 97% 3.2 mph NW5.1 kmh NW 6.3 mph10.1 kmh 30.25 in1024.4 mb 0.00 in0.0 mm 0.00 in0.0 mm 0.00 in0.0 mm
08:52 AM 50.0°F10.0°C 49.2°F9.6°C 97% 3.2 mph W5.1 kmh W 6.3 mph10.1 kmh 30.25 in1024.4 mb 0.00 in0.0 mm 0.00 in0.0 mm 0.00 in0.0 mm
08:53 AM 50.2°F10.1°C 49.4°F9.7°C 97% 2.7 mph WNW4.3 kmh WNW 6.3 mph10.1 kmh 30.25 in1024.4 mb 0.00 in0.0 mm 0.00 in0.0 mm 0.00 in0.0 mm
08:54 AM 50.2°F10.1°C 49.4°F9.7°C 97% 2.7 mph WNW4.3 kmh WNW 5.3 mph8.5 kmh 30.25 in1024.4 mb 0.00 in0.0 mm 0.00 in0.0 mm 0.00 in0.0 mm
08:59 AM 50.4°F10.2°C 49.3°F9.6°C 96% 2.7 mph WNW4.3 kmh WNW 4.7 mph7.6 kmh 30.25 in1024.4 mb 0.00 in0.0 mm 0.00 in0.0 mm 0.00 in0.0 mm
09:00 AM 50.4°F10.2°C 49.3°F9.6°C 96% 3.2 mph NNW5.1 kmh NNW 4.7 mph7.6 kmh 30.25 in1024.4 mb 0.00 in0.0 mm 0.00 in0.0 mm 0.00 in0.0 mm
09:01 AM 50.4°F10.2°C 49.3°F9.6°C 96% 2.7 mph NNW4.3 kmh NNW 3.7 mph6.0 kmh 30.25 in1024.4 mb 0.00 in0.0 mm 0.00 in0.0 mm 0.00 in0.0 mm
09:02 AM 50.4°F10.2°C 49.3°F9.6°C 96% 2.7 mph WNW4.3 kmh WNW 3.2 mph5.1 kmh 30.23 in1023.7 mb 0.00 in0.0 mm 0.00 in0.0 mm 0.00 in0.0 mm
09:03 AM 50.4°F10.2°C 49.3°F9.6°C 96% 1.7 mph N2.7 kmh N 3.2 mph5.1 kmh 30.23 in1023.7 mb 0.00 in0.0 mm 0.00 in0.0 mm 0.00 in0.0 mm
09:04 AM 50.5°F10.3°C 49.4°F9.7°C 96% 2.2 mph NE3.5 kmh NE 3.2 mph5.1 kmh 30.23 in1023.7 mb 0.00 in0.0 mm 0.00 in0.0 mm 0.00 in0.0 mm
09:05 AM 50.5°F10.3°C 49.4°F9.7°C 96% 1.7 mph NNE2.7 kmh NNE 3.2 mph5.1 kmh 30.23 in1023.7 mb 0.00 in0.0 mm 0.00 in0.0 mm 0.00 in0.0 mm
09:06 AM 50.5°F10.3°C 49.4°F9.7°C 96% 4.7 mph NNW7.6 kmh NNW 4.7 mph7.6 kmh 30.23 in1023.7 mb 0.00 in0.0 mm 0.00 in0.0 mm 0.00 in0.0 mm
09:07 AM 50.5°F10.3°C 49.4°F9.7°C 96% 4.7 mph NNE7.6 kmh NNE 4.7 mph7.6 kmh 30.23 in1023.7 mb 0.00 in0.0 mm 0.00 in0.0 mm 0.00 in0.0 mm
09:08 AM 50.5°F10.3°C 49.4°F9.7°C 96% 3.7 mph N6.0 kmh N 4.7 mph7.6 kmh 30.23 in1023.7 mb 0.00 in0.0 mm 0.00 in0.0 mm 0.00 in0.0 mm
09:09 AM 50.5°F10.3°C 49.4°F9.7°C 96% 2.7 mph NNW4.3 kmh NNW 4.7 mph7.6 kmh 30.23 in1023.7 mb 0.00 in0.0 mm 0.00 in0.0 mm 0.00 in0.0 mm
09:10 AM 50.7°F10.4°C 49.6°F9.8°C 96% 4.7 mph NNW7.6 kmh NNW 4.7 mph7.6 kmh 30.23 in1023.7 mb 0.00 in0.0 mm 0.00 in0.0 mm 0.00 in0.0 mm
09:11 AM 50.7°F10.4°C 49.3°F9.6°C 95% 3.7 mph N6.0 kmh N 4.7 mph7.6 kmh 30.23 in1023.7 mb 0.00 in0.0 mm 0.00 in0.0 mm 0.00 in0.0 mm
09:12 AM 50.7°F10.4°C 49.3°F9.6°C 95% 3.2 mph N5.1 kmh N 4.7 mph7.6 kmh 30.23 in1023.7 mb 0.00 in0.0 mm 0.00 in0.0 mm 0.00 in0.0 mm
09:13 AM 50.9°F10.5°C 49.5°F9.7°C 95% 2.7 mph NNW4.3 kmh NNW 4.7 mph7.6 kmh 30.23 in1023.7 mb 0.00 in0.0 mm 0.00 in0.0 mm 0.00 in0.0 mm
09:14 AM 51.1°F10.6°C 49.7°F9.8°C 95% 3.2 mph WNW5.1 kmh WNW 4.7 mph7.6 kmh 30.25 in1024.4 mb 0.00 in0.0 mm 0.00 in0.0 mm 0.00 in0.0 mm
09:15 AM 51.1°F10.6°C 49.7°F9.8°C 95% 3.2 mph NW5.1 kmh NW 4.7 mph7.6 kmh 30.25 in1024.4 mb 0.00 in0.0 mm 0.00 in0.0 mm 0.00 in0.0 mm
09:16 AM 51.1°F10.6°C 49.7°F9.8°C 95% 3.2 mph NNW5.1 kmh NNW 4.7 mph7.6 kmh 30.25 in1024.4 mb 0.00 in0.0 mm 0.00 in0.0 mm 0.00 in0.0 mm
09:17 AM 51.1°F10.6°C 49.7°F9.8°C 95% 4.7 mph NNW7.6 kmh NNW 4.7 mph7.6 kmh 30.25 in1024.4 mb 0.00 in0.0 mm 0.00 in0.0 mm 0.00 in0.0 mm
09:18 AM 51.1°F10.6°C 49.7°F9.8°C 95% 3.7 mph NNE6.0 kmh NNE 4.7 mph7.6 kmh 30.25 in1024.4 mb 0.00 in0.0 mm 0.00 in0.0 mm 0.00 in0.0 mm
09:19 AM 51.3°F10.7°C 49.9°F9.9°C 95% 3.2 mph NE5.1 kmh NE 4.7 mph7.6 kmh 30.25 in1024.4 mb 0.00 in0.0 mm 0.00 in0.0 mm 0.00 in0.0 mm
09:20 AM 51.3°F10.7°C 49.9°F9.9°C 95% 4.7 mph NNE7.6 kmh NNE 4.7 mph7.6 kmh 30.25 in1024.4 mb 0.00 in0.0 mm 0.00 in0.0 mm 0.00 in0.0 mm
09:21 AM 51.3°F10.7°C 49.9°F9.9°C 95% 3.7 mph NNW6.0 kmh NNW 4.7 mph7.6 kmh 30.25 in1024.4 mb 0.00 in0.0 mm 0.00 in0.0 mm 0.00 in0.0 mm
09:22 AM 51.3°F10.7°C 49.9°F9.9°C 95% 2.7 mph NNW4.3 kmh NNW 4.7 mph7.6 kmh 30.25 in1024.4 mb 0.00 in0.0 mm 0.00 in0.0 mm 0.00 in0.0 mm
09:23 AM 51.3°F10.7°C 49.9°F9.9°C 95% 2.2 mph N3.5 kmh N 4.7 mph7.6 kmh 30.25 in1024.4 mb 0.00 in0.0 mm 0.00 in0.0 mm 0.00 in0.0 mm
09:24 AM 51.3°F10.7°C 49.9°F9.9°C 95% 3.2 mph NNW5.1 kmh NNW 4.7 mph7.6 kmh 30.25 in1024.4 mb 0.00 in0.0 mm 0.00 in0.0 mm 0.00 in0.0 mm
09:25 AM 51.3°F10.7°C 49.9°F9.9°C 95% 3.2 mph N5.1 kmh N 4.7 mph7.6 kmh 30.25 in1024.4 mb 0.00 in0.0 mm 0.00 in0.0 mm 0.00 in0.0 mm
09:26 AM 51.4°F10.8°C 50.0°F10.0°C 95% 4.2 mph N6.8 kmh N 4.7 mph7.6 kmh 30.25 in1024.4 mb 0.00 in0.0 mm 0.00 in0.0 mm 0.00 in0.0 mm
09:27 AM 51.4°F10.8°C 50.0°F10.0°C 95% 3.2 mph NNW5.1 kmh NNW 4.7 mph7.6 kmh 30.25 in1024.4 mb 0.00 in0.0 mm 0.00 in0.0 mm 0.00 in0.0 mm
09:28 AM 51.4°F10.8°C 50.0°F10.0°C 95% 2.7 mph NNW4.3 kmh NNW 4.7 mph7.6 kmh 30.25 in1024.4 mb 0.00 in0.0 mm 0.00 in0.0 mm 0.00 in0.0 mm
09:29 AM 51.4°F10.8°C 50.0°F10.0°C 95% 3.2 mph N5.1 kmh N 4.7 mph7.6 kmh 30.25 in1024.4 mb 0.00 in0.0 mm 0.00 in0.0 mm 0.00 in0.0 mm
09:30 AM 51.4°F10.8°C 49.7°F9.8°C 94% 4.7 mph N7.6 kmh N 6.3 mph10.1 kmh 30.25 in1024.4 mb 0.00 in0.0 mm 0.00 in0.0 mm 0.00 in0.0 mm
09:31 AM 51.4°F10.8°C 49.7°F9.8°C 94% 4.2 mph NNE6.8 kmh NNE 6.3 mph10.1 kmh 30.25 in1024.4 mb 0.00 in0.0 mm 0.00 in0.0 mm 0.00 in0.0 mm
09:32 AM 51.4°F10.8°C 49.7°F9.8°C 94% 5.3 mph NNE8.5 kmh NNE 6.8 mph10.9 kmh 30.25 in1024.4 mb 0.00 in0.0 mm 0.00 in0.0 mm 0.00 in0.0 mm
09:33 AM 51.4°F10.8°C 49.7°F9.8°C 94% 5.3 mph NNW8.5 kmh NNW 6.8 mph10.9 kmh 30.25 in1024.4 mb 0.00 in0.0 mm 0.00 in0.0 mm 0.00 in0.0 mm
09:34 AM 51.4°F10.8°C 49.7°F9.8°C 94% 3.7 mph NNE6.0 kmh NNE 6.8 mph10.9 kmh 30.25 in1024.4 mb 0.00 in0.0 mm 0.00 in0.0 mm 0.00 in0.0 mm
09:35 AM 51.4°F10.8°C 49.7°F9.8°C 94% 2.7 mph NNW4.3 kmh NNW 6.8 mph10.9 kmh 30.25 in1024.4 mb 0.00 in0.0 mm 0.00 in0.0 mm 0.00 in0.0 mm
09:36 AM 51.6°F10.9°C 49.9°F9.9°C 94% 4.2 mph NNW6.8 kmh NNW 6.8 mph10.9 kmh 30.25 in1024.4 mb 0.00 in0.0 mm 0.00 in0.0 mm 0.00 in0.0 mm
09:37 AM 51.6°F10.9°C 49.9°F9.9°C 94% 4.2 mph N6.8 kmh N 6.8 mph10.9 kmh 30.25 in1024.4 mb 0.00 in0.0 mm 0.00 in0.0 mm 0.00 in0.0 mm
09:38 AM 51.6°F10.9°C 49.9°F9.9°C 94% 5.3 mph N8.5 kmh N 6.8 mph10.9 kmh 30.26 in1024.7 mb 0.00 in0.0 mm 0.00 in0.0 mm 0.00 in0.0 mm
09:39 AM 51.6°F10.9°C 49.9°F9.9°C 94% 3.2 mph WNW5.1 kmh WNW 6.8 mph10.9 kmh 30.26 in1024.7 mb 0.00 in0.0 mm 0.00 in0.0 mm 0.00 in0.0 mm
09:40 AM 51.6°F10.9°C 49.9°F9.9°C 94% 3.2 mph NW5.1 kmh NW 6.8 mph10.9 kmh 30.26 in1024.7 mb 0.00 in0.0 mm 0.00 in0.0 mm 0.00 in0.0 mm
09:41 AM 51.6°F10.9°C 49.9°F9.9°C 94% 3.7 mph NNW6.0 kmh NNW 6.8 mph10.9 kmh 30.26 in1024.7 mb 0.00 in0.0 mm 0.00 in0.0 mm 0.00 in0.0 mm
09:42 AM 51.6°F10.9°C 49.9°F9.9°C 94% 3.2 mph NNE5.1 kmh NNE 6.8 mph10.9 kmh 30.26 in1024.7 mb 0.00 in0.0 mm 0.00 in0.0 mm 0.00 in0.0 mm
09:43 AM 51.6°F10.9°C 49.9°F9.9°C 94% 4.2 mph NNE6.8 kmh NNE 5.3 mph8.5 kmh 30.26 in1024.7 mb 0.00 in0.0 mm 0.00 in0.0 mm 0.00 in0.0 mm
09:44 AM 51.8°F11.0°C 50.1°F10.1°C 94% 4.2 mph NE6.8 kmh NE 5.3 mph8.5 kmh 30.26 in1024.7 mb 0.00 in0.0 mm 0.00 in0.0 mm 0.00 in0.0 mm
09:45 AM 51.8°F11.0°C 50.1°F10.1°C 94% 3.7 mph N6.0 kmh N 5.3 mph8.5 kmh 30.26 in1024.7 mb 0.00 in0.0 mm 0.00 in0.0 mm 0.00 in0.0 mm
09:46 AM 52.0°F11.1°C 50.3°F10.2°C 94% 2.2 mph NNW3.5 kmh NNW 5.3 mph8.5 kmh 30.26 in1024.7 mb 0.00 in0.0 mm 0.00 in0.0 mm 0.00 in0.0 mm
09:47 AM 52.0°F11.1°C 50.3°F10.2°C 94% 2.2 mph NW3.5 kmh NW 5.3 mph8.5 kmh 30.26 in1024.7 mb 0.00 in0.0 mm 0.00 in0.0 mm 0.00 in0.0 mm
09:48 AM 52.0°F11.1°C 50.3°F10.2°C 94% 2.7 mph NNE4.3 kmh NNE 5.3 mph8.5 kmh 30.26 in1024.7 mb 0.00 in0.0 mm 0.00 in0.0 mm 0.00 in0.0 mm
09:49 AM 52.2°F11.2°C 50.5°F10.3°C 94% 2.2 mph NNW3.5 kmh NNW 4.2 mph6.8 kmh 30.26 in1024.7 mb 0.00 in0.0 mm 0.00 in0.0 mm 0.00 in0.0 mm
09:50 AM 52.2°F11.2°C 50.5°F10.3°C 94% 2.2 mph NNW3.5 kmh NNW 4.2 mph6.8 kmh 30.27 in1025.1 mb 0.00 in0.0 mm 0.00 in0.0 mm 0.00 in0.0 mm
09:51 AM 52.2°F11.2°C 50.5°F10.3°C 94% 3.2 mph NNW5.1 kmh NNW 4.2 mph6.8 kmh 30.27 in1025.1 mb 0.00 in0.0 mm 0.00 in0.0 mm 0.00 in0.0 mm
09:52 AM 52.2°F11.2°C 50.5°F10.3°C 94% 3.7 mph WNW6.0 kmh WNW 4.2 mph6.8 kmh 30.27 in1025.1 mb 0.00 in0.0 mm 0.00 in0.0 mm 0.00 in0.0 mm
09:53 AM 52.2°F11.2°C 50.5°F10.3°C 94% 3.2 mph NNW5.1 kmh NNW 4.2 mph6.8 kmh 30.27 in1025.1 mb 0.00 in0.0 mm 0.00 in0.0 mm 0.00 in0.0 mm
09:54 AM 52.2°F11.2°C 50.5°F10.3°C 94% 3.2 mph NNW5.1 kmh NNW 4.2 mph6.8 kmh 30.27 in1025.1 mb 0.00 in0.0 mm 0.00 in0.0 mm 0.00 in0.0 mm
09:55 AM 52.2°F11.2°C 50.5°F10.3°C 94% 3.7 mph NNW6.0 kmh NNW 4.2 mph6.8 kmh 30.27 in1025.1 mb 0.00 in0.0 mm 0.00 in0.0 mm 0.00 in0.0 mm
09:56 AM 52.2°F11.2°C 50.5°F10.3°C 94% 2.2 mph NNW3.5 kmh NNW 4.2 mph6.8 kmh 30.27 in1025.1 mb 0.00 in0.0 mm 0.00 in0.0 mm 0.00 in0.0 mm
09:57 AM 52.2°F11.2°C 50.5°F10.3°C 94% 2.7 mph NNE4.3 kmh NNE 4.2 mph6.8 kmh 30.27 in1025.1 mb 0.00 in0.0 mm 0.00 in0.0 mm 0.00 in0.0 mm
09:58 AM 52.3°F11.3°C 50.6°F10.3°C 94% 3.2 mph N5.1 kmh N 4.2 mph6.8 kmh 30.27 in1025.1 mb 0.00 in0.0 mm 0.00 in0.0 mm 0.00 in0.0 mm
09:59 AM 52.3°F11.3°C 50.6°F10.3°C 94% 3.2 mph NNW5.1 kmh NNW 4.2 mph6.8 kmh 30.27 in1025.1 mb 0.00 in0.0 mm 0.00 in0.0 mm 0.00 in0.0 mm
10:00 AM 52.3°F11.3°C 50.6°F10.3°C 94% 2.2 mph NW3.5 kmh NW 4.2 mph6.8 kmh 30.27 in1025.1 mb 0.00 in0.0 mm 0.00 in0.0 mm 0.00 in0.0 mm
10:01 AM 52.3°F11.3°C 50.6°F10.3°C 94% 2.2 mph NNE3.5 kmh NNE 4.2 mph6.8 kmh 30.27 in1025.1 mb 0.00 in0.0 mm 0.00 in0.0 mm 0.00 in0.0 mm
10:02 AM 52.5°F11.4°C 50.8°F10.4°C 94% 3.7 mph N6.0 kmh N 4.2 mph6.8 kmh 30.27 in1025.1 mb 0.00 in0.0 mm 0.00 in0.0 mm 0.00 in0.0 mm
10:03 AM 52.5°F11.4°C 50.8°F10.4°C 94% 2.2 mph NNW3.5 kmh NNW 4.2 mph6.8 kmh 30.27 in1025.1 mb 0.00 in0.0 mm 0.00 in0.0 mm 0.00 in0.0 mm
10:04 AM 52.5°F11.4°C 50.8°F10.4°C 94% Calm Calm 3.7 mph6.0 kmh 30.27 in1025.1 mb 0.00 in0.0 mm 0.00 in0.0 mm 0.00 in0.0 mm
10:05 AM 52.7°F11.5°C 51.0°F10.6°C 94% Calm Calm 3.7 mph6.0 kmh 30.27 in1025.1 mb 0.00 in0.0 mm 0.00 in0.0 mm 0.00 in0.0 mm
10:06 AM 52.7°F11.5°C 51.0°F10.6°C 94% 2.2 mph NE3.5 kmh NE 3.7 mph6.0 kmh 30.27 in1025.1 mb 0.00 in0.0 mm 0.00 in0.0 mm 0.00 in0.0 mm
10:07 AM 52.7°F11.5°C 51.0°F10.6°C 94% 3.7 mph NNW6.0 kmh NNW 3.7 mph6.0 kmh 30.27 in1025.1 mb 0.00 in0.0 mm 0.00 in0.0 mm 0.00 in0.0 mm
10:08 AM 52.7°F11.5°C 51.0°F10.6°C 94% 1.7 mph NNE2.7 kmh NNE 4.7 mph7.6 kmh 30.27 in1025.1 mb 0.00 in0.0 mm 0.00 in0.0 mm 0.00 in0.0 mm
10:09 AM 52.7°F11.5°C 51.0°F10.6°C 94% 4.7 mph NNW7.6 kmh NNW 4.7 mph7.6 kmh 30.27 in1025.1 mb 0.00 in0.0 mm 0.00 in0.0 mm 0.00 in0.0 mm
10:10 AM 52.7°F11.5°C 51.0°F10.6°C 94% 5.8 mph NNW9.3 kmh NNW 5.8 mph9.3 kmh 30.27 in1025.1 mb 0.00 in0.0 mm 0.00 in0.0 mm 0.00 in0.0 mm
10:11 AM 52.7°F11.5°C 51.0°F10.6°C 94% 3.7 mph N6.0 kmh N 5.8 mph9.3 kmh 30.27 in1025.1 mb 0.00 in0.0 mm 0.00 in0.0 mm 0.00 in0.0 mm
10:12 AM 52.7°F11.5°C 51.0°F10.6°C 94% 3.2 mph NW5.1 kmh NW 5.8 mph9.3 kmh 30.27 in1025.1 mb 0.00 in0.0 mm 0.00 in0.0 mm 0.00 in0.0 mm
10:13 AM 52.7°F11.5°C 51.0°F10.6°C 94% 3.7 mph N6.0 kmh N 5.8 mph9.3 kmh 30.27 in1025.1 mb 0.00 in0.0 mm 0.00 in0.0 mm 0.00 in0.0 mm
10:14 AM 52.7°F11.5°C 51.0°F10.6°C 94% 2.2 mph NNW3.5 kmh NNW 5.8 mph9.3 kmh 30.27 in1025.1 mb 0.00 in0.0 mm 0.00 in0.0 mm 0.00 in0.0 mm
10:15 AM 52.7°F11.5°C 51.0°F10.6°C 94% 2.7 mph NW4.3 kmh NW 5.8 mph9.3 kmh 30.27 in1025.1 mb 0.00 in0.0 mm 0.00 in0.0 mm 0.00 in0.0 mm
10:16 AM 52.9°F11.6°C 51.2°F10.7°C 94% 2.7 mph N4.3 kmh N 5.8 mph9.3 kmh 30.27 in1025.1 mb 0.00 in0.0 mm 0.00 in0.0 mm 0.00 in0.0 mm
10:17 AM 52.9°F11.6°C 51.2°F10.7°C 94% 2.7 mph NNW4.3 kmh NNW 5.8 mph9.3 kmh 30.27 in1025.1 mb 0.00 in0.0 mm 0.00 in0.0 mm 0.00 in0.0 mm
10:18 AM 52.9°F11.6°C 51.2°F10.7°C 94% 2.2 mph NNE3.5 kmh NNE 5.8 mph9.3 kmh 30.27 in1025.1 mb 0.00 in0.0 mm 0.00 in0.0 mm 0.00 in0.0 mm
10:19 AM 53.1°F11.7°C 51.4°F10.8°C 94% 2.2 mph SW3.5 kmh SW 5.8 mph9.3 kmh 30.27 in1025.1 mb 0.00 in0.0 mm 0.00 in0.0 mm 0.00 in0.0 mm
10:20 AM 53.4°F11.9°C 51.7°F10.9°C 94% 2.2 mph NNW3.5 kmh NNW 4.7 mph7.6 kmh 30.27 in1025.1 mb 0.00 in0.0 mm 0.00 in0.0 mm 0.00 in0.0 mm
10:21 AM 53.4°F11.9°C 51.4°F10.8°C 93% 3.2 mph NNW5.1 kmh NNW 4.2 mph6.8 kmh 30.27 in1025.1 mb 0.00 in0.0 mm 0.00 in0.0 mm 0.00 in0.0 mm
10:22 AM 53.2°F11.8°C 51.2°F10.7°C 93% 3.2 mph NNE5.1 kmh NNE 4.7 mph7.6 kmh 30.27 in1025.1 mb 0.00 in0.0 mm 0.00 in0.0 mm 0.00 in0.0 mm
10:23 AM 53.2°F11.8°C 51.2°F10.7°C 93% 2.7 mph NW4.3 kmh NW 4.7 mph7.6 kmh 30.27 in1025.1 mb 0.00 in0.0 mm 0.00 in0.0 mm 0.00 in0.0 mm
10:24 AM 53.2°F11.8°C 51.2°F10.7°C 93% 1.7 mph ESE2.7 kmh ESE 4.7 mph7.6 kmh 30.27 in1025.1 mb 0.00 in0.0 mm 0.00 in0.0 mm 0.00 in0.0 mm
10:25 AM 53.4°F11.9°C 51.4°F10.8°C 93% 1.7 mph NNE2.7 kmh NNE 4.7 mph7.6 kmh 30.27 in1025.1 mb 0.00 in0.0 mm 0.00 in0.0 mm 0.00 in0.0 mm
10:26 AM 53.6°F12.0°C 51.6°F10.9°C 93% Calm Calm 4.7 mph7.6 kmh 30.27 in1025.1 mb 0.00 in0.0 mm 0.00 in0.0 mm 0.00 in0.0 mm
10:27 AM 53.6°F12.0°C 51.6°F10.9°C 93% Calm Calm 4.7 mph7.6 kmh 30.27 in1025.1 mb 0.00 in0.0 mm 0.00 in0.0 mm 0.00 in0.0 mm
10:28 AM 53.4°F11.9°C 51.4°F10.8°C 93% 1.7 mph SSE2.7 kmh SSE 4.7 mph7.6 kmh 30.27 in1025.1 mb 0.00 in0.0 mm 0.00 in0.0 mm 0.00 in0.0 mm
10:29 AM 53.6°F12.0°C 51.6°F10.9°C 93% 1.1 mph ESE1.8 kmh ESE 4.7 mph7.6 kmh 30.27 in1025.1 mb 0.00 in0.0 mm 0.00 in0.0 mm 0.00 in0.0 mm
10:30 AM 53.6°F12.0°C 51.6°F10.9°C 93% 2.7 mph NNW4.3 kmh NNW 4.7 mph7.6 kmh 30.27 in1025.1 mb 0.00 in0.0 mm 0.00 in0.0 mm 0.00 in0.0 mm
10:31 AM 53.6°F12.0°C 51.6°F10.9°C 93% 1.7 mph NNW2.7 kmh NNW 4.7 mph7.6 kmh 30.27 in1025.1 mb 0.00 in0.0 mm 0.00 in0.0 mm 0.00 in0.0 mm
10:32 AM 53.8°F12.1°C 51.8°F11.0°C 93% 1.7 mph ESE2.7 kmh ESE 3.2 mph5.1 kmh 30.27 in1025.1 mb 0.00 in0.0 mm 0.00 in0.0 mm 0.00 in0.0 mm
10:33 AM 53.8°F12.1°C 51.8°F11.0°C 93% Calm Calm 2.7 mph4.3 kmh 30.27 in1025.1 mb 0.00 in0.0 mm 0.00 in0.0 mm 0.00 in0.0 mm
10:34 AM 53.8°F12.1°C 51.8°F11.0°C 93% 3.2 mph N5.1 kmh N 3.2 mph5.1 kmh 30.27 in1025.1 mb 0.00 in0.0 mm 0.00 in0.0 mm 0.00 in0.0 mm
10:35 AM 53.8°F12.1°C 51.8°F11.0°C 93% 3.7 mph N6.0 kmh N 3.7 mph6.0 kmh 30.27 in1025.1 mb 0.00 in0.0 mm 0.00 in0.0 mm 0.00 in0.0 mm
10:41 AM 53.8°F12.1°C 51.8°F11.0°C 93% 2.7 mph NNW4.3 kmh NNW 3.7 mph6.0 kmh 30.27 in1025.1 mb 0.00 in0.0 mm 0.00 in0.0 mm 0.00 in0.0 mm
10:42 AM 53.1°F11.7°C 51.7°F10.9°C 95% 3.7 mph N6.0 kmh N 3.7 mph6.0 kmh 30.27 in1025.1 mb 0.00 in0.0 mm 0.00 in0.0 mm 0.00 in0.0 mm
10:43 AM 53.1°F11.7°C 51.7°F10.9°C 95% 4.2 mph NNE6.8 kmh NNE 4.7 mph7.6 kmh 30.27 in1025.1 mb 0.00 in0.0 mm 0.00 in0.0 mm 0.00 in0.0 mm
10:44 AM 53.1°F11.7°C 51.7°F10.9°C 95% 3.2 mph NNW5.1 kmh NNW 4.7 mph7.6 kmh 30.27 in1025.1 mb 0.00 in0.0 mm 0.00 in0.0 mm 0.00 in0.0 mm
10:45 AM 53.1°F11.7°C 51.7°F10.9°C 95% 2.7 mph NNW4.3 kmh NNW 4.7 mph7.6 kmh 30.27 in1025.1 mb 0.00 in0.0 mm 0.00 in0.0 mm 0.00 in0.0 mm
10:46 AM 53.1°F11.7°C 51.7°F10.9°C 95% 3.2 mph NNW5.1 kmh NNW 4.7 mph7.6 kmh 30.27 in1025.1 mb 0.00 in0.0 mm 0.00 in0.0 mm 0.00 in0.0 mm
10:47 AM 53.1°F11.7°C 51.7°F10.9°C 95% 2.2 mph WNW3.5 kmh WNW 4.7 mph7.6 kmh 30.27 in1025.1 mb 0.00 in0.0 mm 0.00 in0.0 mm 0.00 in0.0 mm
10:48 AM 53.1°F11.7°C 51.7°F10.9°C 95% 2.2 mph NNW3.5 kmh NNW 4.7 mph7.6 kmh 30.27 in1025.1 mb 0.00 in0.0 mm 0.00 in0.0 mm 0.00 in0.0 mm
10:49 AM 53.1°F11.7°C 51.7°F10.9°C 95% 2.7 mph WNW4.3 kmh WNW 4.7 mph7.6 kmh 30.27 in1025.1 mb 0.00 in0.0 mm 0.00 in0.0 mm 0.00 in0.0 mm
10:50 AM 53.1°F11.7°C 51.7°F10.9°C 95% 2.7 mph NNW4.3 kmh NNW 4.7 mph7.6 kmh 30.28 in1025.4 mb 0.00 in0.0 mm 0.00 in0.0 mm 0.00 in0.0 mm
10:51 AM 53.1°F11.7°C 51.7°F10.9°C 95% 2.7 mph W4.3 kmh W 4.7 mph7.6 kmh 30.28 in1025.4 mb 0.00 in0.0 mm 0.00 in0.0 mm 0.00 in0.0 mm
10:52 AM 53.1°F11.7°C 51.7°F10.9°C 95% 3.2 mph NW5.1 kmh NW 4.7 mph7.6 kmh 30.28 in1025.4 mb 0.00 in0.0 mm 0.00 in0.0 mm 0.00 in0.0 mm
10:53 AM 53.1°F11.7°C 51.7°F10.9°C 95% 4.7 mph N7.6 kmh N 4.7 mph7.6 kmh 30.28 in1025.4 mb 0.00 in0.0 mm 0.00 in0.0 mm 0.00 in0.0 mm
10:54 AM 53.1°F11.7°C 51.7°F10.9°C 95% 2.7 mph WNW4.3 kmh WNW 4.7 mph7.6 kmh 30.28 in1025.4 mb 0.00 in0.0 mm 0.00 in0.0 mm 0.00 in0.0 mm
10:55 AM 53.1°F11.7°C 51.7°F10.9°C 95% 2.7 mph N4.3 kmh N 4.7 mph7.6 kmh 30.28 in1025.4 mb 0.00 in0.0 mm 0.00 in0.0 mm 0.00 in0.0 mm
10:56 AM 53.1°F11.7°C 51.7°F10.9°C 95% 2.7 mph N4.3 kmh N 4.7 mph7.6 kmh 30.28 in1025.4 mb 0.00 in0.0 mm 0.00 in0.0 mm 0.00 in0.0 mm
10:57 AM 53.1°F11.7°C 51.7°F10.9°C 95% 2.7 mph NW4.3 kmh NW 4.7 mph7.6 kmh 30.28 in1025.4 mb 0.00 in0.0 mm 0.00 in0.0 mm 0.00 in0.0 mm
10:58 AM 53.1°F11.7°C 51.7°F10.9°C 95% 2.7 mph WNW4.3 kmh WNW 4.7 mph7.6 kmh 30.28 in1025.4 mb 0.00 in0.0 mm 0.00 in0.0 mm 0.00 in0.0 mm
10:59 AM 52.9°F11.6°C 51.5°F10.8°C 95% 1.7 mph NNW2.7 kmh NNW 4.7 mph7.6 kmh 30.28 in1025.4 mb 0.00 in0.0 mm 0.00 in0.0 mm 0.00 in0.0 mm
11:00 AM 52.9°F11.6°C 51.5°F10.8°C 95% 2.7 mph NNE4.3 kmh NNE 4.7 mph7.6 kmh 30.28 in1025.4 mb 0.00 in0.0 mm 0.00 in0.0 mm 0.00 in0.0 mm
11:01 AM 53.1°F11.7°C 51.7°F10.9°C 95% 2.7 mph NNW4.3 kmh NNW 4.7 mph7.6 kmh 30.28 in1025.4 mb 0.00 in0.0 mm 0.00 in0.0 mm 0.00 in0.0 mm
11:02 AM 53.1°F11.7°C 51.7°F10.9°C 95% 2.2 mph N3.5 kmh N 4.7 mph7.6 kmh 30.28 in1025.4 mb 0.00 in0.0 mm 0.00 in0.0 mm 0.00 in0.0 mm
11:03 AM 53.1°F11.7°C 51.7°F10.9°C 95% 3.2 mph WNW5.1 kmh WNW 4.7 mph7.6 kmh 30.28 in1025.4 mb 0.00 in0.0 mm 0.00 in0.0 mm 0.00 in0.0 mm
11:04 AM 53.1°F11.7°C 51.7°F10.9°C 95% 4.2 mph W6.8 kmh W 4.2 mph6.8 kmh 30.28 in1025.4 mb 0.00 in0.0 mm 0.00 in0.0 mm 0.00 in0.0 mm
11:05 AM 53.1°F11.7°C 51.7°F10.9°C 95% 4.2 mph WNW6.8 kmh WNW 4.2 mph6.8 kmh 30.28 in1025.4 mb 0.00 in0.0 mm 0.00 in0.0 mm 0.00 in0.0 mm
11:06 AM 53.1°F11.7°C 51.7°F10.9°C 95% 2.7 mph NW4.3 kmh NW 4.2 mph6.8 kmh 30.28 in1025.4 mb 0.00 in0.0 mm 0.00 in0.0 mm 0.00 in0.0 mm
11:07 AM 53.1°F11.7°C 51.7°F10.9°C 95% 3.2 mph WNW5.1 kmh WNW 4.2 mph6.8 kmh 30.28 in1025.4 mb 0.00 in0.0 mm 0.00 in0.0 mm 0.00 in0.0 mm
11:08 AM 53.1°F11.7°C 51.7°F10.9°C 95% 3.2 mph WNW5.1 kmh WNW 4.2 mph6.8 kmh 30.28 in1025.4 mb 0.00 in0.0 mm 0.00 in0.0 mm 0.00 in0.0 mm
11:09 AM 53.1°F11.7°C 51.7°F10.9°C 95% 4.2 mph WSW6.8 kmh WSW 4.2 mph6.8 kmh 30.28 in1025.4 mb 0.00 in0.0 mm 0.00 in0.0 mm 0.00 in0.0 mm
11:10 AM 53.2°F11.8°C 51.8°F11.0°C 95% 3.2 mph NNW5.1 kmh NNW 4.2 mph6.8 kmh 30.28 in1025.4 mb 0.00 in0.0 mm 0.00 in0.0 mm 0.00 in0.0 mm
11:11 AM 53.2°F11.8°C 51.8°F11.0°C 95% 4.2 mph NNW6.8 kmh NNW 4.2 mph6.8 kmh 30.28 in1025.4 mb 0.00 in0.0 mm 0.00 in0.0 mm 0.00 in0.0 mm
11:12 AM 53.2°F11.8°C 51.8°F11.0°C 95% 4.7 mph WNW7.6 kmh WNW 5.8 mph9.3 kmh 30.28 in1025.4 mb 0.00 in0.0 mm 0.00 in0.0 mm 0.00 in0.0 mm
11:13 AM 53.2°F11.8°C 51.8°F11.0°C 95% 5.3 mph W8.5 kmh W 5.8 mph9.3 kmh 30.28 in1025.4 mb 0.00 in0.0 mm 0.00 in0.0 mm 0.00 in0.0 mm
11:14 AM 53.2°F11.8°C 51.8°F11.0°C 95% 5.3 mph NNE8.5 kmh NNE 5.8 mph9.3 kmh 30.28 in1025.4 mb 0.00 in0.0 mm 0.00 in0.0 mm 0.00 in0.0 mm
11:15 AM 53.2°F11.8°C 51.8°F11.0°C 95% 3.2 mph NNE5.1 kmh NNE 5.8 mph9.3 kmh 30.28 in1025.4 mb 0.00 in0.0 mm 0.00 in0.0 mm 0.00 in0.0 mm
11:16 AM 53.2°F11.8°C 51.8°F11.0°C 95% 2.7 mph NW4.3 kmh NW 5.8 mph9.3 kmh 30.28 in1025.4 mb 0.00 in0.0 mm 0.00 in0.0 mm 0.00 in0.0 mm
11:17 AM 53.2°F11.8°C 51.8°F11.0°C 95% 2.7 mph NW4.3 kmh NW 5.8 mph9.3 kmh 30.28 in1025.4 mb 0.00 in0.0 mm 0.00 in0.0 mm 0.00 in0.0 mm
11:18 AM 53.2°F11.8°C 51.8°F11.0°C 95% 2.2 mph NNW3.5 kmh NNW 5.8 mph9.3 kmh 30.28 in1025.4 mb 0.00 in0.0 mm 0.00 in0.0 mm 0.00 in0.0 mm
11:19 AM 53.2°F11.8°C 51.8°F11.0°C 95% 3.2 mph NNW5.1 kmh NNW 5.8 mph9.3 kmh 30.28 in1025.4 mb 0.00 in0.0 mm 0.00 in0.0 mm 0.00 in0.0 mm
11:20 AM 53.2°F11.8°C 51.8°F11.0°C 95% 2.7 mph NW4.3 kmh NW 5.8 mph9.3 kmh 30.28 in1025.4 mb 0.00 in0.0 mm 0.00 in0.0 mm 0.00 in0.0 mm
11:21 AM 53.2°F11.8°C 51.8°F11.0°C 95% 2.2 mph NNE3.5 kmh NNE 5.8 mph9.3 kmh 30.28 in1025.4 mb 0.00 in0.0 mm 0.00 in0.0 mm 0.00 in0.0 mm
11:22 AM 53.2°F11.8°C 51.8°F11.0°C 95% 3.2 mph NNW5.1 kmh NNW 5.8 mph9.3 kmh 30.28 in1025.4 mb 0.00 in0.0 mm 0.00 in0.0 mm 0.00 in0.0 mm
11:23 AM 53.2°F11.8°C 51.8°F11.0°C 95% 3.7 mph NNE6.0 kmh NNE 5.3 mph8.5 kmh 30.28 in1025.4 mb 0.00 in0.0 mm 0.00 in0.0 mm 0.00 in0.0 mm
11:24 AM 53.2°F11.8°C 51.8°F11.0°C 95% 2.2 mph NW3.5 kmh NW 5.3 mph8.5 kmh 30.28 in1025.4 mb 0.00 in0.0 mm 0.00 in0.0 mm 0.00 in0.0 mm
11:25 AM 53.1°F11.7°C 51.7°F10.9°C 95% 4.7 mph N7.6 kmh N 4.7 mph7.6 kmh 30.28 in1025.4 mb 0.00 in0.0 mm 0.00 in0.0 mm 0.00 in0.0 mm
11:26 AM 53.1°F11.7°C 51.7°F10.9°C 95% 4.2 mph NNW6.8 kmh NNW 4.7 mph7.6 kmh 30.28 in1025.4 mb 0.00 in0.0 mm 0.00 in0.0 mm 0.00 in0.0 mm
11:27 AM 52.9°F11.6°C 51.5°F10.8°C 95% 3.7 mph N6.0 kmh N 4.7 mph7.6 kmh 30.27 in1025.1 mb 0.00 in0.0 mm 0.00 in0.0 mm 0.00 in0.0 mm
11:28 AM 52.9°F11.6°C 51.5°F10.8°C 95% 2.2 mph NW3.5 kmh NW 4.7 mph7.6 kmh 30.27 in1025.1 mb 0.00 in0.0 mm 0.00 in0.0 mm 0.00 in0.0 mm
11:29 AM 53.1°F11.7°C 51.7°F10.9°C 95% 2.7 mph NNW4.3 kmh NNW 4.7 mph7.6 kmh 30.27 in1025.1 mb 0.00 in0.0 mm 0.00 in0.0 mm 0.00 in0.0 mm
11:30 AM 53.1°F11.7°C 51.7°F10.9°C 95% 3.7 mph W6.0 kmh W 4.7 mph7.6 kmh 30.27 in1025.1 mb 0.00 in0.0 mm 0.00 in0.0 mm 0.00 in0.0 mm
11:31 AM 53.1°F11.7°C 51.7°F10.9°C 95% 3.7 mph WNW6.0 kmh WNW 4.7 mph7.6 kmh 30.27 in1025.1 mb 0.00 in0.0 mm 0.00 in0.0 mm 0.00 in0.0 mm
11:32 AM 53.2°F11.8°C 51.8°F11.0°C 95% 4.2 mph WNW6.8 kmh WNW 4.7 mph7.6 kmh 30.27 in1025.1 mb 0.00 in0.0 mm 0.00 in0.0 mm 0.00 in0.0 mm
11:33 AM 53.2°F11.8°C 51.8°F11.0°C 95% 3.7 mph NW6.0 kmh NW 4.7 mph7.6 kmh 30.27 in1025.1 mb 0.00 in0.0 mm 0.00 in0.0 mm 0.00 in0.0 mm
11:34 AM 53.2°F11.8°C 51.8°F11.0°C 95% 3.7 mph N6.0 kmh N 4.7 mph7.6 kmh 30.27 in1025.1 mb 0.00 in0.0 mm 0.00 in0.0 mm 0.00 in0.0 mm
11:35 AM 53.2°F11.8°C 51.8°F11.0°C 95% 2.7 mph NNW4.3 kmh NNW 4.7 mph7.6 kmh 30.27 in1025.1 mb 0.00 in0.0 mm 0.00 in0.0 mm 0.00 in0.0 mm
11:36 AM 53.2°F11.8°C 51.8°F11.0°C 95% 2.7 mph WNW4.3 kmh WNW 4.2 mph6.8 kmh 30.27 in1025.1 mb 0.00 in0.0 mm 0.00 in0.0 mm 0.00 in0.0 mm
11:37 AM 53.2°F11.8°C 51.8°F11.0°C 95% 3.2 mph WNW5.1 kmh WNW 4.2 mph6.8 kmh 30.27 in1025.1 mb 0.00 in0.0 mm 0.00 in0.0 mm 0.00 in0.0 mm
11:38 AM 53.2°F11.8°C 51.8°F11.0°C 95% 5.3 mph W8.5 kmh W 5.3 mph8.5 kmh 30.27 in1025.1 mb 0.00 in0.0 mm 0.00 in0.0 mm 0.00 in0.0 mm
11:39 AM 53.2°F11.8°C 51.8°F11.0°C 95% 4.2 mph W6.8 kmh W 5.3 mph8.5 kmh 30.26 in1024.7 mb 0.00 in0.0 mm 0.00 in0.0 mm 0.00 in0.0 mm
11:40 AM 53.2°F11.8°C 51.8°F11.0°C 95% 3.7 mph W6.0 kmh W 5.3 mph8.5 kmh 30.26 in1024.7 mb 0.00 in0.0 mm 0.00 in0.0 mm 0.00 in0.0 mm
11:41 AM 53.2°F11.8°C 51.8°F11.0°C 95% 2.2 mph NW3.5 kmh NW 5.3 mph8.5 kmh 30.26 in1024.7 mb 0.00 in0.0 mm 0.00 in0.0 mm 0.00 in0.0 mm
11:42 AM 53.2°F11.8°C 51.8°F11.0°C 95% 1.7 mph N2.7 kmh N 5.3 mph8.5 kmh 30.26 in1024.7 mb 0.00 in0.0 mm 0.00 in0.0 mm 0.00 in0.0 mm
11:43 AM 53.2°F11.8°C 51.8°F11.0°C 95% 1.7 mph NNW2.7 kmh NNW 5.3 mph8.5 kmh 30.26 in1024.7 mb 0.00 in0.0 mm 0.00 in0.0 mm 0.00 in0.0 mm
11:44 AM 53.2°F11.8°C 51.8°F11.0°C 95% 2.7 mph WNW4.3 kmh WNW 5.3 mph8.5 kmh 30.26 in1024.7 mb 0.00 in0.0 mm 0.00 in0.0 mm 0.00 in0.0 mm
11:45 AM 53.2°F11.8°C 51.8°F11.0°C 95% 2.7 mph WNW4.3 kmh WNW 5.3 mph8.5 kmh 30.26 in1024.7 mb 0.00 in0.0 mm 0.00 in0.0 mm 0.00 in0.0 mm
11:46 AM 53.4°F11.9°C 52.0°F11.1°C 95% 4.2 mph NNE6.8 kmh NNE 5.3 mph8.5 kmh 30.26 in1024.7 mb 0.00 in0.0 mm 0.00 in0.0 mm 0.00 in0.0 mm
11:47 AM 53.6°F12.0°C 52.2°F11.2°C 95% 4.7 mph NE7.6 kmh NE 5.3 mph8.5 kmh 30.26 in1024.7 mb 0.00 in0.0 mm 0.00 in0.0 mm 0.00 in0.0 mm
11:48 AM 53.6°F12.0°C 52.2°F11.2°C 95% 4.2 mph NW6.8 kmh NW 5.3 mph8.5 kmh 30.26 in1024.7 mb 0.00 in0.0 mm 0.00 in0.0 mm 0.00 in0.0 mm
11:49 AM 53.6°F12.0°C 52.2°F11.2°C 95% 6.8 mph N10.9 kmh N 7.3 mph11.7 kmh 30.26 in1024.7 mb 0.00 in0.0 mm 0.00 in0.0 mm 0.00 in0.0 mm
11:50 AM 53.4°F11.9°C 52.0°F11.1°C 95% 4.2 mph NNW6.8 kmh NNW 7.3 mph11.7 kmh 30.27 in1025.1 mb 0.00 in0.0 mm 0.00 in0.0 mm 0.00 in0.0 mm
11:51 AM 53.4°F11.9°C 52.0°F11.1°C 95% 4.2 mph WNW6.8 kmh WNW 7.3 mph11.7 kmh 30.27 in1025.1 mb 0.00 in0.0 mm 0.00 in0.0 mm 0.00 in0.0 mm
11:52 AM 53.4°F11.9°C 52.0°F11.1°C 95% 3.2 mph NW5.1 kmh NW 7.3 mph11.7 kmh 30.27 in1025.1 mb 0.00 in0.0 mm 0.00 in0.0 mm 0.00 in0.0 mm
11:53 AM 53.4°F11.9°C 52.0°F11.1°C 95% 5.3 mph NNE8.5 kmh NNE 7.3 mph11.7 kmh 30.27 in1025.1 mb 0.00 in0.0 mm 0.00 in0.0 mm 0.00 in0.0 mm
11:54 AM 53.4°F11.9°C 52.0°F11.1°C 95% 4.7 mph N7.6 kmh N 7.3 mph11.7 kmh 30.27 in1025.1 mb 0.00 in0.0 mm 0.00 in0.0 mm 0.00 in0.0 mm
11:55 AM 53.4°F11.9°C 52.0°F11.1°C 95% 5.3 mph NNE8.5 kmh NNE 7.3 mph11.7 kmh 30.27 in1025.1 mb 0.00 in0.0 mm 0.00 in0.0 mm 0.00 in0.0 mm
11:56 AM 53.4°F11.9°C 52.0°F11.1°C 95% 7.3 mph NNW11.7 kmh NNW 7.3 mph11.7 kmh 30.27 in1025.1 mb 0.00 in0.0 mm 0.00 in0.0 mm 0.00 in0.0 mm
11:57 AM 53.4°F11.9°C 52.0°F11.1°C 95% 3.7 mph NNW6.0 kmh NNW 7.3 mph11.7 kmh 30.27 in1025.1 mb 0.00 in0.0 mm 0.00 in0.0 mm 0.00 in0.0 mm
11:58 AM 53.4°F11.9°C 52.0°F11.1°C 95% 2.2 mph N3.5 kmh N 7.3 mph11.7 kmh 30.27 in1025.1 mb 0.00 in0.0 mm 0.00 in0.0 mm 0.00 in0.0 mm
11:59 AM 53.4°F11.9°C 52.0°F11.1°C 95% 5.8 mph NNE9.3 kmh NNE 7.3 mph11.7 kmh 30.27 in1025.1 mb 0.00 in0.0 mm 0.00 in0.0 mm 0.00 in0.0 mm
12:00 PM 53.4°F11.9°C 52.0°F11.1°C 95% 3.7 mph N6.0 kmh N 7.3 mph11.7 kmh 30.27 in1025.1 mb 0.00 in0.0 mm 0.00 in0.0 mm 0.00 in0.0 mm
12:01 PM 53.4°F11.9°C 52.0°F11.1°C 95% 3.2 mph NW5.1 kmh NW 7.3 mph11.7 kmh 30.27 in1025.1 mb 0.00 in0.0 mm 0.00 in0.0 mm 0.00 in0.0 mm
12:02 PM 53.4°F11.9°C 52.0°F11.1°C 95% 5.8 mph NNE9.3 kmh NNE 7.3 mph11.7 kmh 30.25 in1024.4 mb 0.00 in0.0 mm 0.00 in0.0 mm 0.00 in0.0 mm
12:03 PM 53.4°F11.9°C 52.0°F11.1°C 95% 2.7 mph WNW4.3 kmh WNW 7.3 mph11.7 kmh 30.25 in1024.4 mb 0.00 in0.0 mm 0.00 in0.0 mm 0.00 in0.0 mm
12:04 PM 53.4°F11.9°C 52.0°F11.1°C 95% 3.7 mph W6.0 kmh W 7.3 mph11.7 kmh 30.25 in1024.4 mb 0.00 in0.0 mm 0.00 in0.0 mm 0.00 in0.0 mm
12:05 PM 53.4°F11.9°C 52.0°F11.1°C 95% 3.2 mph NW5.1 kmh NW 7.3 mph11.7 kmh 30.25 in1024.4 mb 0.00 in0.0 mm 0.00 in0.0 mm 0.00 in0.0 mm
12:06 PM 53.4°F11.9°C 52.0°F11.1°C 95% 5.3 mph W8.5 kmh W 7.3 mph11.7 kmh 30.25 in1024.4 mb 0.00 in0.0 mm 0.00 in0.0 mm 0.00 in0.0 mm
12:07 PM 53.4°F11.9°C 52.0°F11.1°C 95% 2.7 mph NNW4.3 kmh NNW 6.3 mph10.1 kmh 30.25 in1024.4 mb 0.00 in0.0 mm 0.00 in0.0 mm 0.00 in0.0 mm
12:08 PM 53.4°F11.9°C 52.0°F11.1°C 95% 3.2 mph W5.1 kmh W 6.3 mph10.1 kmh 30.25 in1024.4 mb 0.00 in0.0 mm 0.00 in0.0 mm 0.00 in0.0 mm
12:09 PM 53.6°F12.0°C 52.2°F11.2°C 95% 3.2 mph NNW5.1 kmh NNW 6.3 mph10.1 kmh 30.25 in1024.4 mb 0.00 in0.0 mm 0.00 in0.0 mm 0.00 in0.0 mm
12:10 PM 53.6°F12.0°C 52.2°F11.2°C 95% 2.2 mph W3.5 kmh W 6.3 mph10.1 kmh 30.25 in1024.4 mb 0.00 in0.0 mm 0.00 in0.0 mm 0.00 in0.0 mm
12:11 PM 53.8°F12.1°C 52.4°F11.3°C 95% 4.2 mph N6.8 kmh N 6.3 mph10.1 kmh 30.25 in1024.4 mb 0.00 in0.0 mm 0.00 in0.0 mm 0.00 in0.0 mm
12:12 PM 53.8°F12.1°C 52.4°F11.3°C 95% 5.3 mph N8.5 kmh N 6.3 mph10.1 kmh 30.25 in1024.4 mb 0.00 in0.0 mm 0.00 in0.0 mm 0.00 in0.0 mm
12:13 PM 53.8°F12.1°C 52.4°F11.3°C 95% 3.7 mph N6.0 kmh N 5.3 mph8.5 kmh 30.25 in1024.4 mb 0.00 in0.0 mm 0.00 in0.0 mm 0.00 in0.0 mm
12:14 PM 53.8°F12.1°C 52.4°F11.3°C 95% 5.3 mph N8.5 kmh N 5.3 mph8.5 kmh 30.25 in1024.4 mb 0.00 in0.0 mm 0.00 in0.0 mm 0.00 in0.0 mm
12:15 PM 53.8°F12.1°C 52.4°F11.3°C 95% 4.2 mph N6.8 kmh N 5.3 mph8.5 kmh 30.25 in1024.4 mb 0.00 in0.0 mm 0.00 in0.0 mm 0.00 in0.0 mm
12:16 PM 53.8°F12.1°C 52.4°F11.3°C 95% 4.2 mph NNW6.8 kmh NNW 5.3 mph8.5 kmh 30.25 in1024.4 mb 0.00 in0.0 mm 0.00 in0.0 mm 0.00 in0.0 mm
12:17 PM 53.8°F12.1°C 52.4°F11.3°C 95% 2.7 mph N4.3 kmh N 5.3 mph8.5 kmh 30.25 in1024.4 mb 0.00 in0.0 mm 0.00 in0.0 mm 0.00 in0.0 mm
12:18 PM 53.8°F12.1°C 52.4°F11.3°C 95% 3.7 mph N6.0 kmh N 5.3 mph8.5 kmh 30.25 in1024.4 mb 0.00 in0.0 mm 0.00 in0.0 mm 0.00 in0.0 mm
12:19 PM 53.8°F12.1°C 52.4°F11.3°C 95% 3.2 mph N5.1 kmh N 5.3 mph8.5 kmh 30.25 in1024.4 mb 0.00 in0.0 mm 0.00 in0.0 mm 0.00 in0.0 mm
12:20 PM 53.8°F12.1°C 52.4°F11.3°C 95% 2.7 mph NW4.3 kmh NW 5.3 mph8.5 kmh 30.25 in1024.4 mb 0.00 in0.0 mm 0.00 in0.0 mm 0.00 in0.0 mm
12:21 PM 53.8°F12.1°C 52.4°F11.3°C 95% 2.7 mph NNW4.3 kmh NNW 5.3 mph8.5 kmh 30.25 in1024.4 mb 0.00 in0.0 mm 0.00 in0.0 mm 0.00 in0.0 mm
12:22 PM 53.8°F12.1°C 52.4°F11.3°C 95% 4.2 mph N6.8 kmh N 5.3 mph8.5 kmh 30.25 in1024.4 mb 0.00 in0.0 mm 0.00 in0.0 mm 0.00 in0.0 mm
12:23 PM 53.8°F12.1°C 52.4°F11.3°C 95% 3.2 mph NW5.1 kmh NW 5.3 mph8.5 kmh 30.25 in1024.4 mb 0.00 in0.0 mm 0.00 in0.0 mm 0.00 in0.0 mm
12:24 PM 53.8°F12.1°C 52.4°F11.3°C 95% 3.2 mph N5.1 kmh N 5.3 mph8.5 kmh 30.25 in1024.4 mb 0.00 in0.0 mm 0.00 in0.0 mm 0.00 in0.0 mm
12:25 PM 53.8°F12.1°C 52.4°F11.3°C 95% 2.2 mph NW3.5 kmh NW 4.7 mph7.6 kmh 30.25 in1024.4 mb 0.00 in0.0 mm 0.00 in0.0 mm 0.00 in0.0 mm
12:26 PM 53.8°F12.1°C 52.4°F11.3°C 95% 2.7 mph WNW4.3 kmh WNW 4.7 mph7.6 kmh 30.25 in1024.4 mb 0.00 in0.0 mm 0.00 in0.0 mm 0.00 in0.0 mm
12:27 PM 53.8°F12.1°C 52.4°F11.3°C 95% 3.7 mph NNW6.0 kmh NNW 4.7 mph7.6 kmh 30.25 in1024.4 mb 0.00 in0.0 mm 0.00 in0.0 mm 0.00 in0.0 mm
12:28 PM 53.8°F12.1°C 52.4°F11.3°C 95% 1.7 mph W2.7 kmh W 4.7 mph7.6 kmh 30.25 in1024.4 mb 0.00 in0.0 mm 0.00 in0.0 mm 0.00 in0.0 mm
12:29 PM 54.0°F12.2°C 52.6°F11.4°C 95% 2.2 mph WNW3.5 kmh WNW 4.2 mph6.8 kmh 30.25 in1024.4 mb 0.00 in0.0 mm 0.00 in0.0 mm 0.00 in0.0 mm
12:30 PM 54.0°F12.2°C 52.6°F11.4°C 95% 4.7 mph NW7.6 kmh NW 4.7 mph7.6 kmh 30.25 in1024.4 mb 0.00 in0.0 mm 0.00 in0.0 mm 0.00 in0.0 mm
12:31 PM 54.1°F12.3°C 52.4°F11.3°C 94% 4.2 mph WNW6.8 kmh WNW 4.7 mph7.6 kmh 30.25 in1024.4 mb 0.00 in0.0 mm 0.00 in0.0 mm 0.00 in0.0 mm
12:32 PM 54.1°F12.3°C 52.4°F11.3°C 94% 4.7 mph NW7.6 kmh NW 5.8 mph9.3 kmh 30.25 in1024.4 mb 0.00 in0.0 mm 0.00 in0.0 mm 0.00 in0.0 mm
12:33 PM 54.1°F12.3°C 52.4°F11.3°C 94% 4.7 mph NW7.6 kmh NW 5.8 mph9.3 kmh 30.25 in1024.4 mb 0.00 in0.0 mm 0.00 in0.0 mm 0.00 in0.0 mm
12:34 PM 54.1°F12.3°C 52.4°F11.3°C 94% 5.8 mph WNW9.3 kmh WNW 6.3 mph10.1 kmh 30.25 in1024.4 mb 0.00 in0.0 mm 0.00 in0.0 mm 0.00 in0.0 mm
12:35 PM 54.1°F12.3°C 52.4°F11.3°C 94% 4.2 mph W6.8 kmh W 6.3 mph10.1 kmh 30.25 in1024.4 mb 0.00 in0.0 mm 0.00 in0.0 mm 0.00 in0.0 mm
12:36 PM 54.0°F12.2°C 52.3°F11.3°C 94% 2.2 mph NW3.5 kmh NW 6.3 mph10.1 kmh 30.25 in1024.4 mb 0.00 in0.0 mm 0.00 in0.0 mm 0.00 in0.0 mm
12:37 PM 54.0°F12.2°C 52.3°F11.3°C 94% 2.7 mph W4.3 kmh W 6.3 mph10.1 kmh 30.25 in1024.4 mb 0.00 in0.0 mm 0.00 in0.0 mm 0.00 in0.0 mm
12:38 PM 54.0°F12.2°C 52.3°F11.3°C 94% 3.2 mph NNW5.1 kmh NNW 6.3 mph10.1 kmh 30.24 in1024.0 mb 0.00 in0.0 mm 0.00 in0.0 mm 0.00 in0.0 mm
12:39 PM 54.0°F12.2°C 52.3°F11.3°C 94% 3.2 mph N5.1 kmh N 6.3 mph10.1 kmh 30.24 in1024.0 mb 0.00 in0.0 mm 0.00 in0.0 mm 0.00 in0.0 mm
12:40 PM 54.0°F12.2°C 52.3°F11.3°C 94% 3.7 mph NNW6.0 kmh NNW 6.3 mph10.1 kmh 30.24 in1024.0 mb 0.00 in0.0 mm 0.00 in0.0 mm 0.00 in0.0 mm
12:41 PM 54.1°F12.3°C 52.4°F11.3°C 94% 3.7 mph NW6.0 kmh NW 6.3 mph10.1 kmh 30.24 in1024.0 mb 0.00 in0.0 mm 0.00 in0.0 mm 0.00 in0.0 mm
12:42 PM 54.1°F12.3°C 52.4°F11.3°C 94% 3.7 mph NW6.0 kmh NW 6.3 mph10.1 kmh 30.24 in1024.0 mb 0.00 in0.0 mm 0.00 in0.0 mm 0.00 in0.0 mm
12:43 PM 54.1°F12.3°C 52.4°F11.3°C 94% 2.7 mph NNW4.3 kmh NNW 6.3 mph10.1 kmh 30.24 in1024.0 mb 0.00 in0.0 mm 0.00 in0.0 mm 0.00 in0.0 mm
12:44 PM 54.1°F12.3°C 52.4°F11.3°C 94% 3.2 mph NNE5.1 kmh NNE 5.8 mph9.3 kmh 30.24 in1024.0 mb 0.00 in0.0 mm 0.00 in0.0 mm 0.00 in0.0 mm
12:45 PM 54.1°F12.3°C 52.4°F11.3°C 94% 2.7 mph NW4.3 kmh NW 4.2 mph6.8 kmh 30.24 in1024.0 mb 0.00 in0.0 mm 0.00 in0.0 mm 0.00 in0.0 mm
12:46 PM 54.3°F12.4°C 52.6°F11.4°C 94% 3.7 mph NNW6.0 kmh NNW 3.7 mph6.0 kmh 30.24 in1024.0 mb 0.00 in0.0 mm 0.00 in0.0 mm 0.00 in0.0 mm
12:47 PM 54.3°F12.4°C 52.6°F11.4°C 94% 2.7 mph N4.3 kmh N 3.7 mph6.0 kmh 30.24 in1024.0 mb 0.00 in0.0 mm 0.00 in0.0 mm 0.00 in0.0 mm
12:48 PM 54.3°F12.4°C 52.6°F11.4°C 94% 3.2 mph NNW5.1 kmh NNW 4.2 mph6.8 kmh 30.24 in1024.0 mb 0.00 in0.0 mm 0.00 in0.0 mm 0.00 in0.0 mm
12:49 PM 54.3°F12.4°C 52.6°F11.4°C 94% 3.2 mph N5.1 kmh N 4.2 mph6.8 kmh 30.24 in1024.0 mb 0.00 in0.0 mm 0.00 in0.0 mm 0.00 in0.0 mm
12:50 PM 54.3°F12.4°C 52.6°F11.4°C 94% 2.7 mph N4.3 kmh N 4.2 mph6.8 kmh 30.24 in1024.0 mb 0.00 in0.0 mm 0.00 in0.0 mm 0.00 in0.0 mm
12:51 PM 54.3°F12.4°C 52.6°F11.4°C 94% 1.7 mph NNE2.7 kmh NNE 4.2 mph6.8 kmh 30.24 in1024.0 mb 0.00 in0.0 mm 0.00 in0.0 mm 0.00 in0.0 mm
12:52 PM 54.3°F12.4°C 52.6°F11.4°C 94% 4.7 mph N7.6 kmh N 4.7 mph7.6 kmh 30.24 in1024.0 mb 0.00 in0.0 mm 0.00 in0.0 mm 0.00 in0.0 mm
12:53 PM 54.3°F12.4°C 52.6°F11.4°C 94% 4.2 mph NNW6.8 kmh NNW 4.7 mph7.6 kmh 30.24 in1024.0 mb 0.00 in0.0 mm 0.00 in0.0 mm 0.00 in0.0 mm
12:54 PM 54.3°F12.4°C 52.6°F11.4°C 94% 3.7 mph N6.0 kmh N 4.7 mph7.6 kmh 30.24 in1024.0 mb 0.00 in0.0 mm 0.00 in0.0 mm 0.00 in0.0 mm
12:55 PM 54.3°F12.4°C 52.6°F11.4°C 94% 4.7 mph NW7.6 kmh NW 5.3 mph8.5 kmh 30.24 in1024.0 mb 0.00 in0.0 mm 0.00 in0.0 mm 0.00 in0.0 mm
12:56 PM 54.3°F12.4°C 52.6°F11.4°C 94% 3.7 mph N6.0 kmh N 5.3 mph8.5 kmh 30.24 in1024.0 mb 0.00 in0.0 mm 0.00 in0.0 mm 0.00 in0.0 mm
12:57 PM 54.3°F12.4°C 52.6°F11.4°C 94% 4.7 mph NNW7.6 kmh NNW 5.3 mph8.5 kmh 30.24 in1024.0 mb 0.00 in0.0 mm 0.00 in0.0 mm 0.00 in0.0 mm
12:58 PM 54.3°F12.4°C 52.6°F11.4°C 94% 4.2 mph NNE6.8 kmh NNE 5.3 mph8.5 kmh 30.24 in1024.0 mb 0.00 in0.0 mm 0.00 in0.0 mm 0.00 in0.0 mm
12:59 PM 54.3°F12.4°C 52.6°F11.4°C 94% 3.2 mph NW5.1 kmh NW 5.3 mph8.5 kmh 30.24 in1024.0 mb 0.00 in0.0 mm 0.00 in0.0 mm 0.00 in0.0 mm
01:00 PM 54.3°F12.4°C 52.6°F11.4°C 94% 2.7 mph WNW4.3 kmh WNW 5.3 mph8.5 kmh 30.24 in1024.0 mb 0.00 in0.0 mm 0.00 in0.0 mm 0.00 in0.0 mm
01:01 PM 54.3°F12.4°C 52.6°F11.4°C 94% 3.7 mph NNW6.0 kmh NNW 5.3 mph8.5 kmh 30.24 in1024.0 mb 0.00 in0.0 mm 0.00 in0.0 mm 0.00 in0.0 mm
01:02 PM 54.3°F12.4°C 52.6°F11.4°C 94% 3.7 mph WNW6.0 kmh WNW 5.3 mph8.5 kmh 30.24 in1024.0 mb 0.00 in0.0 mm 0.00 in0.0 mm 0.00 in0.0 mm
01:03 PM 54.3°F12.4°C 52.6°F11.4°C 94% 3.2 mph N5.1 kmh N 5.3 mph8.5 kmh 30.24 in1024.0 mb 0.00 in0.0 mm 0.00 in0.0 mm 0.00 in0.0 mm
01:04 PM 54.3°F12.4°C 52.6°F11.4°C 94% 3.2 mph NNE5.1 kmh NNE 5.3 mph8.5 kmh 30.24 in1024.0 mb 0.00 in0.0 mm 0.00 in0.0 mm 0.00 in0.0 mm
01:05 PM 54.3°F12.4°C 52.6°F11.4°C 94% 2.7 mph NNW4.3 kmh NNW 5.3 mph8.5 kmh 30.24 in1024.0 mb 0.00 in0.0 mm 0.00 in0.0 mm 0.00 in0.0 mm
01:06 PM 54.3°F12.4°C 52.6°F11.4°C 94% 3.7 mph WNW6.0 kmh WNW 5.3 mph8.5 kmh 30.24 in1024.0 mb 0.00 in0.0 mm 0.00 in0.0 mm 0.00 in0.0 mm
01:07 PM 54.3°F12.4°C 52.6°F11.4°C 94% 3.7 mph NNW6.0 kmh NNW 4.7 mph7.6 kmh 30.24 in1024.0 mb 0.00 in0.0 mm 0.00 in0.0 mm 0.00 in0.0 mm
01:08 PM 54.5°F12.5°C 52.8°F11.6°C 94% 3.2 mph WNW5.1 kmh WNW 4.7 mph7.6 kmh 30.24 in1024.0 mb 0.00 in0.0 mm 0.00 in0.0 mm 0.00 in0.0 mm
01:09 PM 54.5°F12.5°C 52.8°F11.6°C 94% 4.7 mph NNW7.6 kmh NNW 4.7 mph7.6 kmh 30.24 in1024.0 mb 0.00 in0.0 mm 0.00 in0.0 mm 0.00 in0.0 mm
01:10 PM 54.5°F12.5°C 52.8°F11.6°C 94% 3.2 mph NNE5.1 kmh NNE 4.7 mph7.6 kmh 30.24 in1024.0 mb 0.00 in0.0 mm 0.00 in0.0 mm 0.00 in0.0 mm
01:11 PM 54.5°F12.5°C 52.8°F11.6°C 94% 2.7 mph NNW4.3 kmh NNW 4.7 mph7.6 kmh 30.24 in1024.0 mb 0.00 in0.0 mm 0.00 in0.0 mm 0.00 in0.0 mm
01:12 PM 54.5°F12.5°C 52.8°F11.6°C 94% 2.7 mph NNW4.3 kmh NNW 4.7 mph7.6 kmh 30.24 in1024.0 mb 0.00 in0.0 mm 0.00 in0.0 mm 0.00 in0.0 mm
01:13 PM 54.5°F12.5°C 52.8°F11.6°C 94% 2.7 mph WNW4.3 kmh WNW 4.7 mph7.6 kmh 30.24 in1024.0 mb 0.00 in0.0 mm 0.00 in0.0 mm 0.00 in0.0 mm
01:14 PM 54.5°F12.5°C 52.8°F11.6°C 94% 4.2 mph N6.8 kmh N 4.7 mph7.6 kmh 30.24 in1024.0 mb 0.00 in0.0 mm 0.00 in0.0 mm 0.00 in0.0 mm
01:15 PM 54.5°F12.5°C 52.8°F11.6°C 94% 4.2 mph NNE6.8 kmh NNE 4.7 mph7.6 kmh 30.24 in1024.0 mb 0.00 in0.0 mm 0.00 in0.0 mm 0.00 in0.0 mm
01:16 PM 54.5°F12.5°C 52.8°F11.6°C 94% 4.7 mph NNW7.6 kmh NNW 5.8 mph9.3 kmh 30.24 in1024.0 mb 0.00 in0.0 mm 0.00 in0.0 mm 0.00 in0.0 mm
01:17 PM 54.5°F12.5°C 52.8°F11.6°C 94% 3.7 mph N6.0 kmh N 5.8 mph9.3 kmh 30.24 in1024.0 mb 0.00 in0.0 mm 0.00 in0.0 mm 0.00 in0.0 mm
01:18 PM 54.5°F12.5°C 52.8°F11.6°C 94% 3.2 mph WNW5.1 kmh WNW 5.8 mph9.3 kmh 30.24 in1024.0 mb 0.00 in0.0 mm 0.00 in0.0 mm 0.00 in0.0 mm
01:19 PM 54.5°F12.5°C 52.8°F11.6°C 94% 3.2 mph NNW5.1 kmh NNW 5.8 mph9.3 kmh 30.24 in1024.0 mb 0.00 in0.0 mm 0.00 in0.0 mm 0.00 in0.0 mm
01:20 PM 54.5°F12.5°C 52.8°F11.6°C 94% 4.2 mph NNW6.8 kmh NNW 5.8 mph9.3 kmh 30.24 in1024.0 mb 0.00 in0.0 mm 0.00 in0.0 mm 0.00 in0.0 mm
01:21 PM 54.3°F12.4°C 52.6°F11.4°C 94% 3.7 mph WNW6.0 kmh WNW 5.8 mph9.3 kmh 30.24 in1024.0 mb 0.00 in0.0 mm 0.00 in0.0 mm 0.00 in0.0 mm
01:22 PM 54.3°F12.4°C 52.6°F11.4°C 94% 3.7 mph NNW6.0 kmh NNW 5.8 mph9.3 kmh 30.24 in1024.0 mb 0.00 in0.0 mm 0.00 in0.0 mm 0.00 in0.0 mm
01:23 PM 54.3°F12.4°C 52.6°F11.4°C 94% 3.2 mph NNW5.1 kmh NNW 5.8 mph9.3 kmh 30.24 in1024.0 mb 0.00 in0.0 mm 0.00 in0.0 mm 0.00 in0.0 mm
01:24 PM 54.3°F12.4°C 52.6°F11.4°C 94% 3.2 mph NW5.1 kmh NW 5.8 mph9.3 kmh 30.24 in1024.0 mb 0.00 in0.0 mm 0.00 in0.0 mm 0.00 in0.0 mm
01:25 PM 54.3°F12.4°C 52.6°F11.4°C 94% 2.7 mph NNW4.3 kmh NNW 5.8 mph9.3 kmh 30.24 in1024.0 mb 0.00 in0.0 mm 0.00 in0.0 mm 0.00 in0.0 mm
01:26 PM 54.3°F12.4°C 52.6°F11.4°C 94% 3.2 mph WNW5.1 kmh WNW 4.7 mph7.6 kmh 30.24 in1024.0 mb 0.00 in0.0 mm 0.00 in0.0 mm 0.00 in0.0 mm
01:27 PM 54.3°F12.4°C 52.6°F11.4°C 94% 3.7 mph NNW6.0 kmh NNW 4.7 mph7.6 kmh 30.24 in1024.0 mb 0.00 in0.0 mm 0.00 in0.0 mm 0.00 in0.0 mm
01:28 PM 54.3°F12.4°C 52.6°F11.4°C 94% 3.7 mph W6.0 kmh W 4.2 mph6.8 kmh 30.24 in1024.0 mb 0.00 in0.0 mm 0.00 in0.0 mm 0.00 in0.0 mm
01:29 PM 54.3°F12.4°C 52.6°F11.4°C 94% 3.2 mph NW5.1 kmh NW 4.2 mph6.8 kmh 30.24 in1024.0 mb 0.00 in0.0 mm 0.00 in0.0 mm 0.00 in0.0 mm
01:30 PM 54.3°F12.4°C 52.6°F11.4°C 94% 4.2 mph NW6.8 kmh NW 4.2 mph6.8 kmh 30.24 in1024.0 mb 0.00 in0.0 mm 0.00 in0.0 mm 0.00 in0.0 mm
01:31 PM 54.3°F12.4°C 52.6°F11.4°C 94% 4.2 mph NW6.8 kmh NW 4.2 mph6.8 kmh 30.24 in1024.0 mb 0.00 in0.0 mm 0.00 in0.0 mm 0.00 in0.0 mm
01:32 PM 54.3°F12.4°C 52.6°F11.4°C 94% 3.7 mph NNW6.0 kmh NNW 4.7 mph7.6 kmh 30.24 in1024.0 mb 0.00 in0.0 mm 0.00 in0.0 mm 0.00 in0.0 mm
01:33 PM 54.3°F12.4°C 52.6°F11.4°C 94% 3.2 mph NNE5.1 kmh NNE 4.7 mph7.6 kmh 30.24 in1024.0 mb 0.00 in0.0 mm 0.00 in0.0 mm 0.00 in0.0 mm
01:34 PM 54.3°F12.4°C 52.6°F11.4°C 94% 3.7 mph NNW6.0 kmh NNW 4.7 mph7.6 kmh 30.24 in1024.0 mb 0.00 in0.0 mm 0.00 in0.0 mm 0.00 in0.0 mm
01:35 PM 54.3°F12.4°C 52.6°F11.4°C 94% 4.2 mph WNW6.8 kmh WNW 4.7 mph7.6 kmh 30.24 in1024.0 mb 0.00 in0.0 mm 0.00 in0.0 mm 0.00 in0.0 mm
01:36 PM 54.3°F12.4°C 52.6°F11.4°C 94% 4.2 mph W6.8 kmh W 4.7 mph7.6 kmh 30.24 in1024.0 mb 0.00 in0.0 mm 0.00 in0.0 mm 0.00 in0.0 mm
01:37 PM 54.3°F12.4°C 52.6°F11.4°C 94% 4.2 mph NNE6.8 kmh NNE 4.7 mph7.6 kmh 30.24 in1024.0 mb 0.00 in0.0 mm 0.00 in0.0 mm 0.00 in0.0 mm
01:38 PM 54.3°F12.4°C 52.6°F11.4°C 94% 3.7 mph N6.0 kmh N 4.7 mph7.6 kmh 30.23 in1023.7 mb 0.00 in0.0 mm 0.00 in0.0 mm 0.00 in0.0 mm
01:39 PM 54.3°F12.4°C 52.6°F11.4°C 94% 3.7 mph NW6.0 kmh NW 4.7 mph7.6 kmh 30.23 in1023.7 mb 0.00 in0.0 mm 0.00 in0.0 mm 0.00 in0.0 mm
01:40 PM 54.3°F12.4°C 52.6°F11.4°C 94% 4.2 mph NNW6.8 kmh NNW 4.7 mph7.6 kmh 30.23 in1023.7 mb 0.00 in0.0 mm 0.00 in0.0 mm 0.00 in0.0 mm
01:41 PM 54.3°F12.4°C 52.6°F11.4°C 94% 3.2 mph NNE5.1 kmh NNE 4.7 mph7.6 kmh 30.23 in1023.7 mb 0.00 in0.0 mm 0.00 in0.0 mm 0.00 in0.0 mm
01:42 PM 54.3°F12.4°C 52.6°F11.4°C 94% 3.7 mph N6.0 kmh N 4.7 mph7.6 kmh 30.23 in1023.7 mb 0.00 in0.0 mm 0.00 in0.0 mm 0.00 in0.0 mm
01:43 PM 54.3°F12.4°C 52.6°F11.4°C 94% 4.2 mph N6.8 kmh N 4.7 mph7.6 kmh 30.23 in1023.7 mb 0.00 in0.0 mm 0.00 in0.0 mm 0.00 in0.0 mm
01:44 PM 54.3°F12.4°C 52.6°F11.4°C 94% 3.2 mph NNW5.1 kmh NNW 4.7 mph7.6 kmh 30.23 in1023.7 mb 0.00 in0.0 mm 0.00 in0.0 mm 0.00 in0.0 mm
01:45 PM 54.3°F12.4°C 52.6°F11.4°C 94% 4.2 mph NNE6.8 kmh NNE 4.7 mph7.6 kmh 30.23 in1023.7 mb 0.00 in0.0 mm 0.00 in0.0 mm 0.00 in0.0 mm
01:46 PM 54.3°F12.4°C 52.6°F11.4°C 94% 2.2 mph NNW3.5 kmh NNW 4.7 mph7.6 kmh 30.23 in1023.7 mb 0.00 in0.0 mm 0.00 in0.0 mm 0.00 in0.0 mm
01:47 PM 54.3°F12.4°C 52.6°F11.4°C 94% 2.2 mph NNE3.5 kmh NNE 4.7 mph7.6 kmh 30.23 in1023.7 mb 0.00 in0.0 mm 0.00 in0.0 mm 0.00 in0.0 mm
01:48 PM 54.3°F12.4°C 52.6°F11.4°C 94% 1.7 mph NNE2.7 kmh NNE 4.7 mph7.6 kmh 30.23 in1023.7 mb 0.00 in0.0 mm 0.00 in0.0 mm 0.00 in0.0 mm
01:49 PM 54.3°F12.4°C 52.6°F11.4°C 94% Calm Calm 4.7 mph7.6 kmh 30.23 in1023.7 mb 0.00 in0.0 mm 0.00 in0.0 mm 0.00 in0.0 mm
01:50 PM 54.3°F12.4°C 52.6°F11.4°C 94% 1.7 mph W2.7 kmh W 4.7 mph7.6 kmh 30.22 in1023.4 mb 0.00 in0.0 mm 0.00 in0.0 mm 0.00 in0.0 mm
01:51 PM 54.3°F12.4°C 52.6°F11.4°C 94% 2.2 mph NNW3.5 kmh NNW 4.7 mph7.6 kmh 30.22 in1023.4 mb 0.00 in0.0 mm 0.00 in0.0 mm 0.00 in0.0 mm
01:52 PM 54.5°F12.5°C 52.8°F11.6°C 94% 2.7 mph NNW4.3 kmh NNW 4.7 mph7.6 kmh 30.22 in1023.4 mb 0.00 in0.0 mm 0.00 in0.0 mm 0.00 in0.0 mm
01:53 PM 54.5°F12.5°C 52.8°F11.6°C 94% 2.2 mph N3.5 kmh N 4.2 mph6.8 kmh 30.22 in1023.4 mb 0.00 in0.0 mm 0.00 in0.0 mm 0.00 in0.0 mm
01:54 PM 54.5°F12.5°C 52.8°F11.6°C 94% 2.2 mph W3.5 kmh W 4.2 mph6.8 kmh 30.22 in1023.4 mb 0.00 in0.0 mm 0.00 in0.0 mm 0.00 in0.0 mm
01:55 PM 54.5°F12.5°C 52.8°F11.6°C 94% 2.7 mph NW4.3 kmh NW 3.2 mph5.1 kmh 30.22 in1023.4 mb 0.00 in0.0 mm 0.00 in0.0 mm 0.00 in0.0 mm
01:56 PM 54.5°F12.5°C 52.8°F11.6°C 94% 2.7 mph NNW4.3 kmh NNW 3.2 mph5.1 kmh 30.22 in1023.4 mb 0.00 in0.0 mm 0.00 in0.0 mm 0.00 in0.0 mm
01:57 PM 54.5°F12.5°C 52.8°F11.6°C 94% 3.2 mph NNE5.1 kmh NNE 3.7 mph6.0 kmh 30.22 in1023.4 mb 0.00 in0.0 mm 0.00 in0.0 mm 0.00 in0.0 mm
01:58 PM 54.5°F12.5°C 52.8°F11.6°C 94% 2.2 mph NNW3.5 kmh NNW 3.7 mph6.0 kmh 30.22 in1023.4 mb 0.00 in0.0 mm 0.00 in0.0 mm 0.00 in0.0 mm
01:59 PM 54.5°F12.5°C 52.8°F11.6°C 94% 3.2 mph NW5.1 kmh NW 3.7 mph6.0 kmh 30.22 in1023.4 mb 0.00 in0.0 mm 0.00 in0.0 mm 0.00 in0.0 mm
02:00 PM 54.5°F12.5°C 52.8°F11.6°C 94% 2.2 mph WNW3.5 kmh WNW 3.7 mph6.0 kmh 30.22 in1023.4 mb 0.00 in0.0 mm 0.00 in0.0 mm 0.00 in0.0 mm
02:01 PM 54.5°F12.5°C 52.8°F11.6°C 94% 2.2 mph WNW3.5 kmh WNW 3.7 mph6.0 kmh 30.22 in1023.4 mb 0.00 in0.0 mm 0.00 in0.0 mm 0.00 in0.0 mm
02:02 PM 54.5°F12.5°C 52.8°F11.6°C 94% 2.2 mph NNW3.5 kmh NNW 3.7 mph6.0 kmh 30.22 in1023.4 mb 0.00 in0.0 mm 0.00 in0.0 mm 0.00 in0.0 mm
02:03 PM 54.7°F12.6°C 53.0°F11.7°C 94% 3.2 mph NNW5.1 kmh NNW 3.7 mph6.0 kmh 30.22 in1023.4 mb 0.00 in0.0 mm 0.00 in0.0 mm 0.00 in0.0 mm
02:04 PM 54.7°F12.6°C 53.0°F11.7°C 94% 2.7 mph NNW4.3 kmh NNW 3.7 mph6.0 kmh 30.22 in1023.4 mb 0.00 in0.0 mm 0.00 in0.0 mm 0.00 in0.0 mm
02:05 PM 54.7°F12.6°C 53.0°F11.7°C 94% 2.2 mph WNW3.5 kmh WNW 4.2 mph6.8 kmh 30.22 in1023.4 mb 0.00 in0.0 mm 0.00 in0.0 mm 0.00 in0.0 mm
02:06 PM 54.7°F12.6°C 53.0°F11.7°C 94% 3.2 mph W5.1 kmh W 4.2 mph6.8 kmh 30.22 in1023.4 mb 0.00 in0.0 mm 0.00 in0.0 mm 0.00 in0.0 mm
02:07 PM 54.7°F12.6°C 53.0°F11.7°C 94% 4.2 mph W6.8 kmh W 4.2 mph6.8 kmh 30.22 in1023.4 mb 0.00 in0.0 mm 0.00 in0.0 mm 0.00 in0.0 mm
02:08 PM 54.7°F12.6°C 53.0°F11.7°C 94% 3.7 mph NNW6.0 kmh NNW 4.7 mph7.6 kmh 30.22 in1023.4 mb 0.00 in0.0 mm 0.00 in0.0 mm 0.00 in0.0 mm
02:09 PM 54.7°F12.6°C 53.0°F11.7°C 94% 6.8 mph NW10.9 kmh NW 7.8 mph12.6 kmh 30.22 in1023.4 mb 0.00 in0.0 mm 0.00 in0.0 mm 0.00 in0.0 mm
02:10 PM 54.5°F12.5°C 52.8°F11.6°C 94% 4.2 mph WNW6.8 kmh WNW 7.8 mph12.6 kmh 30.22 in1023.4 mb 0.00 in0.0 mm 0.00 in0.0 mm 0.00 in0.0 mm
02:11 PM 54.5°F12.5°C 52.8°F11.6°C 94% 3.2 mph NW5.1 kmh NW 7.8 mph12.6 kmh 30.22 in1023.4 mb 0.00 in0.0 mm 0.00 in0.0 mm 0.00 in0.0 mm
02:12 PM 54.5°F12.5°C 52.8°F11.6°C 94% 2.7 mph NNW4.3 kmh NNW 7.8 mph12.6 kmh 30.22 in1023.4 mb 0.00 in0.0 mm 0.00 in0.0 mm 0.00 in0.0 mm
02:13 PM 54.5°F12.5°C 52.8°F11.6°C 94% 3.7 mph WNW6.0 kmh WNW 7.8 mph12.6 kmh 30.22 in1023.4 mb 0.00 in0.0 mm 0.00 in0.0 mm 0.00 in0.0 mm
02:14 PM 54.5°F12.5°C 52.8°F11.6°C 94% 4.2 mph WNW6.8 kmh WNW 7.8 mph12.6 kmh 30.23 in1023.7 mb 0.00 in0.0 mm 0.00 in0.0 mm 0.00 in0.0 mm
02:15 PM 54.5°F12.5°C 52.8°F11.6°C 94% 2.2 mph NW3.5 kmh NW 7.8 mph12.6 kmh 30.23 in1023.7 mb 0.00 in0.0 mm 0.00 in0.0 mm 0.00 in0.0 mm
02:16 PM 54.5°F12.5°C 52.8°F11.6°C 94% 2.7 mph NW4.3 kmh NW 7.8 mph12.6 kmh 30.23 in1023.7 mb 0.00 in0.0 mm 0.00 in0.0 mm 0.00 in0.0 mm
02:17 PM 54.5°F12.5°C 52.8°F11.6°C 94% 3.2 mph NW5.1 kmh NW 7.8 mph12.6 kmh 30.23 in1023.7 mb 0.00 in0.0 mm 0.00 in0.0 mm 0.00 in0.0 mm
02:18 PM 54.5°F12.5°C 52.8°F11.6°C 94% 4.7 mph WNW7.6 kmh WNW 7.8 mph12.6 kmh 30.23 in1023.7 mb 0.00 in0.0 mm 0.00 in0.0 mm 0.00 in0.0 mm
02:19 PM 54.5°F12.5°C 52.8°F11.6°C 94% 3.7 mph WNW6.0 kmh WNW 5.3 mph8.5 kmh 30.23 in1023.7 mb 0.00 in0.0 mm 0.00 in0.0 mm 0.00 in0.0 mm
02:20 PM 54.5°F12.5°C 52.8°F11.6°C 94% 5.8 mph WNW9.3 kmh WNW 5.8 mph9.3 kmh 30.23 in1023.7 mb 0.00 in0.0 mm 0.00 in0.0 mm 0.00 in0.0 mm
02:21 PM 54.5°F12.5°C 52.8°F11.6°C 94% 5.3 mph WNW8.5 kmh WNW 7.3 mph11.7 kmh 30.23 in1023.7 mb 0.00 in0.0 mm 0.00 in0.0 mm 0.00 in0.0 mm
02:22 PM 54.3°F12.4°C 52.6°F11.4°C 94% 5.3 mph WNW8.5 kmh WNW 7.3 mph11.7 kmh 30.23 in1023.7 mb 0.00 in0.0 mm 0.00 in0.0 mm 0.00 in0.0 mm
02:23 PM 54.3°F12.4°C 52.6°F11.4°C 94% 4.2 mph W6.8 kmh W 7.3 mph11.7 kmh 30.23 in1023.7 mb 0.00 in0.0 mm 0.00 in0.0 mm 0.00 in0.0 mm
02:24 PM 54.3°F12.4°C 52.6°F11.4°C 94% 3.7 mph NNW6.0 kmh NNW 7.3 mph11.7 kmh 30.23 in1023.7 mb 0.00 in0.0 mm 0.00 in0.0 mm 0.00 in0.0 mm
02:25 PM 54.3°F12.4°C 52.6°F11.4°C 94% 4.2 mph WNW6.8 kmh WNW 7.3 mph11.7 kmh 30.23 in1023.7 mb 0.00 in0.0 mm 0.00 in0.0 mm 0.00 in0.0 mm
02:26 PM 54.3°F12.4°C 52.6°F11.4°C 94% 2.7 mph NW4.3 kmh NW 7.3 mph11.7 kmh 30.23 in1023.7 mb 0.00 in0.0 mm 0.00 in0.0 mm 0.00 in0.0 mm
02:27 PM 54.3°F12.4°C 52.6°F11.4°C 94% 3.7 mph NW6.0 kmh NW 7.3 mph11.7 kmh 30.23 in1023.7 mb 0.00 in0.0 mm 0.00 in0.0 mm 0.00 in0.0 mm
02:28 PM 54.3°F12.4°C 52.6°F11.4°C 94% 3.2 mph WNW5.1 kmh WNW 7.3 mph11.7 kmh 30.23 in1023.7 mb 0.00 in0.0 mm 0.00 in0.0 mm 0.00 in0.0 mm
02:29 PM 54.3°F12.4°C 52.6°F11.4°C 94% 4.2 mph WNW6.8 kmh WNW 7.3 mph11.7 kmh 30.23 in1023.7 mb 0.00 in0.0 mm 0.00 in0.0 mm 0.00 in0.0 mm
02:30 PM 54.3°F12.4°C 52.6°F11.4°C 94% 4.7 mph NW7.6 kmh NW 7.3 mph11.7 kmh 30.23 in1023.7 mb 0.00 in0.0 mm 0.00 in0.0 mm 0.00 in0.0 mm
02:31 PM 54.3°F12.4°C 52.6°F11.4°C 94% 5.3 mph W8.5 kmh W 5.3 mph8.5 kmh 30.23 in1023.7 mb 0.00 in0.0 mm 0.00 in0.0 mm 0.00 in0.0 mm
02:32 PM 54.3°F12.4°C 52.6°F11.4°C 94% 5.8 mph W9.3 kmh W 5.8 mph9.3 kmh 30.23 in1023.7 mb 0.00 in0.0 mm 0.00 in0.0 mm 0.00 in0.0 mm
02:33 PM 54.3°F12.4°C 52.6°F11.4°C 94% 4.7 mph WNW7.6 kmh WNW 5.8 mph9.3 kmh 30.23 in1023.7 mb 0.00 in0.0 mm 0.00 in0.0 mm 0.00 in0.0 mm
02:34 PM 54.3°F12.4°C 52.6°F11.4°C 94% 3.7 mph WNW6.0 kmh WNW 5.8 mph9.3 kmh 30.23 in1023.7 mb 0.00 in0.0 mm 0.00 in0.0 mm 0.00 in0.0 mm
02:35 PM 54.3°F12.4°C 52.6°F11.4°C 94% 4.2 mph NNE6.8 kmh NNE 5.8 mph9.3 kmh 30.23 in1023.7 mb 0.00 in0.0 mm 0.00 in0.0 mm 0.00 in0.0 mm
02:36 PM 54.3°F12.4°C 52.6°F11.4°C 94% 4.2 mph NNW6.8 kmh NNW 5.8 mph9.3 kmh 30.23 in1023.7 mb 0.00 in0.0 mm 0.00 in0.0 mm 0.00 in0.0 mm
02:37 PM 54.3°F12.4°C 52.6°F11.4°C 94% 3.7 mph N6.0 kmh N 5.8 mph9.3 kmh 30.23 in1023.7 mb 0.00 in0.0 mm 0.00 in0.0 mm 0.00 in0.0 mm
02:38 PM 54.1°F12.3°C 52.4°F11.3°C 94% 4.2 mph WNW6.8 kmh WNW 5.8 mph9.3 kmh 30.23 in1023.7 mb 0.00 in0.0 mm 0.00 in0.0 mm 0.00 in0.0 mm
02:39 PM 54.1°F12.3°C 52.4°F11.3°C 94% 3.2 mph NNW5.1 kmh NNW 5.8 mph9.3 kmh 30.23 in1023.7 mb 0.00 in0.0 mm 0.00 in0.0 mm 0.00 in0.0 mm
02:40 PM 54.1°F12.3°C 52.4°F11.3°C 94% 3.2 mph NW5.1 kmh NW 5.8 mph9.3 kmh 30.23 in1023.7 mb 0.00 in0.0 mm 0.00 in0.0 mm 0.00 in0.0 mm
02:41 PM 54.1°F12.3°C 52.4°F11.3°C 94% 3.2 mph N5.1 kmh N 5.8 mph9.3 kmh 30.23 in1023.7 mb 0.00 in0.0 mm 0.00 in0.0 mm 0.00 in0.0 mm
02:42 PM 54.1°F12.3°C 52.4°F11.3°C 94% 4.2 mph W6.8 kmh W 5.8 mph9.3 kmh 30.23 in1023.7 mb 0.00 in0.0 mm 0.00 in0.0 mm 0.00 in0.0 mm
02:43 PM 54.1°F12.3°C 52.4°F11.3°C 94% 2.7 mph NNW4.3 kmh NNW 5.8 mph9.3 kmh 30.23 in1023.7 mb 0.00 in0.0 mm 0.00 in0.0 mm 0.00 in0.0 mm
02:44 PM 54.1°F12.3°C 52.4°F11.3°C 94% 2.7 mph NW4.3 kmh NW 5.8 mph9.3 kmh 30.23 in1023.7 mb 0.00 in0.0 mm 0.00 in0.0 mm 0.00 in0.0 mm
02:45 PM 54.1°F12.3°C 52.4°F11.3°C 94% 4.2 mph NW6.8 kmh NW 5.3 mph8.5 kmh 30.23 in1023.7 mb 0.00 in0.0 mm 0.00 in0.0 mm 0.00 in0.0 mm
02:46 PM 54.1°F12.3°C 52.4°F11.3°C 94% 4.2 mph NNW6.8 kmh NNW 5.3 mph8.5 kmh 30.23 in1023.7 mb 0.00 in0.0 mm 0.00 in0.0 mm 0.00 in0.0 mm
02:47 PM 54.1°F12.3°C 52.4°F11.3°C 94% 4.7 mph WNW7.6 kmh WNW 5.3 mph8.5 kmh 30.23 in1023.7 mb 0.00 in0.0 mm 0.00 in0.0 mm 0.00 in0.0 mm
02:48 PM 54.1°F12.3°C 52.4°F11.3°C 94% 4.2 mph NW6.8 kmh NW 5.3 mph8.5 kmh 30.23 in1023.7 mb 0.00 in0.0 mm 0.00 in0.0 mm 0.00 in0.0 mm
02:49 PM 54.1°F12.3°C 52.4°F11.3°C 94% 4.7 mph W7.6 kmh W 5.3 mph8.5 kmh 30.23 in1023.7 mb 0.00 in0.0 mm 0.00 in0.0 mm 0.00 in0.0 mm
02:50 PM 54.1°F12.3°C 52.4°F11.3°C 94% 4.2 mph NW6.8 kmh NW 6.3 mph10.1 kmh 30.23 in1023.7 mb 0.00 in0.0 mm 0.00 in0.0 mm 0.00 in0.0 mm
02:51 PM 54.1°F12.3°C 52.4°F11.3°C 94% 4.2 mph NNW6.8 kmh NNW 6.3 mph10.1 kmh 30.23 in1023.7 mb 0.00 in0.0 mm 0.00 in0.0 mm 0.00 in0.0 mm
02:52 PM 54.1°F12.3°C 52.4°F11.3°C 94% 4.7 mph W7.6 kmh W 6.3 mph10.1 kmh 30.23 in1023.7 mb 0.00 in0.0 mm 0.00 in0.0 mm 0.00 in0.0 mm
02:53 PM 54.1°F12.3°C 52.4°F11.3°C 94% 3.7 mph WNW6.0 kmh WNW 6.3 mph10.1 kmh 30.23 in1023.7 mb 0.00 in0.0 mm 0.00 in0.0 mm 0.00 in0.0 mm
02:54 PM 54.1°F12.3°C 52.4°F11.3°C 94% 3.7 mph WNW6.0 kmh WNW 6.3 mph10.1 kmh 30.23 in1023.7 mb 0.00 in0.0 mm 0.00 in0.0 mm 0.00 in0.0 mm
02:55 PM 54.1°F12.3°C 52.4°F11.3°C 94% 5.3 mph WNW8.5 kmh WNW 6.3 mph10.1 kmh 30.23 in1023.7 mb 0.00 in0.0 mm 0.00 in0.0 mm 0.00 in0.0 mm
02:56 PM 54.1°F12.3°C 52.4°F11.3°C 94% 5.3 mph W8.5 kmh W 6.3 mph10.1 kmh 30.23 in1023.7 mb 0.00 in0.0 mm 0.00 in0.0 mm 0.00 in0.0 mm
02:57 PM 54.1°F12.3°C 52.4°F11.3°C 94% 5.3 mph W8.5 kmh W 6.3 mph10.1 kmh 30.23 in1023.7 mb 0.00 in0.0 mm 0.00 in0.0 mm 0.00 in0.0 mm
02:58 PM 54.1°F12.3°C 52.4°F11.3°C 94% 2.7 mph NW4.3 kmh NW 6.3 mph10.1 kmh 30.23 in1023.7 mb 0.00 in0.0 mm 0.00 in0.0 mm 0.00 in0.0 mm
02:59 PM 54.1°F12.3°C 52.4°F11.3°C 94% 4.2 mph NNE6.8 kmh NNE 6.3 mph10.1 kmh 30.23 in1023.7 mb 0.00 in0.0 mm 0.00 in0.0 mm 0.00 in0.0 mm
03:00 PM 54.1°F12.3°C 52.4°F11.3°C 94% 4.2 mph NNW6.8 kmh NNW 6.3 mph10.1 kmh 30.23 in1023.7 mb 0.00 in0.0 mm 0.00 in0.0 mm 0.00 in0.0 mm
03:01 PM 54.1°F12.3°C 52.4°F11.3°C 94% 3.7 mph N6.0 kmh N 6.3 mph10.1 kmh 30.23 in1023.7 mb 0.00 in0.0 mm 0.00 in0.0 mm 0.00 in0.0 mm
03:02 PM 54.1°F12.3°C 52.4°F11.3°C 94% 3.2 mph W5.1 kmh W 6.3 mph10.1 kmh 30.23 in1023.7 mb 0.00 in0.0 mm 0.00 in0.0 mm 0.00 in0.0 mm
03:03 PM 54.1°F12.3°C 52.4°F11.3°C 94% 4.2 mph W6.8 kmh W 6.3 mph10.1 kmh 30.23 in1023.7 mb 0.00 in0.0 mm 0.00 in0.0 mm 0.00 in0.0 mm
03:04 PM 54.1°F12.3°C 52.4°F11.3°C 94% 2.7 mph NNW4.3 kmh NNW 6.3 mph10.1 kmh 30.23 in1023.7 mb 0.00 in0.0 mm 0.00 in0.0 mm 0.00 in0.0 mm
03:05 PM 54.1°F12.3°C 52.4°F11.3°C 94% 4.7 mph NNW7.6 kmh NNW 6.3 mph10.1 kmh 30.23 in1023.7 mb 0.00 in0.0 mm 0.00 in0.0 mm 0.00 in0.0 mm
03:06 PM 54.1°F12.3°C 52.4°F11.3°C 94% 3.2 mph NW5.1 kmh NW 5.3 mph8.5 kmh 30.23 in1023.7 mb 0.00 in0.0 mm 0.00 in0.0 mm 0.00 in0.0 mm
03:07 PM 54.1°F12.3°C 52.4°F11.3°C 94% 3.2 mph W5.1 kmh W 5.3 mph8.5 kmh 30.23 in1023.7 mb 0.00 in0.0 mm 0.00 in0.0 mm 0.00 in0.0 mm
03:08 PM 54.1°F12.3°C 52.4°F11.3°C 94% 4.7 mph WSW7.6 kmh WSW 4.7 mph7.6 kmh 30.23 in1023.7 mb 0.00 in0.0 mm 0.00 in0.0 mm 0.00 in0.0 mm
03:09 PM 54.1°F12.3°C 52.4°F11.3°C 94% 2.7 mph SW4.3 kmh SW 4.7 mph7.6 kmh 30.23 in1023.7 mb 0.00 in0.0 mm 0.00 in0.0 mm 0.00 in0.0 mm
03:10 PM 54.1°F12.3°C 52.7°F11.5°C 95% 1.7 mph W2.7 kmh W 4.7 mph7.6 kmh 30.23 in1023.7 mb 0.00 in0.0 mm 0.00 in0.0 mm 0.00 in0.0 mm
03:11 PM 54.3°F12.4°C 52.9°F11.6°C 95% 1.1 mph W1.8 kmh W 4.7 mph7.6 kmh 30.23 in1023.7 mb 0.00 in0.0 mm 0.00 in0.0 mm 0.00 in0.0 mm
03:12 PM 54.3°F12.4°C 52.9°F11.6°C 95% 3.2 mph WNW5.1 kmh WNW 4.7 mph7.6 kmh 30.23 in1023.7 mb 0.00 in0.0 mm 0.00 in0.0 mm 0.00 in0.0 mm
03:13 PM 54.3°F12.4°C 52.9°F11.6°C 95% 3.2 mph N5.1 kmh N 4.7 mph7.6 kmh 30.23 in1023.7 mb 0.00 in0.0 mm 0.00 in0.0 mm 0.00 in0.0 mm
03:14 PM 54.3°F12.4°C 52.9°F11.6°C 95% 2.7 mph NNW4.3 kmh NNW 4.7 mph7.6 kmh 30.22 in1023.4 mb 0.00 in0.0 mm 0.00 in0.0 mm 0.00 in0.0 mm
03:15 PM 54.3°F12.4°C 52.9°F11.6°C 95% 3.7 mph NNE6.0 kmh NNE 4.7 mph7.6 kmh 30.22 in1023.4 mb 0.00 in0.0 mm 0.00 in0.0 mm 0.00 in0.0 mm
03:16 PM 54.3°F12.4°C 52.9°F11.6°C 95% 3.7 mph NNW6.0 kmh NNW 4.7 mph7.6 kmh 30.22 in1023.4 mb 0.00 in0.0 mm 0.00 in0.0 mm 0.00 in0.0 mm
03:17 PM 54.3°F12.4°C 52.9°F11.6°C 95% 2.7 mph NNW4.3 kmh NNW 4.7 mph7.6 kmh 30.22 in1023.4 mb 0.00 in0.0 mm 0.00 in0.0 mm 0.00 in0.0 mm
03:18 PM 54.3°F12.4°C 52.9°F11.6°C 95% 2.7 mph NW4.3 kmh NW 4.7 mph7.6 kmh 30.22 in1023.4 mb 0.00 in0.0 mm 0.00 in0.0 mm 0.00 in0.0 mm
03:19 PM 54.3°F12.4°C 52.9°F11.6°C 95% 3.7 mph WNW6.0 kmh WNW 4.2 mph6.8 kmh 30.22 in1023.4 mb 0.00 in0.0 mm 0.00 in0.0 mm 0.00 in0.0 mm
03:20 PM 54.3°F12.4°C 52.9°F11.6°C 95% 4.2 mph WNW6.8 kmh WNW 4.7 mph7.6 kmh 30.22 in1023.4 mb 0.00 in0.0 mm 0.00 in0.0 mm 0.00 in0.0 mm
03:21 PM 54.3°F12.4°C 52.9°F11.6°C 95% 3.7 mph WNW6.0 kmh WNW 5.8 mph9.3 kmh 30.22 in1023.4 mb 0.00 in0.0 mm 0.00 in0.0 mm 0.00 in0.0 mm
03:22 PM 54.3°F12.4°C 52.9°F11.6°C 95% 3.7 mph WNW6.0 kmh WNW 5.8 mph9.3 kmh 30.22 in1023.4 mb 0.00 in0.0 mm 0.00 in0.0 mm 0.00 in0.0 mm
03:23 PM 54.3°F12.4°C 52.9°F11.6°C 95% 2.2 mph NW3.5 kmh NW 5.8 mph9.3 kmh 30.22 in1023.4 mb 0.00 in0.0 mm 0.00 in0.0 mm 0.00 in0.0 mm
03:24 PM 54.3°F12.4°C 52.9°F11.6°C 95% 3.2 mph N5.1 kmh N 5.8 mph9.3 kmh 30.22 in1023.4 mb 0.00 in0.0 mm 0.00 in0.0 mm 0.00 in0.0 mm
03:25 PM 54.3°F12.4°C 52.9°F11.6°C 95% 3.7 mph NNW6.0 kmh NNW 5.8 mph9.3 kmh 30.22 in1023.4 mb 0.00 in0.0 mm 0.00 in0.0 mm 0.00 in0.0 mm
03:26 PM 54.3°F12.4°C 52.9°F11.6°C 95% 4.7 mph NNW7.6 kmh NNW 5.8 mph9.3 kmh 30.23 in1023.7 mb 0.00 in0.0 mm 0.00 in0.0 mm 0.00 in0.0 mm
03:27 PM 54.3°F12.4°C 52.9°F11.6°C 95% 3.2 mph NNW5.1 kmh NNW 5.8 mph9.3 kmh 30.23 in1023.7 mb 0.00 in0.0 mm 0.00 in0.0 mm 0.00 in0.0 mm
03:28 PM 54.3°F12.4°C 52.9°F11.6°C 95% 3.7 mph NW6.0 kmh NW 5.8 mph9.3 kmh 30.23 in1023.7 mb 0.00 in0.0 mm 0.00 in0.0 mm 0.00 in0.0 mm
03:29 PM 54.3°F12.4°C 52.9°F11.6°C 95% 2.7 mph WNW4.3 kmh WNW 5.8 mph9.3 kmh 30.23 in1023.7 mb 0.00 in0.0 mm 0.00 in0.0 mm 0.00 in0.0 mm
03:30 PM 54.3°F12.4°C 52.9°F11.6°C 95% 3.2 mph WNW5.1 kmh WNW 5.8 mph9.3 kmh 30.23 in1023.7 mb 0.00 in0.0 mm 0.00 in0.0 mm 0.00 in0.0 mm
03:31 PM 54.3°F12.4°C 52.9°F11.6°C 95% 2.7 mph NNW4.3 kmh NNW 4.7 mph7.6 kmh 30.23 in1023.7 mb 0.00 in0.0 mm 0.00 in0.0 mm 0.00 in0.0 mm
03:32 PM 54.3°F12.4°C 52.9°F11.6°C 95% 3.2 mph WNW5.1 kmh WNW 4.7 mph7.6 kmh 30.23 in1023.7 mb 0.00 in0.0 mm 0.00 in0.0 mm 0.00 in0.0 mm
03:33 PM 54.3°F12.4°C 52.9°F11.6°C 95% 3.2 mph NW5.1 kmh NW 4.7 mph7.6 kmh 30.23 in1023.7 mb 0.00 in0.0 mm 0.00 in0.0 mm 0.00 in0.0 mm
03:34 PM 54.3°F12.4°C 52.9°F11.6°C 95% 1.7 mph W2.7 kmh W 4.7 mph7.6 kmh 30.23 in1023.7 mb 0.00 in0.0 mm 0.00 in0.0 mm 0.00 in0.0 mm
03:35 PM 54.3°F12.4°C 52.9°F11.6°C 95% 2.2 mph W3.5 kmh W 4.7 mph7.6 kmh 30.23 in1023.7 mb 0.00 in0.0 mm 0.00 in0.0 mm 0.00 in0.0 mm
03:36 PM 54.3°F12.4°C 52.9°F11.6°C 95% 1.7 mph W2.7 kmh W 4.7 mph7.6 kmh 30.23 in1023.7 mb 0.00 in0.0 mm 0.00 in0.0 mm 0.00 in0.0 mm
03:37 PM 54.3°F12.4°C 52.9°F11.6°C 95% 3.2 mph WNW5.1 kmh WNW 4.7 mph7.6 kmh 30.23 in1023.7 mb 0.00 in0.0 mm 0.00 in0.0 mm 0.00 in0.0 mm
03:38 PM 54.3°F12.4°C 52.9°F11.6°C 95% 1.1 mph NNW1.8 kmh NNW 4.7 mph7.6 kmh 30.22 in1023.4 mb 0.00 in0.0 mm 0.00 in0.0 mm 0.00 in0.0 mm
03:39 PM 54.3°F12.4°C 52.9°F11.6°C 95% 1.7 mph WNW2.7 kmh WNW 4.7 mph7.6 kmh 30.22 in1023.4 mb 0.00 in0.0 mm 0.00 in0.0 mm 0.00 in0.0 mm
03:40 PM 54.3°F12.4°C 52.9°F11.6°C 95% 2.7 mph NNE4.3 kmh NNE 4.7 mph7.6 kmh 30.22 in1023.4 mb 0.00 in0.0 mm 0.00 in0.0 mm 0.00 in0.0 mm
03:41 PM 54.5°F12.5°C 53.1°F11.7°C 95% 2.2 mph NNW3.5 kmh NNW 4.7 mph7.6 kmh 30.22 in1023.4 mb 0.00 in0.0 mm 0.00 in0.0 mm 0.00 in0.0 mm
03:42 PM 54.5°F12.5°C 53.1°F11.7°C 95% 3.2 mph NW5.1 kmh NW 4.2 mph6.8 kmh 30.22 in1023.4 mb 0.00 in0.0 mm 0.00 in0.0 mm 0.00 in0.0 mm
03:43 PM 54.5°F12.5°C 53.1°F11.7°C 95% 2.7 mph W4.3 kmh W 4.2 mph6.8 kmh 30.22 in1023.4 mb 0.00 in0.0 mm 0.00 in0.0 mm 0.00 in0.0 mm
03:44 PM 54.5°F12.5°C 53.1°F11.7°C 95% 2.7 mph N4.3 kmh N 4.2 mph6.8 kmh 30.22 in1023.4 mb 0.00 in0.0 mm 0.00 in0.0 mm 0.00 in0.0 mm
03:45 PM 54.5°F12.5°C 53.1°F11.7°C 95% 2.7 mph NW4.3 kmh NW 4.2 mph6.8 kmh 30.22 in1023.4 mb 0.00 in0.0 mm 0.00 in0.0 mm 0.00 in0.0 mm
03:46 PM 54.5°F12.5°C 53.1°F11.7°C 95% 2.7 mph WNW4.3 kmh WNW 4.2 mph6.8 kmh 30.22 in1023.4 mb 0.00 in0.0 mm 0.00 in0.0 mm 0.00 in0.0 mm
03:47 PM 54.5°F12.5°C 53.1°F11.7°C 95% 3.2 mph NNW5.1 kmh NNW 3.2 mph5.1 kmh 30.22 in1023.4 mb 0.00 in0.0 mm 0.00 in0.0 mm 0.00 in0.0 mm
03:48 PM 54.5°F12.5°C 53.1°F11.7°C 95% 2.7 mph NNW4.3 kmh NNW 4.2 mph6.8 kmh 30.22 in1023.4 mb 0.00 in0.0 mm 0.00 in0.0 mm 0.00 in0.0 mm
03:49 PM 54.5°F12.5°C 53.1°F11.7°C 95% 3.2 mph WNW5.1 kmh WNW 4.2 mph6.8 kmh 30.22 in1023.4 mb 0.00 in0.0 mm 0.00 in0.0 mm 0.00 in0.0 mm
03:50 PM 54.5°F12.5°C 53.1°F11.7°C 95% 2.7 mph WNW4.3 kmh WNW 4.2 mph6.8 kmh 30.22 in1023.4 mb 0.00 in0.0 mm 0.00 in0.0 mm 0.00 in0.0 mm
03:51 PM 54.5°F12.5°C 53.1°F11.7°C 95% 2.2 mph NW3.5 kmh NW 4.2 mph6.8 kmh 30.22 in1023.4 mb 0.00 in0.0 mm 0.00 in0.0 mm 0.00 in0.0 mm
03:52 PM 54.5°F12.5°C 53.1°F11.7°C 95% 4.2 mph NNE6.8 kmh NNE 4.2 mph6.8 kmh 30.22 in1023.4 mb 0.00 in0.0 mm 0.00 in0.0 mm 0.00 in0.0 mm
03:53 PM 54.5°F12.5°C 53.1°F11.7°C 95% 3.7 mph WNW6.0 kmh WNW 4.2 mph6.8 kmh 30.22 in1023.4 mb 0.00 in0.0 mm 0.00 in0.0 mm 0.00 in0.0 mm
03:54 PM 54.5°F12.5°C 53.1°F11.7°C 95% 3.2 mph NW5.1 kmh NW 4.2 mph6.8 kmh 30.22 in1023.4 mb 0.00 in0.0 mm 0.00 in0.0 mm 0.00 in0.0 mm
03:55 PM 54.5°F12.5°C 53.1°F11.7°C 95% 2.7 mph NNW4.3 kmh NNW 4.2 mph6.8 kmh 30.22 in1023.4 mb 0.00 in0.0 mm 0.00 in0.0 mm 0.00 in0.0 mm
03:56 PM 54.5°F12.5°C 53.1°F11.7°C 95% 4.2 mph N6.8 kmh N 4.2 mph6.8 kmh 30.22 in1023.4 mb 0.00 in0.0 mm 0.00 in0.0 mm 0.00 in0.0 mm
03:57 PM 54.5°F12.5°C 53.1°F11.7°C 95% 3.7 mph WNW6.0 kmh WNW 4.2 mph6.8 kmh 30.22 in1023.4 mb 0.00 in0.0 mm 0.00 in0.0 mm 0.00 in0.0 mm
03:58 PM 54.5°F12.5°C 53.1°F11.7°C 95% 4.2 mph NNW6.8 kmh NNW 4.2 mph6.8 kmh 30.22 in1023.4 mb 0.00 in0.0 mm 0.00 in0.0 mm 0.00 in0.0 mm
03:59 PM 54.5°F12.5°C 53.1°F11.7°C 95% 3.7 mph NNW6.0 kmh NNW 4.2 mph6.8 kmh 30.22 in1023.4 mb 0.00 in0.0 mm 0.00 in0.0 mm 0.00 in0.0 mm
04:00 PM 54.5°F12.5°C 53.1°F11.7°C 95% 2.7 mph NW4.3 kmh NW 4.2 mph6.8 kmh 30.22 in1023.4 mb 0.00 in0.0 mm 0.00 in0.0 mm 0.00 in0.0 mm
04:01 PM 54.5°F12.5°C 53.1°F11.7°C 95% 2.7 mph NNW4.3 kmh NNW 4.2 mph6.8 kmh 30.22 in1023.4 mb 0.00 in0.0 mm 0.00 in0.0 mm 0.00 in0.0 mm
04:02 PM 54.5°F12.5°C 53.1°F11.7°C 95% 4.7 mph WNW7.6 kmh WNW 4.7 mph7.6 kmh 30.23 in1023.7 mb 0.00 in0.0 mm 0.00 in0.0 mm 0.00 in0.0 mm
04:03 PM 54.5°F12.5°C 53.1°F11.7°C 95% 2.7 mph WNW4.3 kmh WNW 4.7 mph7.6 kmh 30.23 in1023.7 mb 0.00 in0.0 mm 0.00 in0.0 mm 0.00 in0.0 mm
04:04 PM 54.5°F12.5°C 53.1°F11.7°C 95% 4.7 mph NW7.6 kmh NW 4.7 mph7.6 kmh 30.23 in1023.7 mb 0.00 in0.0 mm 0.00 in0.0 mm 0.00 in0.0 mm
04:05 PM 54.5°F12.5°C 53.1°F11.7°C 95% 2.7 mph NNW4.3 kmh NNW 4.7 mph7.6 kmh 30.23 in1023.7 mb 0.00 in0.0 mm 0.00 in0.0 mm 0.00 in0.0 mm
04:06 PM 54.5°F12.5°C 53.1°F11.7°C 95% 2.7 mph WNW4.3 kmh WNW 4.7 mph7.6 kmh 30.23 in1023.7 mb 0.00 in0.0 mm 0.00 in0.0 mm 0.00 in0.0 mm
04:07 PM 54.5°F12.5°C 53.1°F11.7°C 95% 4.7 mph WNW7.6 kmh WNW 4.7 mph7.6 kmh 30.23 in1023.7 mb 0.00 in0.0 mm 0.00 in0.0 mm 0.00 in0.0 mm
04:08 PM 54.5°F12.5°C 53.1°F11.7°C 95% 3.7 mph WNW6.0 kmh WNW 4.7 mph7.6 kmh 30.23 in1023.7 mb 0.00 in0.0 mm 0.00 in0.0 mm 0.00 in0.0 mm
04:09 PM 54.5°F12.5°C 53.1°F11.7°C 95% 3.7 mph W6.0 kmh W 4.7 mph7.6 kmh 30.23 in1023.7 mb 0.00 in0.0 mm 0.00 in0.0 mm 0.00 in0.0 mm
04:10 PM 54.5°F12.5°C 53.1°F11.7°C 95% 4.2 mph NNW6.8 kmh NNW 4.7 mph7.6 kmh 30.23 in1023.7 mb 0.00 in0.0 mm 0.00 in0.0 mm 0.00 in0.0 mm
04:11 PM 54.5°F12.5°C 53.1°F11.7°C 95% 3.2 mph NW5.1 kmh NW 4.7 mph7.6 kmh 30.23 in1023.7 mb 0.00 in0.0 mm 0.00 in0.0 mm 0.00 in0.0 mm
04:12 PM 54.5°F12.5°C 53.1°F11.7°C 95% 3.7 mph WNW6.0 kmh WNW 4.7 mph7.6 kmh 30.23 in1023.7 mb 0.00 in0.0 mm 0.00 in0.0 mm 0.00 in0.0 mm
04:13 PM 54.5°F12.5°C 53.1°F11.7°C 95% 4.7 mph W7.6 kmh W 5.3 mph8.5 kmh 30.23 in1023.7 mb 0.00 in0.0 mm 0.00 in0.0 mm 0.00 in0.0 mm
04:14 PM 54.5°F12.5°C 53.1°F11.7°C 95% 3.2 mph W5.1 kmh W 5.3 mph8.5 kmh 30.23 in1023.7 mb 0.00 in0.0 mm 0.00 in0.0 mm 0.00 in0.0 mm
04:15 PM 54.5°F12.5°C 53.1°F11.7°C 95% 4.2 mph WNW6.8 kmh WNW 5.3 mph8.5 kmh 30.23 in1023.7 mb 0.00 in0.0 mm 0.00 in0.0 mm 0.00 in0.0 mm
04:16 PM 54.5°F12.5°C 53.1°F11.7°C 95% 2.7 mph NNW4.3 kmh NNW 5.3 mph8.5 kmh 30.23 in1023.7 mb 0.00 in0.0 mm 0.00 in0.0 mm 0.00 in0.0 mm
04:17 PM 54.5°F12.5°C 53.1°F11.7°C 95% 3.2 mph WNW5.1 kmh WNW 5.3 mph8.5 kmh 30.23 in1023.7 mb 0.00 in0.0 mm 0.00 in0.0 mm 0.00 in0.0 mm
04:18 PM 54.5°F12.5°C 53.1°F11.7°C 95% 3.7 mph WNW6.0 kmh WNW 5.3 mph8.5 kmh 30.23 in1023.7 mb 0.00 in0.0 mm 0.00 in0.0 mm 0.00 in0.0 mm
04:19 PM 54.5°F12.5°C 53.1°F11.7°C 95% 3.2 mph WNW5.1 kmh WNW 5.3 mph8.5 kmh 30.23 in1023.7 mb 0.00 in0.0 mm 0.00 in0.0 mm 0.00 in0.0 mm
04:20 PM 54.5°F12.5°C 53.1°F11.7°C 95% 3.2 mph WNW5.1 kmh WNW 5.3 mph8.5 kmh 30.23 in1023.7 mb 0.00 in0.0 mm 0.00 in0.0 mm 0.00 in0.0 mm
04:21 PM 54.5°F12.5°C 53.1°F11.7°C 95% 3.2 mph W5.1 kmh W 5.3 mph8.5 kmh 30.23 in1023.7 mb 0.00 in0.0 mm 0.00 in0.0 mm 0.00 in0.0 mm
04:22 PM 54.5°F12.5°C 53.1°F11.7°C 95% 2.7 mph NNE4.3 kmh NNE 5.3 mph8.5 kmh 30.23 in1023.7 mb 0.00 in0.0 mm 0.00 in0.0 mm 0.00 in0.0 mm
04:23 PM 54.5°F12.5°C 53.1°F11.7°C 95% 2.2 mph NNE3.5 kmh NNE 4.7 mph7.6 kmh 30.23 in1023.7 mb 0.00 in0.0 mm 0.00 in0.0 mm 0.00 in0.0 mm
04:24 PM 54.5°F12.5°C 53.1°F11.7°C 95% 1.1 mph W1.8 kmh W 4.7 mph7.6 kmh 30.23 in1023.7 mb 0.00 in0.0 mm 0.00 in0.0 mm 0.00 in0.0 mm
04:25 PM 54.5°F12.5°C 53.1°F11.7°C 95% 3.2 mph NNW5.1 kmh NNW 4.7 mph7.6 kmh 30.23 in1023.7 mb 0.00 in0.0 mm 0.00 in0.0 mm 0.00 in0.0 mm
04:26 PM 54.5°F12.5°C 53.1°F11.7°C 95% 1.7 mph NW2.7 kmh NW 4.7 mph7.6 kmh 30.22 in1023.4 mb 0.00 in0.0 mm 0.00 in0.0 mm 0.00 in0.0 mm
04:27 PM 54.5°F12.5°C 53.1°F11.7°C 95% 1.7 mph NNW2.7 kmh NNW 4.7 mph7.6 kmh 30.22 in1023.4 mb 0.00 in0.0 mm 0.00 in0.0 mm 0.00 in0.0 mm
04:28 PM 54.5°F12.5°C 53.1°F11.7°C 95% 2.7 mph NNW4.3 kmh NNW 4.7 mph7.6 kmh 30.22 in1023.4 mb 0.00 in0.0 mm 0.00 in0.0 mm 0.00 in0.0 mm
04:29 PM 54.5°F12.5°C 53.1°F11.7°C 95% 3.7 mph NNE6.0 kmh NNE 4.7 mph7.6 kmh 30.22 in1023.4 mb 0.00 in0.0 mm 0.00 in0.0 mm 0.00 in0.0 mm
04:30 PM 54.3°F12.4°C 52.9°F11.6°C 95% 2.7 mph NNE4.3 kmh NNE 3.7 mph6.0 kmh 30.22 in1023.4 mb 0.00 in0.0 mm 0.00 in0.0 mm 0.00 in0.0 mm
04:31 PM 54.3°F12.4°C 52.9°F11.6°C 95% 3.2 mph NNE5.1 kmh NNE 3.7 mph6.0 kmh 30.22 in1023.4 mb 0.00 in0.0 mm 0.00 in0.0 mm 0.00 in0.0 mm
04:32 PM 54.3°F12.4°C 52.9°F11.6°C 95% 2.2 mph NNW3.5 kmh NNW 3.7 mph6.0 kmh 30.22 in1023.4 mb 0.00 in0.0 mm 0.00 in0.0 mm 0.00 in0.0 mm
04:33 PM 54.3°F12.4°C 52.9°F11.6°C 95% 3.2 mph N5.1 kmh N 3.7 mph6.0 kmh 30.22 in1023.4 mb 0.00 in0.0 mm 0.00 in0.0 mm 0.00 in0.0 mm
04:34 PM 54.3°F12.4°C 52.9°F11.6°C 95% 4.2 mph N6.8 kmh N 4.2 mph6.8 kmh 30.22 in1023.4 mb 0.00 in0.0 mm 0.00 in0.0 mm 0.00 in0.0 mm
04:35 PM 54.3°F12.4°C 52.9°F11.6°C 95% 3.2 mph NNW5.1 kmh NNW 4.2 mph6.8 kmh 30.22 in1023.4 mb 0.00 in0.0 mm 0.00 in0.0 mm 0.00 in0.0 mm
04:36 PM 54.3°F12.4°C 52.9°F11.6°C 95% 3.2 mph N5.1 kmh N 4.2 mph6.8 kmh 30.22 in1023.4 mb 0.00 in0.0 mm 0.00 in0.0 mm 0.00 in0.0 mm
04:37 PM 54.3°F12.4°C 52.9°F11.6°C 95% 2.2 mph NNE3.5 kmh NNE 4.2 mph6.8 kmh 30.22 in1023.4 mb 0.00 in0.0 mm 0.00 in0.0 mm 0.00 in0.0 mm
04:38 PM 54.3°F12.4°C 52.9°F11.6°C 95% 4.2 mph N6.8 kmh N 4.2 mph6.8 kmh 30.22 in1023.4 mb 0.00 in0.0 mm 0.00 in0.0 mm 0.00 in0.0 mm
04:39 PM 54.3°F12.4°C 52.9°F11.6°C 95% 3.2 mph N5.1 kmh N 4.2 mph6.8 kmh 30.22 in1023.4 mb 0.00 in0.0 mm 0.00 in0.0 mm 0.00 in0.0 mm
04:40 PM 54.3°F12.4°C 52.9°F11.6°C 95% 2.2 mph NNW3.5 kmh NNW 4.2 mph6.8 kmh 30.22 in1023.4 mb 0.00 in0.0 mm 0.00 in0.0 mm 0.00 in0.0 mm
04:41 PM 54.3°F12.4°C 52.9°F11.6°C 95% 2.7 mph NNW4.3 kmh NNW 4.2 mph6.8 kmh 30.22 in1023.4 mb 0.00 in0.0 mm 0.00 in0.0 mm 0.00 in0.0 mm
04:42 PM 54.3°F12.4°C 52.9°F11.6°C 95% Calm Calm 4.2 mph6.8 kmh 30.22 in1023.4 mb 0.00 in0.0 mm 0.00 in0.0 mm 0.00 in0.0 mm
04:43 PM 54.3°F12.4°C 52.9°F11.6°C 95% 2.2 mph NNE3.5 kmh NNE 4.2 mph6.8 kmh 30.22 in1023.4 mb 0.00 in0.0 mm 0.00 in0.0 mm 0.00 in0.0 mm
04:44 PM 54.3°F12.4°C 52.9°F11.6°C 95% 1.7 mph NNW2.7 kmh NNW 4.2 mph6.8 kmh 30.22 in1023.4 mb 0.00 in0.0 mm 0.00 in0.0 mm 0.00 in0.0 mm
04:45 PM 54.3°F12.4°C 52.9°F11.6°C 95% 2.2 mph N3.5 kmh N 4.2 mph6.8 kmh 30.22 in1023.4 mb 0.00 in0.0 mm 0.00 in0.0 mm 0.00 in0.0 mm
04:46 PM 54.3°F12.4°C 52.9°F11.6°C 95% Calm Calm 4.2 mph6.8 kmh 30.22 in1023.4 mb 0.00 in0.0 mm 0.00 in0.0 mm 0.00 in0.0 mm
04:47 PM 54.3°F12.4°C 52.9°F11.6°C 95% Calm Calm 4.2 mph6.8 kmh 30.22 in1023.4 mb 0.00 in0.0 mm 0.00 in0.0 mm 0.00 in0.0 mm
04:48 PM 54.3°F12.4°C 52.9°F11.6°C 95% 3.2 mph N5.1 kmh N 3.7 mph6.0 kmh 30.22 in1023.4 mb 0.00 in0.0 mm 0.00 in0.0 mm 0.00 in0.0 mm
04:49 PM 54.3°F12.4°C 52.9°F11.6°C 95% 1.1 mph NNE1.8 kmh NNE 3.2 mph5.1 kmh 30.22 in1023.4 mb 0.00 in0.0 mm 0.00 in0.0 mm 0.00 in0.0 mm
04:50 PM 54.3°F12.4°C 52.9°F11.6°C 95% 2.7 mph NNE4.3 kmh NNE 3.2 mph5.1 kmh 30.21 in1023.0 mb 0.00 in0.0 mm 0.00 in0.0 mm 0.00 in0.0 mm
04:51 PM 54.3°F12.4°C 52.9°F11.6°C 95% 2.7 mph NNE4.3 kmh NNE 4.2 mph6.8 kmh 30.21 in1023.0 mb 0.00 in0.0 mm 0.00 in0.0 mm 0.00 in0.0 mm
04:52 PM 54.3°F12.4°C 52.9°F11.6°C 95% 2.2 mph NNW3.5 kmh NNW 4.2 mph6.8 kmh 30.21 in1023.0 mb 0.00 in0.0 mm 0.00 in0.0 mm 0.00 in0.0 mm
04:53 PM 54.3°F12.4°C 52.9°F11.6°C 95% 2.7 mph NNE4.3 kmh NNE 4.2 mph6.8 kmh 30.21 in1023.0 mb 0.00 in0.0 mm 0.00 in0.0 mm 0.00 in0.0 mm
04:54 PM 54.1°F12.3°C 52.7°F11.5°C 95% 1.7 mph NNW2.7 kmh NNW 4.2 mph6.8 kmh 30.21 in1023.0 mb 0.00 in0.0 mm 0.00 in0.0 mm 0.00 in0.0 mm
04:55 PM 54.1°F12.3°C 52.7°F11.5°C 95% 1.7 mph WNW2.7 kmh WNW 4.2 mph6.8 kmh 30.21 in1023.0 mb 0.00 in0.0 mm 0.00 in0.0 mm 0.00 in0.0 mm
04:56 PM 54.1°F12.3°C 52.7°F11.5°C 95% 2.2 mph W3.5 kmh W 4.2 mph6.8 kmh 30.21 in1023.0 mb 0.00 in0.0 mm 0.00 in0.0 mm 0.00 in0.0 mm
04:57 PM 54.1°F12.3°C 52.7°F11.5°C 95% 2.2 mph WNW3.5 kmh WNW 4.2 mph6.8 kmh 30.21 in1023.0 mb 0.00 in0.0 mm 0.00 in0.0 mm 0.00 in0.0 mm
04:58 PM 54.1°F12.3°C 52.7°F11.5°C 95% 1.1 mph W1.8 kmh W 4.2 mph6.8 kmh 30.21 in1023.0 mb 0.00 in0.0 mm 0.00 in0.0 mm 0.00 in0.0 mm
04:59 PM 54.1°F12.3°C 52.7°F11.5°C 95% 1.1 mph WNW1.8 kmh WNW 4.2 mph6.8 kmh 30.21 in1023.0 mb 0.00 in0.0 mm 0.00 in0.0 mm 0.00 in0.0 mm
05:00 PM 54.1°F12.3°C 52.7°F11.5°C 95% Calm Calm 4.2 mph6.8 kmh 30.21 in1023.0 mb 0.00 in0.0 mm 0.00 in0.0 mm 0.00 in0.0 mm
05:01 PM 54.1°F12.3°C 52.7°F11.5°C 95% Calm Calm 3.2 mph5.1 kmh 30.21 in1023.0 mb 0.00 in0.0 mm 0.00 in0.0 mm 0.00 in0.0 mm
05:02 PM 54.1°F12.3°C 52.7°F11.5°C 95% Calm Calm 3.2 mph5.1 kmh 30.21 in1023.0 mb 0.00 in0.0 mm 0.00 in0.0 mm 0.00 in0.0 mm
05:03 PM 54.1°F12.3°C 52.7°F11.5°C 95% 1.7 mph W2.7 kmh W 3.2 mph5.1 kmh 30.21 in1023.0 mb 0.00 in0.0 mm 0.00 in0.0 mm 0.00 in0.0 mm
05:04 PM 54.1°F12.3°C 52.7°F11.5°C 95% 2.2 mph WNW3.5 kmh WNW 2.7 mph4.3 kmh 30.21 in1023.0 mb 0.00 in0.0 mm 0.00 in0.0 mm 0.00 in0.0 mm
05:05 PM 54.1°F12.3°C 52.7°F11.5°C 95% 1.7 mph NNW2.7 kmh NNW 2.7 mph4.3 kmh 30.21 in1023.0 mb 0.00 in0.0 mm 0.00 in0.0 mm 0.00 in0.0 mm
05:06 PM 54.1°F12.3°C 52.7°F11.5°C 95% 1.7 mph NW2.7 kmh NW 2.2 mph3.5 kmh 30.21 in1023.0 mb 0.00 in0.0 mm 0.00 in0.0 mm 0.00 in0.0 mm
05:07 PM 54.1°F12.3°C 52.7°F11.5°C 95% 1.7 mph NNW2.7 kmh NNW 2.2 mph3.5 kmh 30.21 in1023.0 mb 0.00 in0.0 mm 0.00 in0.0 mm 0.00 in0.0 mm
05:08 PM 54.1°F12.3°C 52.7°F11.5°C 95% 1.7 mph NNW2.7 kmh NNW 2.2 mph3.5 kmh 30.21 in1023.0 mb 0.00 in0.0 mm 0.00 in0.0 mm 0.00 in0.0 mm
05:09 PM 54.1°F12.3°C 52.7°F11.5°C 95% 1.7 mph NW2.7 kmh NW 2.2 mph3.5 kmh 30.21 in1023.0 mb 0.00 in0.0 mm 0.00 in0.0 mm 0.00 in0.0 mm
05:10 PM 54.1°F12.3°C 52.7°F11.5°C 95% 1.7 mph NNE2.7 kmh NNE 2.2 mph3.5 kmh 30.21 in1023.0 mb 0.00 in0.0 mm 0.00 in0.0 mm 0.00 in0.0 mm
05:11 PM 54.1°F12.3°C 52.7°F11.5°C 95% 2.2 mph NW3.5 kmh NW 2.2 mph3.5 kmh 30.21 in1023.0 mb 0.00 in0.0 mm 0.00 in0.0 mm 0.00 in0.0 mm
05:12 PM 54.1°F12.3°C 52.7°F11.5°C 95% 3.2 mph WNW5.1 kmh WNW 3.7 mph6.0 kmh 30.21 in1023.0 mb 0.00 in0.0 mm 0.00 in0.0 mm 0.00 in0.0 mm
05:13 PM 54.1°F12.3°C 52.7°F11.5°C 95% Calm Calm 3.7 mph6.0 kmh 30.21 in1023.0 mb 0.00 in0.0 mm 0.00 in0.0 mm 0.00 in0.0 mm
05:14 PM 54.1°F12.3°C 52.7°F11.5°C 95% Calm Calm 3.7 mph6.0 kmh 30.22 in1023.4 mb 0.00 in0.0 mm 0.00 in0.0 mm 0.00 in0.0 mm
05:15 PM 54.1°F12.3°C 52.7°F11.5°C 95% Calm Calm 3.7 mph6.0 kmh 30.22 in1023.4 mb 0.00 in0.0 mm 0.00 in0.0 mm 0.00 in0.0 mm
05:16 PM 54.1°F12.3°C 52.7°F11.5°C 95% Calm Calm 3.7 mph6.0 kmh 30.22 in1023.4 mb 0.00 in0.0 mm 0.00 in0.0 mm 0.00 in0.0 mm
05:17 PM 54.1°F12.3°C 52.7°F11.5°C 95% Calm Calm 3.7 mph6.0 kmh 30.22 in1023.4 mb 0.00 in0.0 mm 0.00 in0.0 mm 0.00 in0.0 mm
05:18 PM 54.1°F12.3°C 52.7°F11.5°C 95% Calm Calm 3.7 mph6.0 kmh 30.22 in1023.4 mb 0.00 in0.0 mm 0.00 in0.0 mm 0.00 in0.0 mm
05:19 PM 54.1°F12.3°C 52.7°F11.5°C 95% Calm Calm 3.7 mph6.0 kmh 30.22 in1023.4 mb 0.00 in0.0 mm 0.00 in0.0 mm 0.00 in0.0 mm
05:20 PM 54.1°F12.3°C 52.7°F11.5°C 95% 2.7 mph NNW4.3 kmh NNW 3.7 mph6.0 kmh 30.22 in1023.4 mb 0.00 in0.0 mm 0.00 in0.0 mm 0.00 in0.0 mm
05:21 PM 54.1°F12.3°C 52.7°F11.5°C 95% 1.7 mph W2.7 kmh W 3.7 mph6.0 kmh 30.22 in1023.4 mb 0.00 in0.0 mm 0.00 in0.0 mm 0.00 in0.0 mm
05:22 PM 54.1°F12.3°C 52.7°F11.5°C 95% Calm Calm 3.2 mph5.1 kmh 30.22 in1023.4 mb 0.00 in0.0 mm 0.00 in0.0 mm 0.00 in0.0 mm
05:23 PM 54.1°F12.3°C 52.7°F11.5°C 95% 2.7 mph W4.3 kmh W 3.2 mph5.1 kmh 30.22 in1023.4 mb 0.00 in0.0 mm 0.00 in0.0 mm 0.00 in0.0 mm
05:24 PM 54.1°F12.3°C 52.7°F11.5°C 95% 2.2 mph WSW3.5 kmh WSW 3.2 mph5.1 kmh 30.22 in1023.4 mb 0.00 in0.0 mm 0.00 in0.0 mm 0.00 in0.0 mm
05:25 PM 54.1°F12.3°C 52.7°F11.5°C 95% 1.7 mph W2.7 kmh W 3.2 mph5.1 kmh 30.22 in1023.4 mb 0.00 in0.0 mm 0.00 in0.0 mm 0.00 in0.0 mm
05:26 PM 54.1°F12.3°C 52.7°F11.5°C 95% 1.7 mph SW2.7 kmh SW 3.2 mph5.1 kmh 30.22 in1023.4 mb 0.00 in0.0 mm 0.00 in0.0 mm 0.00 in0.0 mm
05:27 PM 54.1°F12.3°C 52.7°F11.5°C 95% Calm Calm 3.2 mph5.1 kmh 30.22 in1023.4 mb 0.00 in0.0 mm 0.00 in0.0 mm 0.00 in0.0 mm
05:28 PM 54.1°F12.3°C 52.7°F11.5°C 95% Calm Calm 3.2 mph5.1 kmh 30.22 in1023.4 mb 0.00 in0.0 mm 0.00 in0.0 mm 0.00 in0.0 mm
05:29 PM 54.1°F12.3°C 52.7°F11.5°C 95% Calm Calm 3.2 mph5.1 kmh 30.22 in1023.4 mb 0.00 in0.0 mm 0.00 in0.0 mm 0.00 in0.0 mm
05:30 PM 54.1°F12.3°C 52.7°F11.5°C 95% 2.2 mph WNW3.5 kmh WNW 2.7 mph4.3 kmh 30.22 in1023.4 mb 0.00 in0.0 mm 0.00 in0.0 mm 0.00 in0.0 mm
05:31 PM 54.1°F12.3°C 52.7°F11.5°C 95% 2.2 mph W3.5 kmh W 2.7 mph4.3 kmh 30.22 in1023.4 mb 0.00 in0.0 mm 0.00 in0.0 mm 0.00 in0.0 mm
05:32 PM 54.1°F12.3°C 52.7°F11.5°C 95% 2.7 mph W4.3 kmh W 2.7 mph4.3 kmh 30.22 in1023.4 mb 0.00 in0.0 mm 0.00 in0.0 mm 0.00 in0.0 mm
05:33 PM 54.1°F12.3°C 52.7°F11.5°C 95% 2.2 mph WNW3.5 kmh WNW 2.7 mph4.3 kmh 30.22 in1023.4 mb 0.00 in0.0 mm 0.00 in0.0 mm 0.00 in0.0 mm
05:34 PM 54.1°F12.3°C 52.7°F11.5°C 95% 1.7 mph W2.7 kmh W 2.7 mph4.3 kmh 30.22 in1023.4 mb 0.00 in0.0 mm 0.00 in0.0 mm 0.00 in0.0 mm
05:35 PM 54.1°F12.3°C 52.7°F11.5°C 95% 2.2 mph WNW3.5 kmh WNW 2.7 mph4.3 kmh 30.22 in1023.4 mb 0.00 in0.0 mm 0.00 in0.0 mm 0.00 in0.0 mm
05:36 PM 54.1°F12.3°C 52.7°F11.5°C 95% Calm Calm 2.7 mph4.3 kmh 30.22 in1023.4 mb 0.00 in0.0 mm 0.00 in0.0 mm 0.00 in0.0 mm
05:37 PM 54.1°F12.3°C 52.7°F11.5°C 95% Calm Calm 2.7 mph4.3 kmh 30.22 in1023.4 mb 0.00 in0.0 mm 0.00 in0.0 mm 0.00 in0.0 mm
05:38 PM 54.1°F12.3°C 52.7°F11.5°C 95% Calm Calm 2.7 mph4.3 kmh 30.22 in1023.4 mb 0.00 in0.0 mm 0.00 in0.0 mm 0.00 in0.0 mm
05:39 PM 54.1°F12.3°C 52.7°F11.5°C 95% Calm Calm 2.7 mph4.3 kmh 30.22 in1023.4 mb 0.00 in0.0 mm 0.00 in0.0 mm 0.00 in0.0 mm
05:40 PM 54.1°F12.3°C 52.7°F11.5°C 95% Calm Calm 2.7 mph4.3 kmh 30.22 in1023.4 mb 0.00 in0.0 mm 0.00 in0.0 mm 0.00 in0.0 mm
05:41 PM 54.1°F12.3°C 52.7°F11.5°C 95% Calm Calm 2.7 mph4.3 kmh 30.22 in1023.4 mb 0.00 in0.0 mm 0.00 in0.0 mm 0.00 in0.0 mm
05:42 PM 54.1°F12.3°C 52.7°F11.5°C 95% Calm Calm 2.7 mph4.3 kmh 30.22 in1023.4 mb 0.00 in0.0 mm 0.00 in0.0 mm 0.00 in0.0 mm
05:43 PM 54.1°F12.3°C 52.7°F11.5°C 95% Calm Calm 2.2 mph3.5 kmh 30.22 in1023.4 mb 0.00 in0.0 mm 0.00 in0.0 mm 0.00 in0.0 mm
05:44 PM 54.1°F12.3°C 52.7°F11.5°C 95% Calm Calm 2.2 mph3.5 kmh 30.22 in1023.4 mb 0.00 in0.0 mm 0.00 in0.0 mm 0.00 in0.0 mm
05:45 PM 54.1°F12.3°C 52.7°F11.5°C 95% Calm Calm 2.2 mph3.5 kmh 30.22 in1023.4 mb 0.00 in0.0 mm 0.00 in0.0 mm 0.00 in0.0 mm
05:46 PM 54.1°F12.3°C 52.7°F11.5°C 95% Calm Calm -- 30.22 in1023.4 mb 0.00 in0.0 mm 0.00 in0.0 mm 0.00 in0.0 mm
05:47 PM 54.1°F12.3°C 52.7°F11.5°C 95% Calm Calm -- 30.22 in1023.4 mb 0.00 in0.0 mm 0.00 in0.0 mm 0.00 in0.0 mm
05:48 PM 54.1°F12.3°C 52.7°F11.5°C 95% Calm Calm -- 30.22 in1023.4 mb 0.00 in0.0 mm 0.00 in0.0 mm 0.00 in0.0 mm
05:49 PM 54.1°F12.3°C 52.7°F11.5°C 95% Calm Calm -- 30.22 in1023.4 mb 0.00 in0.0 mm 0.00 in0.0 mm 0.00 in0.0 mm
05:50 PM 54.1°F12.3°C 52.7°F11.5°C 95% Calm Calm -- 30.22 in1023.4 mb 0.00 in0.0 mm 0.00 in0.0 mm 0.00 in0.0 mm
05:51 PM 54.1°F12.3°C 52.7°F11.5°C 95% Calm Calm -- 30.22 in1023.4 mb 0.00 in0.0 mm 0.00 in0.0 mm 0.00 in0.0 mm
05:52 PM 54.1°F12.3°C 52.7°F11.5°C 95% Calm Calm -- 30.22 in1023.4 mb 0.00 in0.0 mm 0.00 in0.0 mm 0.00 in0.0 mm
05:53 PM 54.1°F12.3°C 52.7°F11.5°C 95% Calm Calm -- 30.22 in1023.4 mb 0.00 in0.0 mm 0.00 in0.0 mm 0.00 in0.0 mm
05:54 PM 54.1°F12.3°C 52.7°F11.5°C 95% Calm Calm -- 30.22 in1023.4 mb 0.00 in0.0 mm 0.00 in0.0 mm 0.00 in0.0 mm
05:55 PM 54.1°F12.3°C 52.7°F11.5°C 95% Calm Calm -- 30.22 in1023.4 mb 0.00 in0.0 mm 0.00 in0.0 mm 0.00 in0.0 mm
05:56 PM 54.1°F12.3°C 52.7°F11.5°C 95% 2.2 mph WNW3.5 kmh WNW 2.2 mph3.5 kmh 30.22 in1023.4 mb 0.00 in0.0 mm 0.00 in0.0 mm 0.00 in0.0 mm
05:57 PM 54.1°F12.3°C 52.7°F11.5°C 95% Calm Calm 2.2 mph3.5 kmh 30.22 in1023.4 mb 0.00 in0.0 mm 0.00 in0.0 mm 0.00 in0.0 mm
05:58 PM 54.1°F12.3°C 52.7°F11.5°C 95% 1.7 mph WNW2.7 kmh WNW 2.2 mph3.5 kmh 30.22 in1023.4 mb 0.00 in0.0 mm 0.00 in0.0 mm 0.00 in0.0 mm
05:59 PM 54.1°F12.3°C 52.7°F11.5°C 95% 2.2 mph NW3.5 kmh NW 2.2 mph3.5 kmh 30.22 in1023.4 mb 0.00 in0.0 mm 0.00 in0.0 mm 0.00 in0.0 mm
06:00 PM 54.1°F12.3°C 52.7°F11.5°C 95% 1.7 mph NNW2.7 kmh NNW 2.2 mph3.5 kmh 30.22 in1023.4 mb 0.00 in0.0 mm 0.00 in0.0 mm 0.00 in0.0 mm
06:01 PM 54.1°F12.3°C 52.7°F11.5°C 95% 2.2 mph N3.5 kmh N 2.2 mph3.5 kmh 30.22 in1023.4 mb 0.00 in0.0 mm 0.00 in0.0 mm 0.00 in0.0 mm
06:02 PM 54.1°F12.3°C 52.7°F11.5°C 95% 3.2 mph NNE5.1 kmh NNE 3.2 mph5.1 kmh 30.22 in1023.4 mb 0.00 in0.0 mm 0.00 in0.0 mm 0.00 in0.0 mm
06:03 PM 54.1°F12.3°C 52.7°F11.5°C 95% 2.7 mph NW4.3 kmh NW 3.2 mph5.1 kmh 30.23 in1023.7 mb 0.00 in0.0 mm 0.00 in0.0 mm 0.00 in0.0 mm
06:04 PM 54.1°F12.3°C 52.7°F11.5°C 95% 1.7 mph NNW2.7 kmh NNW 3.2 mph5.1 kmh 30.23 in1023.7 mb 0.00 in0.0 mm 0.00 in0.0 mm 0.00 in0.0 mm
06:05 PM 54.1°F12.3°C 52.7°F11.5°C 95% Calm Calm 3.2 mph5.1 kmh 30.23 in1023.7 mb 0.00 in0.0 mm 0.00 in0.0 mm 0.00 in0.0 mm
06:06 PM 54.1°F12.3°C 52.7°F11.5°C 95% 1.1 mph W1.8 kmh W 3.2 mph5.1 kmh 30.23 in1023.7 mb 0.00 in0.0 mm 0.00 in0.0 mm 0.00 in0.0 mm
06:07 PM 54.1°F12.3°C 52.7°F11.5°C 95% 2.2 mph NW3.5 kmh NW 3.2 mph5.1 kmh 30.23 in1023.7 mb 0.00 in0.0 mm 0.00 in0.0 mm 0.00 in0.0 mm
06:08 PM 54.1°F12.3°C 52.7°F11.5°C 95% 1.7 mph WNW2.7 kmh WNW 3.2 mph5.1 kmh 30.23 in1023.7 mb 0.00 in0.0 mm 0.00 in0.0 mm 0.00 in0.0 mm
06:09 PM 54.1°F12.3°C 52.7°F11.5°C 95% 1.7 mph NNW2.7 kmh NNW 3.2 mph5.1 kmh 30.23 in1023.7 mb 0.00 in0.0 mm 0.00 in0.0 mm 0.00 in0.0 mm
06:10 PM 54.1°F12.3°C 52.7°F11.5°C 95% 2.2 mph NNW3.5 kmh NNW 3.2 mph5.1 kmh 30.23 in1023.7 mb 0.00 in0.0 mm 0.00 in0.0 mm 0.00 in0.0 mm
06:11 PM 54.1°F12.3°C 52.7°F11.5°C 95% 1.1 mph NNW1.8 kmh NNW 3.2 mph5.1 kmh 30.23 in1023.7 mb 0.00 in0.0 mm 0.00 in0.0 mm 0.00 in0.0 mm
06:12 PM 54.1°F12.3°C 52.7°F11.5°C 95% 1.7 mph NNE2.7 kmh NNE 2.7 mph4.3 kmh 30.23 in1023.7 mb 0.00 in0.0 mm 0.00 in0.0 mm 0.00 in0.0 mm
06:13 PM 54.1°F12.3°C 52.7°F11.5°C 95% 2.2 mph NNW3.5 kmh NNW 2.7 mph4.3 kmh 30.23 in1023.7 mb 0.00 in0.0 mm 0.00 in0.0 mm 0.00 in0.0 mm
06:14 PM 54.1°F12.3°C 52.7°F11.5°C 95% 1.1 mph NNW1.8 kmh NNW 2.7 mph4.3 kmh 30.22 in1023.4 mb 0.00 in0.0 mm 0.00 in0.0 mm 0.00 in0.0 mm
06:15 PM 54.1°F12.3°C 52.7°F11.5°C 95% 1.7 mph NNW2.7 kmh NNW 2.7 mph4.3 kmh 30.22 in1023.4 mb 0.00 in0.0 mm 0.00 in0.0 mm 0.00 in0.0 mm
06:16 PM 54.1°F12.3°C 52.7°F11.5°C 95% 1.1 mph N1.8 kmh N 2.7 mph4.3 kmh 30.22 in1023.4 mb 0.00 in0.0 mm 0.00 in0.0 mm 0.00 in0.0 mm
06:17 PM 54.1°F12.3°C 52.7°F11.5°C 95% 1.7 mph NNW2.7 kmh NNW 2.2 mph3.5 kmh 30.22 in1023.4 mb 0.00 in0.0 mm 0.00 in0.0 mm 0.00 in0.0 mm
06:18 PM 54.1°F12.3°C 52.7°F11.5°C 95% 1.1 mph ENE1.8 kmh ENE 2.2 mph3.5 kmh 30.22 in1023.4 mb 0.00 in0.0 mm 0.00 in0.0 mm 0.00 in0.0 mm
06:19 PM 54.1°F12.3°C 52.7°F11.5°C 95% Calm Calm 2.2 mph3.5 kmh 30.22 in1023.4 mb 0.00 in0.0 mm 0.00 in0.0 mm 0.00 in0.0 mm
06:20 PM 54.1°F12.3°C 52.7°F11.5°C 95% 2.2 mph NNE3.5 kmh NNE 2.2 mph3.5 kmh 30.22 in1023.4 mb 0.00 in0.0 mm 0.00 in0.0 mm 0.00 in0.0 mm
06:21 PM 54.1°F12.3°C 52.7°F11.5°C 95% 2.2 mph NNW3.5 kmh NNW 2.7 mph4.3 kmh 30.22 in1023.4 mb 0.00 in0.0 mm 0.00 in0.0 mm 0.00 in0.0 mm
06:22 PM 54.1°F12.3°C 52.7°F11.5°C 95% 2.7 mph N4.3 kmh N 3.2 mph5.1 kmh 30.22 in1023.4 mb 0.00 in0.0 mm 0.00 in0.0 mm 0.00 in0.0 mm
06:23 PM 54.1°F12.3°C 52.7°F11.5°C 95% 2.2 mph N3.5 kmh N 3.2 mph5.1 kmh 30.22 in1023.4 mb 0.00 in0.0 mm 0.00 in0.0 mm 0.00 in0.0 mm
06:24 PM 54.1°F12.3°C 52.7°F11.5°C 95% 1.7 mph NNW2.7 kmh NNW 3.2 mph5.1 kmh 30.22 in1023.4 mb 0.00 in0.0 mm 0.00 in0.0 mm 0.00 in0.0 mm
06:25 PM 54.1°F12.3°C 52.7°F11.5°C 95% 2.2 mph NNW3.5 kmh NNW 3.2 mph5.1 kmh 30.22 in1023.4 mb 0.00 in0.0 mm 0.00 in0.0 mm 0.00 in0.0 mm
06:26 PM 54.1°F12.3°C 52.7°F11.5°C 95% 1.7 mph NW2.7 kmh NW 3.2 mph5.1 kmh 30.23 in1023.7 mb 0.00 in0.0 mm 0.00 in0.0 mm 0.00 in0.0 mm
06:27 PM 54.1°F12.3°C 52.7°F11.5°C 95% 2.2 mph NNW3.5 kmh NNW 3.2 mph5.1 kmh 30.23 in1023.7 mb 0.00 in0.0 mm 0.00 in0.0 mm 0.00 in0.0 mm
06:28 PM 54.1°F12.3°C 52.7°F11.5°C 95% 2.2 mph NW3.5 kmh NW 3.2 mph5.1 kmh 30.23 in1023.7 mb 0.00 in0.0 mm 0.00 in0.0 mm 0.00 in0.0 mm
06:29 PM 54.1°F12.3°C 52.7°F11.5°C 95% 1.7 mph NNW2.7 kmh NNW 3.2 mph5.1 kmh 30.23 in1023.7 mb 0.00 in0.0 mm 0.00 in0.0 mm 0.00 in0.0 mm
06:30 PM 54.1°F12.3°C 52.7°F11.5°C 95% 1.7 mph NNW2.7 kmh NNW 3.2 mph5.1 kmh 30.23 in1023.7 mb 0.00 in0.0 mm 0.00 in0.0 mm 0.00 in0.0 mm
06:31 PM 54.1°F12.3°C 52.7°F11.5°C 95% 3.2 mph NNW5.1 kmh NNW 3.2 mph5.1 kmh 30.23 in1023.7 mb 0.00 in0.0 mm 0.00 in0.0 mm 0.00 in0.0 mm
06:32 PM 54.1°F12.3°C 52.7°F11.5°C 95% 1.1 mph W1.8 kmh W 3.2 mph5.1 kmh 30.23 in1023.7 mb 0.00 in0.0 mm 0.00 in0.0 mm 0.00 in0.0 mm
06:33 PM 54.1°F12.3°C 52.7°F11.5°C 95% 1.1 mph NW1.8 kmh NW 3.2 mph5.1 kmh 30.23 in1023.7 mb 0.00 in0.0 mm 0.00 in0.0 mm 0.00 in0.0 mm
06:34 PM 54.1°F12.3°C 52.7°F11.5°C 95% 1.7 mph NNW2.7 kmh NNW 3.2 mph5.1 kmh 30.23 in1023.7 mb 0.00 in0.0 mm 0.00 in0.0 mm 0.00 in0.0 mm
06:35 PM 54.1°F12.3°C 52.7°F11.5°C 95% 1.7 mph NW2.7 kmh NW 3.2 mph5.1 kmh 30.23 in1023.7 mb 0.00 in0.0 mm 0.00 in0.0 mm 0.00 in0.0 mm
06:36 PM 54.1°F12.3°C 52.7°F11.5°C 95% 3.7 mph NNE6.0 kmh NNE 3.7 mph6.0 kmh 30.23 in1023.7 mb 0.00 in0.0 mm 0.00 in0.0 mm 0.00 in0.0 mm
06:37 PM 54.1°F12.3°C 52.7°F11.5°C 95% 2.7 mph NE4.3 kmh NE 3.7 mph6.0 kmh 30.23 in1023.7 mb 0.00 in0.0 mm 0.00 in0.0 mm 0.00 in0.0 mm
06:38 PM 54.1°F12.3°C 52.7°F11.5°C 95% 1.7 mph NNE2.7 kmh NNE 3.7 mph6.0 kmh 30.23 in1023.7 mb 0.00 in0.0 mm 0.00 in0.0 mm 0.00 in0.0 mm
06:39 PM 54.1°F12.3°C 52.7°F11.5°C 95% 2.2 mph NE3.5 kmh NE 3.7 mph6.0 kmh 30.23 in1023.7 mb 0.00 in0.0 mm 0.00 in0.0 mm 0.00 in0.0 mm
06:40 PM 54.1°F12.3°C 52.7°F11.5°C 95% 2.2 mph NNW3.5 kmh NNW 3.7 mph6.0 kmh 30.23 in1023.7 mb 0.00 in0.0 mm 0.00 in0.0 mm 0.00 in0.0 mm
06:41 PM 54.1°F12.3°C 52.7°F11.5°C 95% 2.7 mph NNW4.3 kmh NNW 3.7 mph6.0 kmh 30.23 in1023.7 mb 0.00 in0.0 mm 0.00 in0.0 mm 0.00 in0.0 mm
06:42 PM 54.1°F12.3°C 52.7°F11.5°C 95% 2.2 mph WNW3.5 kmh WNW 3.7 mph6.0 kmh 30.23 in1023.7 mb 0.00 in0.0 mm 0.00 in0.0 mm 0.00 in0.0 mm
06:43 PM 54.1°F12.3°C 52.7°F11.5°C 95% 2.2 mph NNW3.5 kmh NNW 3.7 mph6.0 kmh 30.23 in1023.7 mb 0.00 in0.0 mm 0.00 in0.0 mm 0.00 in0.0 mm
06:44 PM 54.1°F12.3°C 52.7°F11.5°C 95% 2.7 mph N4.3 kmh N 3.7 mph6.0 kmh 30.23 in1023.7 mb 0.00 in0.0 mm 0.00 in0.0 mm 0.00 in0.0 mm
06:45 PM 54.1°F12.3°C 52.7°F11.5°C 95% 3.2 mph NE5.1 kmh NE 3.7 mph6.0 kmh 30.23 in1023.7 mb 0.00 in0.0 mm 0.00 in0.0 mm 0.00 in0.0 mm
06:46 PM 54.1°F12.3°C 52.7°F11.5°C 95% 2.7 mph N4.3 kmh N 3.7 mph6.0 kmh 30.23 in1023.7 mb 0.00 in0.0 mm 0.00 in0.0 mm 0.00 in0.0 mm
06:47 PM 54.1°F12.3°C 52.7°F11.5°C 95% Calm Calm 3.2 mph5.1 kmh 30.23 in1023.7 mb 0.00 in0.0 mm 0.00 in0.0 mm 0.00 in0.0 mm
06:48 PM 54.1°F12.3°C 52.7°F11.5°C 95% 1.7 mph N2.7 kmh N 3.2 mph5.1 kmh 30.23 in1023.7 mb 0.00 in0.0 mm 0.00 in0.0 mm 0.00 in0.0 mm
06:49 PM 54.1°F12.3°C 52.7°F11.5°C 95% 2.2 mph NW3.5 kmh NW 3.2 mph5.1 kmh 30.23 in1023.7 mb 0.00 in0.0 mm 0.00 in0.0 mm 0.00 in0.0 mm
06:50 PM 54.1°F12.3°C 52.7°F11.5°C 95% 1.7 mph NNE2.7 kmh NNE 3.2 mph5.1 kmh 30.22 in1023.4 mb 0.00 in0.0 mm 0.00 in0.0 mm 0.00 in0.0 mm
06:51 PM 54.1°F12.3°C 52.7°F11.5°C 95% 2.7 mph NNE4.3 kmh NNE 3.2 mph5.1 kmh 30.22 in1023.4 mb 0.00 in0.0 mm 0.00 in0.0 mm 0.00 in0.0 mm
06:52 PM 54.1°F12.3°C 52.7°F11.5°C 95% 1.7 mph NNE2.7 kmh NNE 3.2 mph5.1 kmh 30.22 in1023.4 mb 0.00 in0.0 mm 0.00 in0.0 mm 0.00 in0.0 mm
06:53 PM 54.1°F12.3°C 52.7°F11.5°C 95% Calm Calm 3.2 mph5.1 kmh 30.22 in1023.4 mb 0.00 in0.0 mm 0.00 in0.0 mm 0.00 in0.0 mm
06:54 PM 54.1°F12.3°C 52.7°F11.5°C 95% 1.7 mph N2.7 kmh N 3.2 mph5.1 kmh 30.22 in1023.4 mb 0.00 in0.0 mm 0.00 in0.0 mm 0.00 in0.0 mm
06:55 PM 54.1°F12.3°C 52.7°F11.5°C 95% 2.2 mph N3.5 kmh N 2.7 mph4.3 kmh 30.22 in1023.4 mb 0.00 in0.0 mm 0.00 in0.0 mm 0.00 in0.0 mm
06:56 PM 54.1°F12.3°C 52.7°F11.5°C 95% 2.2 mph N3.5 kmh N 2.7 mph4.3 kmh 30.22 in1023.4 mb 0.00 in0.0 mm 0.00 in0.0 mm 0.00 in0.0 mm
06:57 PM 54.1°F12.3°C 52.7°F11.5°C 95% 2.2 mph NW3.5 kmh NW 2.7 mph4.3 kmh 30.22 in1023.4 mb 0.00 in0.0 mm 0.00 in0.0 mm 0.00 in0.0 mm
06:58 PM 54.1°F12.3°C 52.7°F11.5°C 95% 2.7 mph NNE4.3 kmh NNE 2.7 mph4.3 kmh 30.22 in1023.4 mb 0.00 in0.0 mm 0.00 in0.0 mm 0.00 in0.0 mm
06:59 PM 54.1°F12.3°C 52.7°F11.5°C 95% 2.7 mph N4.3 kmh N 3.2 mph5.1 kmh 30.22 in1023.4 mb 0.00 in0.0 mm 0.00 in0.0 mm 0.00 in0.0 mm
07:00 PM 54.1°F12.3°C 52.7°F11.5°C 95% 1.7 mph NNW2.7 kmh NNW 3.2 mph5.1 kmh 30.22 in1023.4 mb 0.00 in0.0 mm 0.00 in0.0 mm 0.00 in0.0 mm
07:01 PM 54.1°F12.3°C 52.7°F11.5°C 95% 1.7 mph NNW2.7 kmh NNW 3.2 mph5.1 kmh 30.22 in1023.4 mb 0.00 in0.0 mm 0.00 in0.0 mm 0.00 in0.0 mm
07:02 PM 54.1°F12.3°C 52.7°F11.5°C 95% 1.7 mph N2.7 kmh N 3.2 mph5.1 kmh 30.23 in1023.7 mb 0.00 in0.0 mm 0.00 in0.0 mm 0.00 in0.0 mm
07:03 PM 54.1°F12.3°C 52.7°F11.5°C 95% 1.7 mph NNE2.7 kmh NNE 3.2 mph5.1 kmh 30.23 in1023.7 mb 0.00 in0.0 mm 0.00 in0.0 mm 0.00 in0.0 mm
07:04 PM 54.1°F12.3°C 52.7°F11.5°C 95% 1.1 mph NNE1.8 kmh NNE 3.2 mph5.1 kmh 30.23 in1023.7 mb 0.00 in0.0 mm 0.00 in0.0 mm 0.00 in0.0 mm
07:05 PM 54.1°F12.3°C 52.7°F11.5°C 95% 1.7 mph NE2.7 kmh NE 3.2 mph5.1 kmh 30.23 in1023.7 mb 0.00 in0.0 mm 0.00 in0.0 mm 0.00 in0.0 mm
07:06 PM 54.1°F12.3°C 52.7°F11.5°C 95% 1.7 mph N2.7 kmh N 3.2 mph5.1 kmh 30.23 in1023.7 mb 0.00 in0.0 mm 0.00 in0.0 mm 0.00 in0.0 mm
07:07 PM 54.1°F12.3°C 52.7°F11.5°C 95% 1.7 mph NNE2.7 kmh NNE 3.2 mph5.1 kmh 30.23 in1023.7 mb 0.00 in0.0 mm 0.00 in0.0 mm 0.00 in0.0 mm
07:08 PM 54.1°F12.3°C 52.7°F11.5°C 95% 2.2 mph W3.5 kmh W 3.2 mph5.1 kmh 30.23 in1023.7 mb 0.00 in0.0 mm 0.00 in0.0 mm 0.00 in0.0 mm
07:09 PM 54.1°F12.3°C 52.7°F11.5°C 95% 3.2 mph WNW5.1 kmh WNW 3.2 mph5.1 kmh 30.23 in1023.7 mb 0.00 in0.0 mm 0.00 in0.0 mm 0.00 in0.0 mm
07:10 PM 54.0°F12.2°C 52.6°F11.4°C 95% 2.7 mph NW4.3 kmh NW 3.7 mph6.0 kmh 30.23 in1023.7 mb 0.00 in0.0 mm 0.00 in0.0 mm 0.00 in0.0 mm
07:11 PM 54.0°F12.2°C 52.6°F11.4°C 95% 1.7 mph NW2.7 kmh NW 3.7 mph6.0 kmh 30.23 in1023.7 mb 0.00 in0.0 mm 0.00 in0.0 mm 0.00 in0.0 mm
07:12 PM 54.0°F12.2°C 52.6°F11.4°C 95% 2.2 mph NNW3.5 kmh NNW 3.7 mph6.0 kmh 30.23 in1023.7 mb 0.00 in0.0 mm 0.00 in0.0 mm 0.00 in0.0 mm
07:13 PM 54.0°F12.2°C 52.6°F11.4°C 95% 2.7 mph NW4.3 kmh NW 3.7 mph6.0 kmh 30.23 in1023.7 mb 0.00 in0.0 mm 0.00 in0.0 mm 0.00 in0.0 mm
07:14 PM 54.0°F12.2°C 52.6°F11.4°C 95% 2.7 mph WNW4.3 kmh WNW 3.7 mph6.0 kmh 30.23 in1023.7 mb 0.00 in0.0 mm 0.00 in0.0 mm 0.00 in0.0 mm
07:15 PM 54.0°F12.2°C 52.6°F11.4°C 95% 2.7 mph WNW4.3 kmh WNW 3.7 mph6.0 kmh 30.23 in1023.7 mb 0.00 in0.0 mm 0.00 in0.0 mm 0.00 in0.0 mm
07:16 PM 54.0°F12.2°C 52.6°F11.4°C 95% 2.7 mph WNW4.3 kmh WNW 3.7 mph6.0 kmh 30.23 in1023.7 mb 0.00 in0.0 mm 0.00 in0.0 mm 0.00 in0.0 mm
07:17 PM 54.0°F12.2°C 52.6°F11.4°C 95% 3.2 mph NW5.1 kmh NW 3.7 mph6.0 kmh 30.23 in1023.7 mb 0.00 in0.0 mm 0.00 in0.0 mm 0.00 in0.0 mm
07:18 PM 54.0°F12.2°C 52.6°F11.4°C 95% 2.2 mph NW3.5 kmh NW 3.7 mph6.0 kmh 30.23 in1023.7 mb 0.00 in0.0 mm 0.00 in0.0 mm 0.00 in0.0 mm
07:19 PM 54.0°F12.2°C 52.6°F11.4°C 95% 2.2 mph WNW3.5 kmh WNW 3.7 mph6.0 kmh 30.23 in1023.7 mb 0.00 in0.0 mm 0.00 in0.0 mm 0.00 in0.0 mm
07:20 PM 54.0°F12.2°C 52.6°F11.4°C 95% 2.2 mph NW3.5 kmh NW 3.2 mph5.1 kmh 30.23 in1023.7 mb 0.00 in0.0 mm 0.00 in0.0 mm 0.00 in0.0 mm
07:21 PM 54.0°F12.2°C 52.6°F11.4°C 95% 2.7 mph WNW4.3 kmh WNW 3.2 mph5.1 kmh 30.23 in1023.7 mb 0.00 in0.0 mm 0.00 in0.0 mm 0.00 in0.0 mm
07:22 PM 54.0°F12.2°C 52.6°F11.4°C 95% 2.2 mph WNW3.5 kmh WNW 3.2 mph5.1 kmh 30.23 in1023.7 mb 0.00 in0.0 mm 0.00 in0.0 mm 0.00 in0.0 mm
07:23 PM 54.0°F12.2°C 52.6°F11.4°C 95% 2.2 mph NW3.5 kmh NW 3.2 mph5.1 kmh 30.23 in1023.7 mb 0.00 in0.0 mm 0.00 in0.0 mm 0.00 in0.0 mm
07:24 PM 54.0°F12.2°C 52.6°F11.4°C 95% 2.7 mph NW4.3 kmh NW 3.2 mph5.1 kmh 30.23 in1023.7 mb 0.00 in0.0 mm 0.00 in0.0 mm 0.00 in0.0 mm
07:25 PM 54.0°F12.2°C 52.6°F11.4°C 95% 2.7 mph WNW4.3 kmh WNW 3.7 mph6.0 kmh 30.23 in1023.7 mb 0.00 in0.0 mm 0.00 in0.0 mm 0.00 in0.0 mm
07:26 PM 54.0°F12.2°C 52.6°F11.4°C 95% 2.7 mph NNW4.3 kmh NNW 3.7 mph6.0 kmh 30.24 in1024.0 mb 0.00 in0.0 mm 0.00 in0.0 mm 0.00 in0.0 mm
07:27 PM 54.0°F12.2°C 52.6°F11.4°C 95% 2.7 mph NNW4.3 kmh NNW 3.7 mph6.0 kmh 30.24 in1024.0 mb 0.00 in0.0 mm 0.00 in0.0 mm 0.00 in0.0 mm
07:28 PM 54.0°F12.2°C 52.6°F11.4°C 95% 2.7 mph NW4.3 kmh NW 3.7 mph6.0 kmh 30.24 in1024.0 mb 0.00 in0.0 mm 0.00 in0.0 mm 0.00 in0.0 mm
07:29 PM 54.0°F12.2°C 52.6°F11.4°C 95% 2.2 mph NW3.5 kmh NW 3.7 mph6.0 kmh 30.24 in1024.0 mb 0.00 in0.0 mm 0.00 in0.0 mm 0.00 in0.0 mm
07:30 PM 54.0°F12.2°C 52.6°F11.4°C 95% 3.7 mph W6.0 kmh W 3.7 mph6.0 kmh 30.24 in1024.0 mb 0.00 in0.0 mm 0.00 in0.0 mm 0.00 in0.0 mm
07:31 PM 54.0°F12.2°C 52.6°F11.4°C 95% 2.7 mph NNW4.3 kmh NNW 3.7 mph6.0 kmh 30.24 in1024.0 mb 0.00 in0.0 mm 0.00 in0.0 mm 0.00 in0.0 mm
07:32 PM 54.0°F12.2°C 52.6°F11.4°C 95% 3.7 mph NNW6.0 kmh NNW 3.7 mph6.0 kmh 30.24 in1024.0 mb 0.00 in0.0 mm 0.00 in0.0 mm 0.00 in0.0 mm
07:33 PM 54.0°F12.2°C 52.6°F11.4°C 95% 2.2 mph NNW3.5 kmh NNW 3.7 mph6.0 kmh 30.24 in1024.0 mb 0.00 in0.0 mm 0.00 in0.0 mm 0.00 in0.0 mm
07:34 PM 54.0°F12.2°C 52.6°F11.4°C 95% 3.7 mph NNW6.0 kmh NNW 3.7 mph6.0 kmh 30.24 in1024.0 mb 0.00 in0.0 mm 0.00 in0.0 mm 0.00 in0.0 mm
07:35 PM 53.8°F12.1°C 52.4°F11.3°C 95% 3.2 mph NW5.1 kmh NW 3.7 mph6.0 kmh 30.24 in1024.0 mb 0.00 in0.0 mm 0.00 in0.0 mm 0.00 in0.0 mm
07:36 PM 53.8°F12.1°C 52.4°F11.3°C 95% 2.7 mph NW4.3 kmh NW 3.7 mph6.0 kmh 30.24 in1024.0 mb 0.00 in0.0 mm 0.00 in0.0 mm 0.00 in0.0 mm
07:37 PM 53.8°F12.1°C 52.4°F11.3°C 95% 2.7 mph NNW4.3 kmh NNW 3.7 mph6.0 kmh 30.24 in1024.0 mb 0.00 in0.0 mm 0.00 in0.0 mm 0.00 in0.0 mm
07:38 PM 53.8°F12.1°C 52.7°F11.5°C 96% 2.2 mph NNW3.5 kmh NNW 3.7 mph6.0 kmh 30.24 in1024.0 mb 0.00 in0.0 mm 0.00 in0.0 mm 0.00 in0.0 mm
07:39 PM 53.8°F12.1°C 52.7°F11.5°C 96% 2.2 mph N3.5 kmh N 3.7 mph6.0 kmh 30.24 in1024.0 mb 0.00 in0.0 mm 0.00 in0.0 mm 0.00 in0.0 mm
07:40 PM 53.8°F12.1°C 52.7°F11.5°C 96% 1.1 mph NNW1.8 kmh NNW 3.7 mph6.0 kmh 30.24 in1024.0 mb 0.00 in0.0 mm 0.00 in0.0 mm 0.00 in0.0 mm
07:41 PM 53.8°F12.1°C 52.7°F11.5°C 96% 1.7 mph WNW2.7 kmh WNW 3.7 mph6.0 kmh 30.24 in1024.0 mb 0.00 in0.0 mm 0.00 in0.0 mm 0.00 in0.0 mm
07:42 PM 53.8°F12.1°C 52.7°F11.5°C 96% 1.1 mph NW1.8 kmh NW 3.7 mph6.0 kmh 30.24 in1024.0 mb 0.00 in0.0 mm 0.00 in0.0 mm 0.00 in0.0 mm
07:43 PM 53.8°F12.1°C 52.7°F11.5°C 96% Calm Calm 3.7 mph6.0 kmh 30.24 in1024.0 mb 0.00 in0.0 mm 0.00 in0.0 mm 0.00 in0.0 mm
07:44 PM 53.8°F12.1°C 52.7°F11.5°C 96% Calm Calm 3.7 mph6.0 kmh 30.24 in1024.0 mb 0.00 in0.0 mm 0.00 in0.0 mm 0.00 in0.0 mm
07:45 PM 53.8°F12.1°C 52.7°F11.5°C 96% Calm Calm 3.2 mph5.1 kmh 30.24 in1024.0 mb 0.00 in0.0 mm 0.00 in0.0 mm 0.00 in0.0 mm
07:46 PM 53.8°F12.1°C 52.7°F11.5°C 96% 3.7 mph NNW6.0 kmh NNW 3.7 mph6.0 kmh 30.24 in1024.0 mb 0.00 in0.0 mm 0.00 in0.0 mm 0.00 in0.0 mm
07:47 PM 53.8°F12.1°C 52.7°F11.5°C 96% 3.2 mph N5.1 kmh N 3.7 mph6.0 kmh 30.24 in1024.0 mb